<?xml version="1.0" encoding="UTF-8" standalone="no" ?>
<gpx xmlns="http://www.topografix.com/GPX/1/1" xmlns:xsi="http://www.w3.org/2001/XMLSchema-instance" xsi:schemaLocation="http://www.topografix.com/GPX/1/1 http://www.topografix.com/GPX/1/1/gpx.xsd" version="1.1" creator="VisuGPX - https://www.visugpx.com">
  <metadata>
    <name>2022-06-23 12:14:39</name>
  </metadata>
  <trk>
    <name><![CDATA[2022-06-23 12:14:39]]></name>
    <trkseg>
      <trkpt lat="47.5542" lon="4.30891">
        <ele>256.81</ele>
        <time>2022-06-23T06:25:14Z</time>
      </trkpt>
      <trkpt lat="47.5543" lon="4.30897">
        <ele>252.48</ele>
        <time>2022-06-23T06:25:32Z</time>
      </trkpt>
      <trkpt lat="47.55433" lon="4.30899">
        <ele>250.56</ele>
        <time>2022-06-23T06:25:54Z</time>
      </trkpt>
      <trkpt lat="47.55433" lon="4.30899">
        <ele>246.23</ele>
        <time>2022-06-23T06:26:22Z</time>
      </trkpt>
      <trkpt lat="47.55438" lon="4.30894">
        <ele>250.56</ele>
        <time>2022-06-23T06:26:36Z</time>
      </trkpt>
      <trkpt lat="47.5544" lon="4.30897">
        <ele>250.08</ele>
        <time>2022-06-23T06:26:40Z</time>
      </trkpt>
      <trkpt lat="47.55443" lon="4.30902">
        <ele>250.56</ele>
        <time>2022-06-23T06:26:44Z</time>
      </trkpt>
      <trkpt lat="47.55457" lon="4.30931">
        <ele>252.48</ele>
        <time>2022-06-23T06:26:58Z</time>
      </trkpt>
      <trkpt lat="47.5548" lon="4.30941">
        <ele>254.41</ele>
        <time>2022-06-23T06:27:13Z</time>
      </trkpt>
      <trkpt lat="47.55491" lon="4.30982">
        <ele>257.77</ele>
        <time>2022-06-23T06:27:28Z</time>
      </trkpt>
      <trkpt lat="47.55499" lon="4.31069">
        <ele>256.81</ele>
        <time>2022-06-23T06:27:48Z</time>
      </trkpt>
      <trkpt lat="47.55515" lon="4.31155">
        <ele>259.21</ele>
        <time>2022-06-23T06:28:10Z</time>
      </trkpt>
      <trkpt lat="47.5552" lon="4.31217">
        <ele>262.58</ele>
        <time>2022-06-23T06:28:28Z</time>
      </trkpt>
      <trkpt lat="47.55521" lon="4.31272">
        <ele>264.98</ele>
        <time>2022-06-23T06:28:44Z</time>
      </trkpt>
      <trkpt lat="47.55521" lon="4.31342">
        <ele>268.35</ele>
        <time>2022-06-23T06:29:03Z</time>
      </trkpt>
      <trkpt lat="47.55525" lon="4.31398">
        <ele>270.75</ele>
        <time>2022-06-23T06:29:18Z</time>
      </trkpt>
      <trkpt lat="47.55532" lon="4.3148">
        <ele>268.83</ele>
        <time>2022-06-23T06:29:34Z</time>
      </trkpt>
      <trkpt lat="47.55513" lon="4.31578">
        <ele>267.38</ele>
        <time>2022-06-23T06:29:53Z</time>
      </trkpt>
      <trkpt lat="47.55468" lon="4.31685">
        <ele>264.98</ele>
        <time>2022-06-23T06:30:14Z</time>
      </trkpt>
      <trkpt lat="47.55422" lon="4.3178">
        <ele>262.1</ele>
        <time>2022-06-23T06:30:32Z</time>
      </trkpt>
      <trkpt lat="47.55392" lon="4.31875">
        <ele>262.58</ele>
        <time>2022-06-23T06:30:53Z</time>
      </trkpt>
      <trkpt lat="47.55367" lon="4.31956">
        <ele>264.98</ele>
        <time>2022-06-23T06:31:16Z</time>
      </trkpt>
      <trkpt lat="47.55343" lon="4.32042">
        <ele>266.9</ele>
        <time>2022-06-23T06:31:42Z</time>
      </trkpt>
      <trkpt lat="47.55323" lon="4.32117">
        <ele>269.31</ele>
        <time>2022-06-23T06:32:04Z</time>
      </trkpt>
      <trkpt lat="47.553" lon="4.32197">
        <ele>271.23</ele>
        <time>2022-06-23T06:32:29Z</time>
      </trkpt>
      <trkpt lat="47.5528" lon="4.32252">
        <ele>275.56</ele>
        <time>2022-06-23T06:32:52Z</time>
      </trkpt>
      <trkpt lat="47.5526" lon="4.32304">
        <ele>277</ele>
        <time>2022-06-23T06:33:15Z</time>
      </trkpt>
      <trkpt lat="47.55244" lon="4.32352">
        <ele>280.36</ele>
        <time>2022-06-23T06:33:35Z</time>
      </trkpt>
      <trkpt lat="47.55231" lon="4.32396">
        <ele>284.69</ele>
        <time>2022-06-23T06:33:54Z</time>
      </trkpt>
      <trkpt lat="47.55223" lon="4.32444">
        <ele>290.94</ele>
        <time>2022-06-23T06:34:15Z</time>
      </trkpt>
      <trkpt lat="47.55216" lon="4.32489">
        <ele>295.74</ele>
        <time>2022-06-23T06:34:34Z</time>
      </trkpt>
      <trkpt lat="47.55208" lon="4.3254">
        <ele>299.11</ele>
        <time>2022-06-23T06:34:52Z</time>
      </trkpt>
      <trkpt lat="47.55201" lon="4.32586">
        <ele>303.43</ele>
        <time>2022-06-23T06:35:10Z</time>
      </trkpt>
      <trkpt lat="47.55201" lon="4.32629">
        <ele>307.28</ele>
        <time>2022-06-23T06:35:27Z</time>
      </trkpt>
      <trkpt lat="47.55201" lon="4.32631">
        <ele>307.28</ele>
        <time>2022-06-23T06:35:28Z</time>
      </trkpt>
      <trkpt lat="47.55202" lon="4.32633">
        <ele>307.28</ele>
        <time>2022-06-23T06:35:29Z</time>
      </trkpt>
      <trkpt lat="47.55202" lon="4.32635">
        <ele>307.76</ele>
        <time>2022-06-23T06:35:30Z</time>
      </trkpt>
      <trkpt lat="47.55202" lon="4.32637">
        <ele>307.76</ele>
        <time>2022-06-23T06:35:31Z</time>
      </trkpt>
      <trkpt lat="47.55202" lon="4.3264">
        <ele>308.24</ele>
        <time>2022-06-23T06:35:32Z</time>
      </trkpt>
      <trkpt lat="47.55202" lon="4.32643">
        <ele>308.24</ele>
        <time>2022-06-23T06:35:33Z</time>
      </trkpt>
      <trkpt lat="47.55202" lon="4.32646">
        <ele>308.72</ele>
        <time>2022-06-23T06:35:34Z</time>
      </trkpt>
      <trkpt lat="47.55208" lon="4.3269">
        <ele>314.01</ele>
        <time>2022-06-23T06:35:51Z</time>
      </trkpt>
      <trkpt lat="47.55224" lon="4.32747">
        <ele>313.53</ele>
        <time>2022-06-23T06:36:13Z</time>
      </trkpt>
      <trkpt lat="47.55232" lon="4.32788">
        <ele>319.3</ele>
        <time>2022-06-23T06:36:31Z</time>
      </trkpt>
      <trkpt lat="47.55245" lon="4.3284">
        <ele>323.62</ele>
        <time>2022-06-23T06:36:53Z</time>
      </trkpt>
      <trkpt lat="47.55256" lon="4.3289">
        <ele>324.58</ele>
        <time>2022-06-23T06:37:13Z</time>
      </trkpt>
      <trkpt lat="47.55266" lon="4.32943">
        <ele>323.62</ele>
        <time>2022-06-23T06:37:33Z</time>
      </trkpt>
      <trkpt lat="47.55282" lon="4.33004">
        <ele>319.78</ele>
        <time>2022-06-23T06:37:56Z</time>
      </trkpt>
      <trkpt lat="47.55297" lon="4.33062">
        <ele>320.26</ele>
        <time>2022-06-23T06:38:19Z</time>
      </trkpt>
      <trkpt lat="47.55311" lon="4.33115">
        <ele>322.18</ele>
        <time>2022-06-23T06:38:42Z</time>
      </trkpt>
      <trkpt lat="47.55324" lon="4.33169">
        <ele>324.58</ele>
        <time>2022-06-23T06:39:04Z</time>
      </trkpt>
      <trkpt lat="47.55339" lon="4.33237">
        <ele>325.54</ele>
        <time>2022-06-23T06:39:29Z</time>
      </trkpt>
      <trkpt lat="47.55355" lon="4.3331">
        <ele>328.43</ele>
        <time>2022-06-23T06:39:55Z</time>
      </trkpt>
      <trkpt lat="47.5537" lon="4.33381">
        <ele>327.95</ele>
        <time>2022-06-23T06:40:12Z</time>
      </trkpt>
      <trkpt lat="47.55372" lon="4.33396">
        <ele>327.47</ele>
        <time>2022-06-23T06:40:14Z</time>
      </trkpt>
      <trkpt lat="47.55368" lon="4.33526">
        <ele>322.18</ele>
        <time>2022-06-23T06:40:27Z</time>
      </trkpt>
      <trkpt lat="47.55358" lon="4.33788">
        <ele>313.05</ele>
        <time>2022-06-23T06:40:47Z</time>
      </trkpt>
      <trkpt lat="47.55365" lon="4.34188">
        <ele>301.99</ele>
        <time>2022-06-23T06:41:17Z</time>
      </trkpt>
      <trkpt lat="47.55374" lon="4.34249">
        <ele>304.39</ele>
        <time>2022-06-23T06:41:27Z</time>
      </trkpt>
      <trkpt lat="47.5537" lon="4.34318">
        <ele>308.24</ele>
        <time>2022-06-23T06:41:48Z</time>
      </trkpt>
      <trkpt lat="47.55356" lon="4.3438">
        <ele>311.12</ele>
        <time>2022-06-23T06:42:09Z</time>
      </trkpt>
      <trkpt lat="47.55348" lon="4.34426">
        <ele>313.53</ele>
        <time>2022-06-23T06:42:21Z</time>
      </trkpt>
      <trkpt lat="47.55336" lon="4.34449">
        <ele>315.45</ele>
        <time>2022-06-23T06:42:27Z</time>
      </trkpt>
      <trkpt lat="47.55331" lon="4.34452">
        <ele>316.41</ele>
        <time>2022-06-23T06:42:28Z</time>
      </trkpt>
      <trkpt lat="47.55325" lon="4.34455">
        <ele>317.37</ele>
        <time>2022-06-23T06:42:29Z</time>
      </trkpt>
      <trkpt lat="47.5532" lon="4.34461">
        <ele>318.33</ele>
        <time>2022-06-23T06:42:30Z</time>
      </trkpt>
      <trkpt lat="47.55317" lon="4.34469">
        <ele>319.3</ele>
        <time>2022-06-23T06:42:31Z</time>
      </trkpt>
      <trkpt lat="47.5532" lon="4.34477">
        <ele>320.74</ele>
        <time>2022-06-23T06:42:32Z</time>
      </trkpt>
      <trkpt lat="47.55325" lon="4.34487">
        <ele>321.7</ele>
        <time>2022-06-23T06:42:33Z</time>
      </trkpt>
      <trkpt lat="47.55331" lon="4.34496">
        <ele>322.18</ele>
        <time>2022-06-23T06:42:34Z</time>
      </trkpt>
      <trkpt lat="47.55393" lon="4.34596">
        <ele>319.78</ele>
        <time>2022-06-23T06:42:44Z</time>
      </trkpt>
      <trkpt lat="47.55402" lon="4.34603">
        <ele>319.3</ele>
        <time>2022-06-23T06:42:45Z</time>
      </trkpt>
      <trkpt lat="47.5541" lon="4.34608">
        <ele>318.33</ele>
        <time>2022-06-23T06:42:46Z</time>
      </trkpt>
      <trkpt lat="47.55418" lon="4.34614">
        <ele>317.37</ele>
        <time>2022-06-23T06:42:47Z</time>
      </trkpt>
      <trkpt lat="47.55425" lon="4.34618">
        <ele>316.89</ele>
        <time>2022-06-23T06:42:48Z</time>
      </trkpt>
      <trkpt lat="47.55448" lon="4.34636">
        <ele>313.53</ele>
        <time>2022-06-23T06:42:55Z</time>
      </trkpt>
      <trkpt lat="47.55463" lon="4.34648">
        <ele>310.16</ele>
        <time>2022-06-23T06:43:02Z</time>
      </trkpt>
      <trkpt lat="47.55502" lon="4.34689">
        <ele>312.09</ele>
        <time>2022-06-23T06:43:19Z</time>
      </trkpt>
      <trkpt lat="47.55534" lon="4.34702">
        <ele>311.6</ele>
        <time>2022-06-23T06:43:33Z</time>
      </trkpt>
      <trkpt lat="47.55566" lon="4.3471">
        <ele>310.64</ele>
        <time>2022-06-23T06:43:53Z</time>
      </trkpt>
      <trkpt lat="47.55587" lon="4.34717">
        <ele>311.12</ele>
        <time>2022-06-23T06:44:10Z</time>
      </trkpt>
      <trkpt lat="47.55605" lon="4.34729">
        <ele>315.45</ele>
        <time>2022-06-23T06:44:29Z</time>
      </trkpt>
      <trkpt lat="47.55625" lon="4.34743">
        <ele>320.26</ele>
        <time>2022-06-23T06:44:49Z</time>
      </trkpt>
      <trkpt lat="47.55637" lon="4.34753">
        <ele>321.7</ele>
        <time>2022-06-23T06:45:02Z</time>
      </trkpt>
      <trkpt lat="47.5565" lon="4.34774">
        <ele>323.62</ele>
        <time>2022-06-23T06:45:20Z</time>
      </trkpt>
      <trkpt lat="47.55657" lon="4.348">
        <ele>330.35</ele>
        <time>2022-06-23T06:45:38Z</time>
      </trkpt>
      <trkpt lat="47.55663" lon="4.34826">
        <ele>336.6</ele>
        <time>2022-06-23T06:45:56Z</time>
      </trkpt>
      <trkpt lat="47.55674" lon="4.34865">
        <ele>338.04</ele>
        <time>2022-06-23T06:46:19Z</time>
      </trkpt>
      <trkpt lat="47.55686" lon="4.34902">
        <ele>338.52</ele>
        <time>2022-06-23T06:46:40Z</time>
      </trkpt>
      <trkpt lat="47.557" lon="4.3494">
        <ele>337.56</ele>
        <time>2022-06-23T06:47:00Z</time>
      </trkpt>
      <trkpt lat="47.55707" lon="4.34966">
        <ele>340.44</ele>
        <time>2022-06-23T06:47:17Z</time>
      </trkpt>
      <trkpt lat="47.55716" lon="4.34993">
        <ele>342.37</ele>
        <time>2022-06-23T06:47:34Z</time>
      </trkpt>
      <trkpt lat="47.55729" lon="4.35023">
        <ele>343.81</ele>
        <time>2022-06-23T06:47:53Z</time>
      </trkpt>
      <trkpt lat="47.55744" lon="4.35053">
        <ele>346.69</ele>
        <time>2022-06-23T06:48:15Z</time>
      </trkpt>
      <trkpt lat="47.55756" lon="4.35072">
        <ele>350.06</ele>
        <time>2022-06-23T06:48:31Z</time>
      </trkpt>
      <trkpt lat="47.55771" lon="4.35094">
        <ele>353.9</ele>
        <time>2022-06-23T06:48:49Z</time>
      </trkpt>
      <trkpt lat="47.55788" lon="4.35112">
        <ele>357.75</ele>
        <time>2022-06-23T06:49:08Z</time>
      </trkpt>
      <trkpt lat="47.55807" lon="4.35132">
        <ele>361.11</ele>
        <time>2022-06-23T06:49:28Z</time>
      </trkpt>
      <trkpt lat="47.55823" lon="4.3515">
        <ele>364.96</ele>
        <time>2022-06-23T06:49:46Z</time>
      </trkpt>
      <trkpt lat="47.5584" lon="4.35171">
        <ele>368.32</ele>
        <time>2022-06-23T06:50:05Z</time>
      </trkpt>
      <trkpt lat="47.55858" lon="4.35195">
        <ele>372.65</ele>
        <time>2022-06-23T06:50:26Z</time>
      </trkpt>
      <trkpt lat="47.55874" lon="4.35213">
        <ele>375.53</ele>
        <time>2022-06-23T06:50:43Z</time>
      </trkpt>
      <trkpt lat="47.55895" lon="4.35242">
        <ele>379.86</ele>
        <time>2022-06-23T06:51:03Z</time>
      </trkpt>
      <trkpt lat="47.55917" lon="4.3527">
        <ele>380.34</ele>
        <time>2022-06-23T06:51:19Z</time>
      </trkpt>
      <trkpt lat="47.55947" lon="4.3532">
        <ele>376.49</ele>
        <time>2022-06-23T06:51:37Z</time>
      </trkpt>
      <trkpt lat="47.55984" lon="4.35396">
        <ele>372.65</ele>
        <time>2022-06-23T06:51:59Z</time>
      </trkpt>
      <trkpt lat="47.56007" lon="4.35452">
        <ele>372.17</ele>
        <time>2022-06-23T06:52:15Z</time>
      </trkpt>
      <trkpt lat="47.56034" lon="4.35516">
        <ele>372.65</ele>
        <time>2022-06-23T06:52:33Z</time>
      </trkpt>
      <trkpt lat="47.56057" lon="4.35565">
        <ele>374.57</ele>
        <time>2022-06-23T06:52:51Z</time>
      </trkpt>
      <trkpt lat="47.56082" lon="4.35608">
        <ele>376.49</ele>
        <time>2022-06-23T06:53:10Z</time>
      </trkpt>
      <trkpt lat="47.56118" lon="4.35656">
        <ele>378.9</ele>
        <time>2022-06-23T06:53:34Z</time>
      </trkpt>
      <trkpt lat="47.56143" lon="4.35698">
        <ele>380.34</ele>
        <time>2022-06-23T06:53:51Z</time>
      </trkpt>
      <trkpt lat="47.56173" lon="4.35746">
        <ele>382.26</ele>
        <time>2022-06-23T06:54:07Z</time>
      </trkpt>
      <trkpt lat="47.56198" lon="4.35809">
        <ele>385.15</ele>
        <time>2022-06-23T06:54:23Z</time>
      </trkpt>
      <trkpt lat="47.56227" lon="4.35858">
        <ele>384.18</ele>
        <time>2022-06-23T06:54:35Z</time>
      </trkpt>
      <trkpt lat="47.56254" lon="4.35923">
        <ele>379.86</ele>
        <time>2022-06-23T06:54:47Z</time>
      </trkpt>
      <trkpt lat="47.56292" lon="4.35963">
        <ele>374.57</ele>
        <time>2022-06-23T06:54:58Z</time>
      </trkpt>
      <trkpt lat="47.56351" lon="4.36041">
        <ele>367.36</ele>
        <time>2022-06-23T06:55:11Z</time>
      </trkpt>
      <trkpt lat="47.56403" lon="4.36111">
        <ele>363.04</ele>
        <time>2022-06-23T06:55:25Z</time>
      </trkpt>
      <trkpt lat="47.56459" lon="4.36165">
        <ele>364</ele>
        <time>2022-06-23T06:55:43Z</time>
      </trkpt>
      <trkpt lat="47.56481" lon="4.36134">
        <ele>363.04</ele>
        <time>2022-06-23T06:55:52Z</time>
      </trkpt>
      <trkpt lat="47.5651" lon="4.36059">
        <ele>360.15</ele>
        <time>2022-06-23T06:56:04Z</time>
      </trkpt>
      <trkpt lat="47.56537" lon="4.36033">
        <ele>358.71</ele>
        <time>2022-06-23T06:56:09Z</time>
      </trkpt>
      <trkpt lat="47.56599" lon="4.36015">
        <ele>356.79</ele>
        <time>2022-06-23T06:56:19Z</time>
      </trkpt>
      <trkpt lat="47.56627" lon="4.36023">
        <ele>356.31</ele>
        <time>2022-06-23T06:56:24Z</time>
      </trkpt>
      <trkpt lat="47.5668" lon="4.36039">
        <ele>358.71</ele>
        <time>2022-06-23T06:56:38Z</time>
      </trkpt>
      <trkpt lat="47.56733" lon="4.35996">
        <ele>365.44</ele>
        <time>2022-06-23T06:56:54Z</time>
      </trkpt>
      <trkpt lat="47.56792" lon="4.3592">
        <ele>366.88</ele>
        <time>2022-06-23T06:57:10Z</time>
      </trkpt>
      <trkpt lat="47.56877" lon="4.35866">
        <ele>360.15</ele>
        <time>2022-06-23T06:57:26Z</time>
      </trkpt>
      <trkpt lat="47.56967" lon="4.35814">
        <ele>355.83</ele>
        <time>2022-06-23T06:57:43Z</time>
      </trkpt>
      <trkpt lat="47.57055" lon="4.35771">
        <ele>354.86</ele>
        <time>2022-06-23T06:57:59Z</time>
      </trkpt>
      <trkpt lat="47.57061" lon="4.35768">
        <ele>354.86</ele>
        <time>2022-06-23T06:58:00Z</time>
      </trkpt>
      <trkpt lat="47.57096" lon="4.35759">
        <ele>354.38</ele>
        <time>2022-06-23T06:58:06Z</time>
      </trkpt>
      <trkpt lat="47.57107" lon="4.35759">
        <ele>354.38</ele>
        <time>2022-06-23T06:58:08Z</time>
      </trkpt>
      <trkpt lat="47.5716" lon="4.35752">
        <ele>353.42</ele>
        <time>2022-06-23T06:58:17Z</time>
      </trkpt>
      <trkpt lat="47.57187" lon="4.35724">
        <ele>350.54</ele>
        <time>2022-06-23T06:58:22Z</time>
      </trkpt>
      <trkpt lat="47.57231" lon="4.35652">
        <ele>344.77</ele>
        <time>2022-06-23T06:58:30Z</time>
      </trkpt>
      <trkpt lat="47.57258" lon="4.35638">
        <ele>342.85</ele>
        <time>2022-06-23T06:58:36Z</time>
      </trkpt>
      <trkpt lat="47.5726" lon="4.3564">
        <ele>343.33</ele>
        <time>2022-06-23T06:58:37Z</time>
      </trkpt>
      <trkpt lat="47.57261" lon="4.35642">
        <ele>343.33</ele>
        <time>2022-06-23T06:58:38Z</time>
      </trkpt>
      <trkpt lat="47.57261" lon="4.35645">
        <ele>343.81</ele>
        <time>2022-06-23T06:58:39Z</time>
      </trkpt>
      <trkpt lat="47.57261" lon="4.35648">
        <ele>343.81</ele>
        <time>2022-06-23T06:58:40Z</time>
      </trkpt>
      <trkpt lat="47.5726" lon="4.35651">
        <ele>343.81</ele>
        <time>2022-06-23T06:58:41Z</time>
      </trkpt>
      <trkpt lat="47.57263" lon="4.35702">
        <ele>347.65</ele>
        <time>2022-06-23T06:58:59Z</time>
      </trkpt>
      <trkpt lat="47.57291" lon="4.3575">
        <ele>347.65</ele>
        <time>2022-06-23T06:59:20Z</time>
      </trkpt>
      <trkpt lat="47.5733" lon="4.35764">
        <ele>348.13</ele>
        <time>2022-06-23T06:59:39Z</time>
      </trkpt>
      <trkpt lat="47.57356" lon="4.35797">
        <ele>351.02</ele>
        <time>2022-06-23T06:59:57Z</time>
      </trkpt>
      <trkpt lat="47.57364" lon="4.35858">
        <ele>354.86</ele>
        <time>2022-06-23T07:00:19Z</time>
      </trkpt>
      <trkpt lat="47.57374" lon="4.35921">
        <ele>359.19</ele>
        <time>2022-06-23T07:00:42Z</time>
      </trkpt>
      <trkpt lat="47.57389" lon="4.35954">
        <ele>362.55</ele>
        <time>2022-06-23T07:00:57Z</time>
      </trkpt>
      <trkpt lat="47.57411" lon="4.35978">
        <ele>368.32</ele>
        <time>2022-06-23T07:01:15Z</time>
      </trkpt>
      <trkpt lat="47.57437" lon="4.36001">
        <ele>372.17</ele>
        <time>2022-06-23T07:01:33Z</time>
      </trkpt>
      <trkpt lat="47.57455" lon="4.36027">
        <ele>376.49</ele>
        <time>2022-06-23T07:01:49Z</time>
      </trkpt>
      <trkpt lat="47.57471" lon="4.3606">
        <ele>380.34</ele>
        <time>2022-06-23T07:02:06Z</time>
      </trkpt>
      <trkpt lat="47.57491" lon="4.36107">
        <ele>375.05</ele>
        <time>2022-06-23T07:02:24Z</time>
      </trkpt>
      <trkpt lat="47.57508" lon="4.36159">
        <ele>372.65</ele>
        <time>2022-06-23T07:02:44Z</time>
      </trkpt>
      <trkpt lat="47.57514" lon="4.36222">
        <ele>373.13</ele>
        <time>2022-06-23T07:03:05Z</time>
      </trkpt>
      <trkpt lat="47.57518" lon="4.36293">
        <ele>373.13</ele>
        <time>2022-06-23T07:03:25Z</time>
      </trkpt>
      <trkpt lat="47.57529" lon="4.36336">
        <ele>373.61</ele>
        <time>2022-06-23T07:03:40Z</time>
      </trkpt>
      <trkpt lat="47.57545" lon="4.36393">
        <ele>374.57</ele>
        <time>2022-06-23T07:04:02Z</time>
      </trkpt>
      <trkpt lat="47.57561" lon="4.36452">
        <ele>377.45</ele>
        <time>2022-06-23T07:04:25Z</time>
      </trkpt>
      <trkpt lat="47.57576" lon="4.36499">
        <ele>379.38</ele>
        <time>2022-06-23T07:04:44Z</time>
      </trkpt>
      <trkpt lat="47.57594" lon="4.36549">
        <ele>381.3</ele>
        <time>2022-06-23T07:05:04Z</time>
      </trkpt>
      <trkpt lat="47.57613" lon="4.36602">
        <ele>383.7</ele>
        <time>2022-06-23T07:05:26Z</time>
      </trkpt>
      <trkpt lat="47.57631" lon="4.36647">
        <ele>385.15</ele>
        <time>2022-06-23T07:05:46Z</time>
      </trkpt>
      <trkpt lat="47.57649" lon="4.36699">
        <ele>386.59</ele>
        <time>2022-06-23T07:06:08Z</time>
      </trkpt>
      <trkpt lat="47.57668" lon="4.36749">
        <ele>388.03</ele>
        <time>2022-06-23T07:06:29Z</time>
      </trkpt>
      <trkpt lat="47.57687" lon="4.3679">
        <ele>388.99</ele>
        <time>2022-06-23T07:06:45Z</time>
      </trkpt>
      <trkpt lat="47.57707" lon="4.3684">
        <ele>388.99</ele>
        <time>2022-06-23T07:07:01Z</time>
      </trkpt>
      <trkpt lat="47.57728" lon="4.36926">
        <ele>387.07</ele>
        <time>2022-06-23T07:07:17Z</time>
      </trkpt>
      <trkpt lat="47.57733" lon="4.36948">
        <ele>386.11</ele>
        <time>2022-06-23T07:07:20Z</time>
      </trkpt>
      <trkpt lat="47.57734" lon="4.36955">
        <ele>385.63</ele>
        <time>2022-06-23T07:07:21Z</time>
      </trkpt>
      <trkpt lat="47.57735" lon="4.36963">
        <ele>385.15</ele>
        <time>2022-06-23T07:07:22Z</time>
      </trkpt>
      <trkpt lat="47.57758" lon="4.37084">
        <ele>376.49</ele>
        <time>2022-06-23T07:07:32Z</time>
      </trkpt>
      <trkpt lat="47.57786" lon="4.37259">
        <ele>367.84</ele>
        <time>2022-06-23T07:07:45Z</time>
      </trkpt>
      <trkpt lat="47.5779" lon="4.37267">
        <ele>367.84</ele>
        <time>2022-06-23T07:07:46Z</time>
      </trkpt>
      <trkpt lat="47.57794" lon="4.37272">
        <ele>367.36</ele>
        <time>2022-06-23T07:07:47Z</time>
      </trkpt>
      <trkpt lat="47.57799" lon="4.37273">
        <ele>367.36</ele>
        <time>2022-06-23T07:07:48Z</time>
      </trkpt>
      <trkpt lat="47.57804" lon="4.37273">
        <ele>367.36</ele>
        <time>2022-06-23T07:07:49Z</time>
      </trkpt>
      <trkpt lat="47.57809" lon="4.37272">
        <ele>367.36</ele>
        <time>2022-06-23T07:07:50Z</time>
      </trkpt>
      <trkpt lat="47.57874" lon="4.37253">
        <ele>367.36</ele>
        <time>2022-06-23T07:08:04Z</time>
      </trkpt>
      <trkpt lat="47.57923" lon="4.37247">
        <ele>365.92</ele>
        <time>2022-06-23T07:08:17Z</time>
      </trkpt>
      <trkpt lat="47.57928" lon="4.3725">
        <ele>366.4</ele>
        <time>2022-06-23T07:08:19Z</time>
      </trkpt>
      <trkpt lat="47.5793" lon="4.37253">
        <ele>366.4</ele>
        <time>2022-06-23T07:08:20Z</time>
      </trkpt>
      <trkpt lat="47.57931" lon="4.37258">
        <ele>366.4</ele>
        <time>2022-06-23T07:08:21Z</time>
      </trkpt>
      <trkpt lat="47.57933" lon="4.37262">
        <ele>366.88</ele>
        <time>2022-06-23T07:08:22Z</time>
      </trkpt>
      <trkpt lat="47.57934" lon="4.37266">
        <ele>366.88</ele>
        <time>2022-06-23T07:08:23Z</time>
      </trkpt>
      <trkpt lat="47.57953" lon="4.37328">
        <ele>369.28</ele>
        <time>2022-06-23T07:08:40Z</time>
      </trkpt>
      <trkpt lat="47.57984" lon="4.37424">
        <ele>370.24</ele>
        <time>2022-06-23T07:09:04Z</time>
      </trkpt>
      <trkpt lat="47.58014" lon="4.37523">
        <ele>370.24</ele>
        <time>2022-06-23T07:09:24Z</time>
      </trkpt>
      <trkpt lat="47.58051" lon="4.37642">
        <ele>368.8</ele>
        <time>2022-06-23T07:09:45Z</time>
      </trkpt>
      <trkpt lat="47.58089" lon="4.37748">
        <ele>364.48</ele>
        <time>2022-06-23T07:10:01Z</time>
      </trkpt>
      <trkpt lat="47.58133" lon="4.37851">
        <ele>355.34</ele>
        <time>2022-06-23T07:10:14Z</time>
      </trkpt>
      <trkpt lat="47.58192" lon="4.37952">
        <ele>345.25</ele>
        <time>2022-06-23T07:10:24Z</time>
      </trkpt>
      <trkpt lat="47.58227" lon="4.37987">
        <ele>342.37</ele>
        <time>2022-06-23T07:10:31Z</time>
      </trkpt>
      <trkpt lat="47.58259" lon="4.37991">
        <ele>344.29</ele>
        <time>2022-06-23T07:10:42Z</time>
      </trkpt>
      <trkpt lat="47.5831" lon="4.37999">
        <ele>347.17</ele>
        <time>2022-06-23T07:11:01Z</time>
      </trkpt>
      <trkpt lat="47.58333" lon="4.38012">
        <ele>348.13</ele>
        <time>2022-06-23T07:11:12Z</time>
      </trkpt>
      <trkpt lat="47.58357" lon="4.38052">
        <ele>350.54</ele>
        <time>2022-06-23T07:11:31Z</time>
      </trkpt>
      <trkpt lat="47.58394" lon="4.38087">
        <ele>354.38</ele>
        <time>2022-06-23T07:11:54Z</time>
      </trkpt>
      <trkpt lat="47.58425" lon="4.38093">
        <ele>355.34</ele>
        <time>2022-06-23T07:12:10Z</time>
      </trkpt>
      <trkpt lat="47.58457" lon="4.38113">
        <ele>357.27</ele>
        <time>2022-06-23T07:12:27Z</time>
      </trkpt>
      <trkpt lat="47.58482" lon="4.38159">
        <ele>358.71</ele>
        <time>2022-06-23T07:12:46Z</time>
      </trkpt>
      <trkpt lat="47.58508" lon="4.38207">
        <ele>360.15</ele>
        <time>2022-06-23T07:13:05Z</time>
      </trkpt>
      <trkpt lat="47.58533" lon="4.38254">
        <ele>361.59</ele>
        <time>2022-06-23T07:13:21Z</time>
      </trkpt>
      <trkpt lat="47.58568" lon="4.38326">
        <ele>361.59</ele>
        <time>2022-06-23T07:13:41Z</time>
      </trkpt>
      <trkpt lat="47.58599" lon="4.38393">
        <ele>361.11</ele>
        <time>2022-06-23T07:13:55Z</time>
      </trkpt>
      <trkpt lat="47.58639" lon="4.38478">
        <ele>361.11</ele>
        <time>2022-06-23T07:14:11Z</time>
      </trkpt>
      <trkpt lat="47.58631" lon="4.38511">
        <ele>362.07</ele>
        <time>2022-06-23T07:14:20Z</time>
      </trkpt>
      <trkpt lat="47.58591" lon="4.38559">
        <ele>364</ele>
        <time>2022-06-23T07:14:38Z</time>
      </trkpt>
      <trkpt lat="47.58547" lon="4.38614">
        <ele>365.92</ele>
        <time>2022-06-23T07:14:58Z</time>
      </trkpt>
      <trkpt lat="47.58499" lon="4.3867">
        <ele>368.32</ele>
        <time>2022-06-23T07:15:19Z</time>
      </trkpt>
      <trkpt lat="47.58451" lon="4.38729">
        <ele>368.32</ele>
        <time>2022-06-23T07:15:38Z</time>
      </trkpt>
      <trkpt lat="47.58378" lon="4.38815">
        <ele>365.44</ele>
        <time>2022-06-23T07:15:57Z</time>
      </trkpt>
      <trkpt lat="47.58297" lon="4.38895">
        <ele>364.48</ele>
        <time>2022-06-23T07:16:15Z</time>
      </trkpt>
      <trkpt lat="47.58208" lon="4.38981">
        <ele>364.48</ele>
        <time>2022-06-23T07:16:36Z</time>
      </trkpt>
      <trkpt lat="47.58149" lon="4.39035">
        <ele>365.44</ele>
        <time>2022-06-23T07:16:54Z</time>
      </trkpt>
      <trkpt lat="47.58102" lon="4.39078">
        <ele>366.4</ele>
        <time>2022-06-23T07:17:11Z</time>
      </trkpt>
      <trkpt lat="47.58042" lon="4.39131">
        <ele>367.36</ele>
        <time>2022-06-23T07:17:32Z</time>
      </trkpt>
      <trkpt lat="47.58002" lon="4.39175">
        <ele>368.32</ele>
        <time>2022-06-23T07:17:47Z</time>
      </trkpt>
      <trkpt lat="47.57942" lon="4.39234">
        <ele>369.28</ele>
        <time>2022-06-23T07:18:08Z</time>
      </trkpt>
      <trkpt lat="47.57875" lon="4.39297">
        <ele>369.28</ele>
        <time>2022-06-23T07:18:31Z</time>
      </trkpt>
      <trkpt lat="47.5783" lon="4.39341">
        <ele>371.69</ele>
        <time>2022-06-23T07:18:47Z</time>
      </trkpt>
      <trkpt lat="47.57776" lon="4.39406">
        <ele>372.65</ele>
        <time>2022-06-23T07:19:07Z</time>
      </trkpt>
      <trkpt lat="47.57735" lon="4.39457">
        <ele>372.65</ele>
        <time>2022-06-23T07:19:20Z</time>
      </trkpt>
      <trkpt lat="47.57732" lon="4.39459">
        <ele>372.65</ele>
        <time>2022-06-23T07:19:21Z</time>
      </trkpt>
      <trkpt lat="47.57666" lon="4.39482">
        <ele>372.17</ele>
        <time>2022-06-23T07:19:38Z</time>
      </trkpt>
      <trkpt lat="47.57596" lon="4.3949">
        <ele>371.69</ele>
        <time>2022-06-23T07:19:57Z</time>
      </trkpt>
      <trkpt lat="47.5753" lon="4.39502">
        <ele>370.73</ele>
        <time>2022-06-23T07:20:14Z</time>
      </trkpt>
      <trkpt lat="47.57509" lon="4.39509">
        <ele>370.73</ele>
        <time>2022-06-23T07:20:20Z</time>
      </trkpt>
      <trkpt lat="47.57507" lon="4.39513">
        <ele>370.24</ele>
        <time>2022-06-23T07:20:21Z</time>
      </trkpt>
      <trkpt lat="47.57506" lon="4.39519">
        <ele>370.24</ele>
        <time>2022-06-23T07:20:22Z</time>
      </trkpt>
      <trkpt lat="47.57507" lon="4.39525">
        <ele>369.76</ele>
        <time>2022-06-23T07:20:23Z</time>
      </trkpt>
      <trkpt lat="47.57508" lon="4.39532">
        <ele>369.76</ele>
        <time>2022-06-23T07:20:24Z</time>
      </trkpt>
      <trkpt lat="47.5751" lon="4.39539">
        <ele>369.28</ele>
        <time>2022-06-23T07:20:25Z</time>
      </trkpt>
      <trkpt lat="47.57526" lon="4.39606">
        <ele>364.48</ele>
        <time>2022-06-23T07:20:33Z</time>
      </trkpt>
      <trkpt lat="47.57529" lon="4.39614">
        <ele>364</ele>
        <time>2022-06-23T07:20:34Z</time>
      </trkpt>
      <trkpt lat="47.57533" lon="4.39621">
        <ele>363.04</ele>
        <time>2022-06-23T07:20:35Z</time>
      </trkpt>
      <trkpt lat="47.57538" lon="4.39627">
        <ele>362.55</ele>
        <time>2022-06-23T07:20:36Z</time>
      </trkpt>
      <trkpt lat="47.57543" lon="4.39633">
        <ele>362.07</ele>
        <time>2022-06-23T07:20:37Z</time>
      </trkpt>
      <trkpt lat="47.57549" lon="4.39638">
        <ele>361.11</ele>
        <time>2022-06-23T07:20:38Z</time>
      </trkpt>
      <trkpt lat="47.57555" lon="4.39642">
        <ele>360.63</ele>
        <time>2022-06-23T07:20:39Z</time>
      </trkpt>
      <trkpt lat="47.576" lon="4.3967">
        <ele>355.34</ele>
        <time>2022-06-23T07:20:46Z</time>
      </trkpt>
      <trkpt lat="47.57696" lon="4.39703">
        <ele>344.77</ele>
        <time>2022-06-23T07:20:55Z</time>
      </trkpt>
      <trkpt lat="47.57796" lon="4.39733">
        <ele>333.71</ele>
        <time>2022-06-23T07:21:03Z</time>
      </trkpt>
      <trkpt lat="47.57806" lon="4.3974">
        <ele>332.27</ele>
        <time>2022-06-23T07:21:04Z</time>
      </trkpt>
      <trkpt lat="47.57813" lon="4.39748">
        <ele>331.31</ele>
        <time>2022-06-23T07:21:05Z</time>
      </trkpt>
      <trkpt lat="47.57819" lon="4.39757">
        <ele>329.87</ele>
        <time>2022-06-23T07:21:06Z</time>
      </trkpt>
      <trkpt lat="47.57823" lon="4.39764">
        <ele>328.91</ele>
        <time>2022-06-23T07:21:07Z</time>
      </trkpt>
      <trkpt lat="47.57832" lon="4.39779">
        <ele>325.54</ele>
        <time>2022-06-23T07:21:10Z</time>
      </trkpt>
      <trkpt lat="47.57836" lon="4.39783">
        <ele>324.58</ele>
        <time>2022-06-23T07:21:11Z</time>
      </trkpt>
      <trkpt lat="47.57841" lon="4.39785">
        <ele>324.1</ele>
        <time>2022-06-23T07:21:12Z</time>
      </trkpt>
      <trkpt lat="47.57846" lon="4.39785">
        <ele>323.62</ele>
        <time>2022-06-23T07:21:13Z</time>
      </trkpt>
      <trkpt lat="47.57851" lon="4.39783">
        <ele>323.62</ele>
        <time>2022-06-23T07:21:14Z</time>
      </trkpt>
      <trkpt lat="47.57856" lon="4.39782">
        <ele>323.14</ele>
        <time>2022-06-23T07:21:15Z</time>
      </trkpt>
      <trkpt lat="47.57862" lon="4.3978">
        <ele>323.14</ele>
        <time>2022-06-23T07:21:16Z</time>
      </trkpt>
      <trkpt lat="47.57943" lon="4.39756">
        <ele>322.18</ele>
        <time>2022-06-23T07:21:33Z</time>
      </trkpt>
      <trkpt lat="47.58001" lon="4.39743">
        <ele>321.7</ele>
        <time>2022-06-23T07:21:44Z</time>
      </trkpt>
      <trkpt lat="47.5805" lon="4.39728">
        <ele>320.74</ele>
        <time>2022-06-23T07:21:55Z</time>
      </trkpt>
      <trkpt lat="47.58091" lon="4.39704">
        <ele>320.26</ele>
        <time>2022-06-23T07:22:03Z</time>
      </trkpt>
      <trkpt lat="47.58153" lon="4.39664">
        <ele>320.26</ele>
        <time>2022-06-23T07:22:17Z</time>
      </trkpt>
      <trkpt lat="47.58175" lon="4.39656">
        <ele>320.26</ele>
        <time>2022-06-23T07:22:22Z</time>
      </trkpt>
      <trkpt lat="47.58258" lon="4.39649">
        <ele>321.22</ele>
        <time>2022-06-23T07:22:40Z</time>
      </trkpt>
      <trkpt lat="47.58276" lon="4.39665">
        <ele>323.62</ele>
        <time>2022-06-23T07:22:47Z</time>
      </trkpt>
      <trkpt lat="47.58294" lon="4.39701">
        <ele>321.22</ele>
        <time>2022-06-23T07:22:53Z</time>
      </trkpt>
      <trkpt lat="47.58303" lon="4.39725">
        <ele>319.3</ele>
        <time>2022-06-23T07:22:57Z</time>
      </trkpt>
      <trkpt lat="47.58305" lon="4.39731">
        <ele>318.81</ele>
        <time>2022-06-23T07:22:58Z</time>
      </trkpt>
      <trkpt lat="47.5831" lon="4.39758">
        <ele>315.93</ele>
        <time>2022-06-23T07:23:02Z</time>
      </trkpt>
      <trkpt lat="47.58321" lon="4.39852">
        <ele>305.36</ele>
        <time>2022-06-23T07:23:12Z</time>
      </trkpt>
      <trkpt lat="47.58322" lon="4.39876">
        <ele>302.47</ele>
        <time>2022-06-23T07:23:14Z</time>
      </trkpt>
      <trkpt lat="47.58327" lon="4.40005">
        <ele>289.01</ele>
        <time>2022-06-23T07:23:24Z</time>
      </trkpt>
      <trkpt lat="47.58319" lon="4.40141">
        <ele>272.19</ele>
        <time>2022-06-23T07:23:36Z</time>
      </trkpt>
      <trkpt lat="47.58315" lon="4.4021">
        <ele>262.58</ele>
        <time>2022-06-23T07:23:42Z</time>
      </trkpt>
      <trkpt lat="47.58316" lon="4.40222">
        <ele>261.14</ele>
        <time>2022-06-23T07:23:43Z</time>
      </trkpt>
      <trkpt lat="47.5833" lon="4.40347">
        <ele>245.27</ele>
        <time>2022-06-23T07:23:55Z</time>
      </trkpt>
      <trkpt lat="47.5833" lon="4.40354">
        <ele>243.83</ele>
        <time>2022-06-23T07:23:56Z</time>
      </trkpt>
      <trkpt lat="47.58329" lon="4.40361">
        <ele>242.87</ele>
        <time>2022-06-23T07:23:57Z</time>
      </trkpt>
      <trkpt lat="47.58329" lon="4.40369">
        <ele>241.91</ele>
        <time>2022-06-23T07:23:58Z</time>
      </trkpt>
      <trkpt lat="47.58327" lon="4.40376">
        <ele>240.95</ele>
        <time>2022-06-23T07:23:59Z</time>
      </trkpt>
      <trkpt lat="47.58325" lon="4.40383">
        <ele>239.99</ele>
        <time>2022-06-23T07:24:00Z</time>
      </trkpt>
      <trkpt lat="47.58322" lon="4.40389">
        <ele>239.02</ele>
        <time>2022-06-23T07:24:01Z</time>
      </trkpt>
      <trkpt lat="47.58318" lon="4.40395">
        <ele>237.58</ele>
        <time>2022-06-23T07:24:02Z</time>
      </trkpt>
      <trkpt lat="47.58298" lon="4.40434">
        <ele>232.78</ele>
        <time>2022-06-23T07:24:07Z</time>
      </trkpt>
      <trkpt lat="47.58295" lon="4.40445">
        <ele>231.81</ele>
        <time>2022-06-23T07:24:08Z</time>
      </trkpt>
      <trkpt lat="47.58266" lon="4.40551">
        <ele>225.57</ele>
        <time>2022-06-23T07:24:17Z</time>
      </trkpt>
      <trkpt lat="47.5826" lon="4.40559">
        <ele>225.57</ele>
        <time>2022-06-23T07:24:18Z</time>
      </trkpt>
      <trkpt lat="47.58253" lon="4.40566">
        <ele>225.09</ele>
        <time>2022-06-23T07:24:19Z</time>
      </trkpt>
      <trkpt lat="47.5819" lon="4.40609">
        <ele>226.53</ele>
        <time>2022-06-23T07:24:31Z</time>
      </trkpt>
      <trkpt lat="47.58153" lon="4.40638">
        <ele>228.93</ele>
        <time>2022-06-23T07:24:43Z</time>
      </trkpt>
      <trkpt lat="47.58156" lon="4.40698">
        <ele>231.33</ele>
        <time>2022-06-23T07:24:55Z</time>
      </trkpt>
      <trkpt lat="47.58167" lon="4.4072">
        <ele>232.3</ele>
        <time>2022-06-23T07:25:02Z</time>
      </trkpt>
      <trkpt lat="47.58166" lon="4.40725">
        <ele>231.81</ele>
        <time>2022-06-23T07:25:03Z</time>
      </trkpt>
      <trkpt lat="47.58164" lon="4.4073">
        <ele>231.81</ele>
        <time>2022-06-23T07:25:04Z</time>
      </trkpt>
      <trkpt lat="47.58105" lon="4.40792">
        <ele>227.49</ele>
        <time>2022-06-23T07:25:16Z</time>
      </trkpt>
      <trkpt lat="47.58016" lon="4.40892">
        <ele>227.49</ele>
        <time>2022-06-23T07:25:35Z</time>
      </trkpt>
      <trkpt lat="47.57928" lon="4.40989">
        <ele>227.97</ele>
        <time>2022-06-23T07:25:55Z</time>
      </trkpt>
      <trkpt lat="47.57833" lon="4.41076">
        <ele>227.97</ele>
        <time>2022-06-23T07:26:16Z</time>
      </trkpt>
      <trkpt lat="47.57747" lon="4.41154">
        <ele>227.97</ele>
        <time>2022-06-23T07:26:35Z</time>
      </trkpt>
      <trkpt lat="47.57653" lon="4.4124">
        <ele>227.97</ele>
        <time>2022-06-23T07:26:56Z</time>
      </trkpt>
      <trkpt lat="47.57564" lon="4.4132">
        <ele>228.93</ele>
        <time>2022-06-23T07:27:16Z</time>
      </trkpt>
      <trkpt lat="47.57487" lon="4.41391">
        <ele>230.37</ele>
        <time>2022-06-23T07:27:34Z</time>
      </trkpt>
      <trkpt lat="47.57407" lon="4.41464">
        <ele>231.33</ele>
        <time>2022-06-23T07:27:53Z</time>
      </trkpt>
      <trkpt lat="47.57319" lon="4.41542">
        <ele>230.37</ele>
        <time>2022-06-23T07:28:15Z</time>
      </trkpt>
      <trkpt lat="47.57274" lon="4.41581">
        <ele>232.78</ele>
        <time>2022-06-23T07:28:30Z</time>
      </trkpt>
      <trkpt lat="47.57218" lon="4.41634">
        <ele>233.74</ele>
        <time>2022-06-23T07:28:48Z</time>
      </trkpt>
      <trkpt lat="47.57139" lon="4.41705">
        <ele>231.33</ele>
        <time>2022-06-23T07:29:08Z</time>
      </trkpt>
      <trkpt lat="47.57055" lon="4.41782">
        <ele>231.33</ele>
        <time>2022-06-23T07:29:29Z</time>
      </trkpt>
      <trkpt lat="47.57021" lon="4.41828">
        <ele>235.18</ele>
        <time>2022-06-23T07:29:43Z</time>
      </trkpt>
      <trkpt lat="47.57022" lon="4.41837">
        <ele>235.66</ele>
        <time>2022-06-23T07:29:45Z</time>
      </trkpt>
      <trkpt lat="47.57051" lon="4.4193">
        <ele>233.26</ele>
        <time>2022-06-23T07:29:57Z</time>
      </trkpt>
      <trkpt lat="47.57102" lon="4.42069">
        <ele>231.81</ele>
        <time>2022-06-23T07:30:16Z</time>
      </trkpt>
      <trkpt lat="47.57125" lon="4.42125">
        <ele>231.33</ele>
        <time>2022-06-23T07:30:24Z</time>
      </trkpt>
      <trkpt lat="47.57127" lon="4.42133">
        <ele>231.33</ele>
        <time>2022-06-23T07:30:25Z</time>
      </trkpt>
      <trkpt lat="47.57128" lon="4.42142">
        <ele>230.85</ele>
        <time>2022-06-23T07:30:26Z</time>
      </trkpt>
      <trkpt lat="47.57129" lon="4.4215">
        <ele>230.85</ele>
        <time>2022-06-23T07:30:27Z</time>
      </trkpt>
      <trkpt lat="47.57129" lon="4.42159">
        <ele>230.37</ele>
        <time>2022-06-23T07:30:28Z</time>
      </trkpt>
      <trkpt lat="47.57129" lon="4.42167">
        <ele>230.37</ele>
        <time>2022-06-23T07:30:29Z</time>
      </trkpt>
      <trkpt lat="47.57128" lon="4.42176">
        <ele>229.89</ele>
        <time>2022-06-23T07:30:30Z</time>
      </trkpt>
      <trkpt lat="47.57127" lon="4.42185">
        <ele>229.89</ele>
        <time>2022-06-23T07:30:31Z</time>
      </trkpt>
      <trkpt lat="47.57113" lon="4.42361">
        <ele>228.45</ele>
        <time>2022-06-23T07:30:52Z</time>
      </trkpt>
      <trkpt lat="47.57122" lon="4.42463">
        <ele>227.97</ele>
        <time>2022-06-23T07:31:05Z</time>
      </trkpt>
      <trkpt lat="47.57121" lon="4.42471">
        <ele>227.97</ele>
        <time>2022-06-23T07:31:06Z</time>
      </trkpt>
      <trkpt lat="47.57119" lon="4.42479">
        <ele>227.97</ele>
        <time>2022-06-23T07:31:07Z</time>
      </trkpt>
      <trkpt lat="47.57117" lon="4.42486">
        <ele>227.49</ele>
        <time>2022-06-23T07:31:08Z</time>
      </trkpt>
      <trkpt lat="47.57114" lon="4.42494">
        <ele>227.49</ele>
        <time>2022-06-23T07:31:09Z</time>
      </trkpt>
      <trkpt lat="47.57111" lon="4.425">
        <ele>227.49</ele>
        <time>2022-06-23T07:31:10Z</time>
      </trkpt>
      <trkpt lat="47.57108" lon="4.42506">
        <ele>227.49</ele>
        <time>2022-06-23T07:31:11Z</time>
      </trkpt>
      <trkpt lat="47.57103" lon="4.42512">
        <ele>227.49</ele>
        <time>2022-06-23T07:31:12Z</time>
      </trkpt>
      <trkpt lat="47.57099" lon="4.42516">
        <ele>227.49</ele>
        <time>2022-06-23T07:31:13Z</time>
      </trkpt>
      <trkpt lat="47.57094" lon="4.42519">
        <ele>227.49</ele>
        <time>2022-06-23T07:31:14Z</time>
      </trkpt>
      <trkpt lat="47.57089" lon="4.42522">
        <ele>227.49</ele>
        <time>2022-06-23T07:31:15Z</time>
      </trkpt>
      <trkpt lat="47.57084" lon="4.42523">
        <ele>227.01</ele>
        <time>2022-06-23T07:31:16Z</time>
      </trkpt>
      <trkpt lat="47.57041" lon="4.4253">
        <ele>227.49</ele>
        <time>2022-06-23T07:31:25Z</time>
      </trkpt>
      <trkpt lat="47.57032" lon="4.42527">
        <ele>227.49</ele>
        <time>2022-06-23T07:31:27Z</time>
      </trkpt>
      <trkpt lat="47.57028" lon="4.42525">
        <ele>227.97</ele>
        <time>2022-06-23T07:31:28Z</time>
      </trkpt>
      <trkpt lat="47.57016" lon="4.42518">
        <ele>228.93</ele>
        <time>2022-06-23T07:31:31Z</time>
      </trkpt>
      <trkpt lat="47.57012" lon="4.42515">
        <ele>228.93</ele>
        <time>2022-06-23T07:31:32Z</time>
      </trkpt>
      <trkpt lat="47.57009" lon="4.42512">
        <ele>229.41</ele>
        <time>2022-06-23T07:31:33Z</time>
      </trkpt>
      <trkpt lat="47.57005" lon="4.42508">
        <ele>229.41</ele>
        <time>2022-06-23T07:31:34Z</time>
      </trkpt>
      <trkpt lat="47.57002" lon="4.42505">
        <ele>229.41</ele>
        <time>2022-06-23T07:31:35Z</time>
      </trkpt>
      <trkpt lat="47.56998" lon="4.42504">
        <ele>229.89</ele>
        <time>2022-06-23T07:31:36Z</time>
      </trkpt>
      <trkpt lat="47.56994" lon="4.42505">
        <ele>229.89</ele>
        <time>2022-06-23T07:31:37Z</time>
      </trkpt>
      <trkpt lat="47.56991" lon="4.42508">
        <ele>230.37</ele>
        <time>2022-06-23T07:31:38Z</time>
      </trkpt>
      <trkpt lat="47.5699" lon="4.42512">
        <ele>230.37</ele>
        <time>2022-06-23T07:31:39Z</time>
      </trkpt>
      <trkpt lat="47.56988" lon="4.42516">
        <ele>230.85</ele>
        <time>2022-06-23T07:31:40Z</time>
      </trkpt>
      <trkpt lat="47.56987" lon="4.42522">
        <ele>230.85</ele>
        <time>2022-06-23T07:31:41Z</time>
      </trkpt>
      <trkpt lat="47.56987" lon="4.42527">
        <ele>231.33</ele>
        <time>2022-06-23T07:31:42Z</time>
      </trkpt>
      <trkpt lat="47.56988" lon="4.42533">
        <ele>231.33</ele>
        <time>2022-06-23T07:31:43Z</time>
      </trkpt>
      <trkpt lat="47.56988" lon="4.42539">
        <ele>231.33</ele>
        <time>2022-06-23T07:31:44Z</time>
      </trkpt>
      <trkpt lat="47.57006" lon="4.42602">
        <ele>232.78</ele>
        <time>2022-06-23T07:31:56Z</time>
      </trkpt>
      <trkpt lat="47.57026" lon="4.42684">
        <ele>238.06</ele>
        <time>2022-06-23T07:32:12Z</time>
      </trkpt>
      <trkpt lat="47.57027" lon="4.42715">
        <ele>238.54</ele>
        <time>2022-06-23T07:32:17Z</time>
      </trkpt>
      <trkpt lat="47.57027" lon="4.42723">
        <ele>238.54</ele>
        <time>2022-06-23T07:32:18Z</time>
      </trkpt>
      <trkpt lat="47.57026" lon="4.4273">
        <ele>238.06</ele>
        <time>2022-06-23T07:32:19Z</time>
      </trkpt>
      <trkpt lat="47.57024" lon="4.42737">
        <ele>238.06</ele>
        <time>2022-06-23T07:32:20Z</time>
      </trkpt>
      <trkpt lat="47.57023" lon="4.42744">
        <ele>237.58</ele>
        <time>2022-06-23T07:32:21Z</time>
      </trkpt>
      <trkpt lat="47.5701" lon="4.42799">
        <ele>235.66</ele>
        <time>2022-06-23T07:32:29Z</time>
      </trkpt>
      <trkpt lat="47.5701" lon="4.42805">
        <ele>235.66</ele>
        <time>2022-06-23T07:32:30Z</time>
      </trkpt>
      <trkpt lat="47.5701" lon="4.42812">
        <ele>235.66</ele>
        <time>2022-06-23T07:32:31Z</time>
      </trkpt>
      <trkpt lat="47.5701" lon="4.42818">
        <ele>235.66</ele>
        <time>2022-06-23T07:32:32Z</time>
      </trkpt>
      <trkpt lat="47.57011" lon="4.42825">
        <ele>235.66</ele>
        <time>2022-06-23T07:32:33Z</time>
      </trkpt>
      <trkpt lat="47.57012" lon="4.42831">
        <ele>235.18</ele>
        <time>2022-06-23T07:32:34Z</time>
      </trkpt>
      <trkpt lat="47.57013" lon="4.42837">
        <ele>235.18</ele>
        <time>2022-06-23T07:32:35Z</time>
      </trkpt>
      <trkpt lat="47.57014" lon="4.42843">
        <ele>235.18</ele>
        <time>2022-06-23T07:32:36Z</time>
      </trkpt>
      <trkpt lat="47.57034" lon="4.42932">
        <ele>234.7</ele>
        <time>2022-06-23T07:32:53Z</time>
      </trkpt>
      <trkpt lat="47.57021" lon="4.43016">
        <ele>233.26</ele>
        <time>2022-06-23T07:33:10Z</time>
      </trkpt>
      <trkpt lat="47.56977" lon="4.43082">
        <ele>233.74</ele>
        <time>2022-06-23T07:33:28Z</time>
      </trkpt>
      <trkpt lat="47.56922" lon="4.43147">
        <ele>233.74</ele>
        <time>2022-06-23T07:33:48Z</time>
      </trkpt>
      <trkpt lat="47.56861" lon="4.43215">
        <ele>235.18</ele>
        <time>2022-06-23T07:34:10Z</time>
      </trkpt>
      <trkpt lat="47.56803" lon="4.43249">
        <ele>237.1</ele>
        <time>2022-06-23T07:34:28Z</time>
      </trkpt>
      <trkpt lat="47.56738" lon="4.43252">
        <ele>237.1</ele>
        <time>2022-06-23T07:34:47Z</time>
      </trkpt>
      <trkpt lat="47.56696" lon="4.43258">
        <ele>239.02</ele>
        <time>2022-06-23T07:35:05Z</time>
      </trkpt>
      <trkpt lat="47.56668" lon="4.43288">
        <ele>240.95</ele>
        <time>2022-06-23T07:35:22Z</time>
      </trkpt>
      <trkpt lat="47.5666" lon="4.43341">
        <ele>243.35</ele>
        <time>2022-06-23T07:35:41Z</time>
      </trkpt>
      <trkpt lat="47.56672" lon="4.43396">
        <ele>245.75</ele>
        <time>2022-06-23T07:36:00Z</time>
      </trkpt>
      <trkpt lat="47.56689" lon="4.43449">
        <ele>247.2</ele>
        <time>2022-06-23T07:36:19Z</time>
      </trkpt>
      <trkpt lat="47.56696" lon="4.4347">
        <ele>248.64</ele>
        <time>2022-06-23T07:36:34Z</time>
      </trkpt>
      <trkpt lat="47.56721" lon="4.43491">
        <ele>251.04</ele>
        <time>2022-06-23T07:36:49Z</time>
      </trkpt>
      <trkpt lat="47.56753" lon="4.43457">
        <ele>251.04</ele>
        <time>2022-06-23T07:37:03Z</time>
      </trkpt>
      <trkpt lat="47.568" lon="4.43402">
        <ele>247.68</ele>
        <time>2022-06-23T07:37:17Z</time>
      </trkpt>
      <trkpt lat="47.56862" lon="4.43334">
        <ele>244.31</ele>
        <time>2022-06-23T07:37:29Z</time>
      </trkpt>
      <trkpt lat="47.56963" lon="4.43224">
        <ele>239.51</ele>
        <time>2022-06-23T07:37:49Z</time>
      </trkpt>
      <trkpt lat="47.57016" lon="4.43171">
        <ele>238.06</ele>
        <time>2022-06-23T07:37:59Z</time>
      </trkpt>
      <trkpt lat="47.57021" lon="4.4317">
        <ele>237.58</ele>
        <time>2022-06-23T07:38:00Z</time>
      </trkpt>
      <trkpt lat="47.57027" lon="4.43172">
        <ele>238.06</ele>
        <time>2022-06-23T07:38:01Z</time>
      </trkpt>
      <trkpt lat="47.57031" lon="4.43177">
        <ele>238.06</ele>
        <time>2022-06-23T07:38:02Z</time>
      </trkpt>
      <trkpt lat="47.57033" lon="4.43183">
        <ele>238.06</ele>
        <time>2022-06-23T07:38:03Z</time>
      </trkpt>
      <trkpt lat="47.57035" lon="4.43188">
        <ele>238.06</ele>
        <time>2022-06-23T07:38:04Z</time>
      </trkpt>
      <trkpt lat="47.57037" lon="4.43193">
        <ele>238.54</ele>
        <time>2022-06-23T07:38:05Z</time>
      </trkpt>
      <trkpt lat="47.5705" lon="4.43226">
        <ele>239.99</ele>
        <time>2022-06-23T07:38:18Z</time>
      </trkpt>
      <trkpt lat="47.57073" lon="4.43264">
        <ele>244.31</ele>
        <time>2022-06-23T07:38:40Z</time>
      </trkpt>
      <trkpt lat="47.57092" lon="4.43296">
        <ele>249.6</ele>
        <time>2022-06-23T07:38:59Z</time>
      </trkpt>
      <trkpt lat="47.57107" lon="4.43327">
        <ele>253.44</ele>
        <time>2022-06-23T07:39:18Z</time>
      </trkpt>
      <trkpt lat="47.57118" lon="4.43351">
        <ele>257.77</ele>
        <time>2022-06-23T07:39:34Z</time>
      </trkpt>
      <trkpt lat="47.5713" lon="4.43378">
        <ele>261.62</ele>
        <time>2022-06-23T07:39:50Z</time>
      </trkpt>
      <trkpt lat="47.57143" lon="4.43409">
        <ele>264.02</ele>
        <time>2022-06-23T07:40:08Z</time>
      </trkpt>
      <trkpt lat="47.57154" lon="4.43438">
        <ele>265.94</ele>
        <time>2022-06-23T07:40:26Z</time>
      </trkpt>
      <trkpt lat="47.57166" lon="4.4347">
        <ele>267.86</ele>
        <time>2022-06-23T07:40:46Z</time>
      </trkpt>
      <trkpt lat="47.57177" lon="4.43495">
        <ele>270.75</ele>
        <time>2022-06-23T07:41:03Z</time>
      </trkpt>
      <trkpt lat="47.57191" lon="4.4352">
        <ele>273.15</ele>
        <time>2022-06-23T07:41:22Z</time>
      </trkpt>
      <trkpt lat="47.5721" lon="4.4355">
        <ele>275.56</ele>
        <time>2022-06-23T07:41:43Z</time>
      </trkpt>
      <trkpt lat="47.57237" lon="4.4357">
        <ele>281.32</ele>
        <time>2022-06-23T07:42:05Z</time>
      </trkpt>
      <trkpt lat="47.57261" lon="4.43585">
        <ele>284.21</ele>
        <time>2022-06-23T07:42:23Z</time>
      </trkpt>
      <trkpt lat="47.57277" lon="4.43613">
        <ele>280.84</ele>
        <time>2022-06-23T07:42:42Z</time>
      </trkpt>
      <trkpt lat="47.57283" lon="4.43646">
        <ele>281.8</ele>
        <time>2022-06-23T07:42:59Z</time>
      </trkpt>
      <trkpt lat="47.57295" lon="4.43685">
        <ele>282.77</ele>
        <time>2022-06-23T07:43:21Z</time>
      </trkpt>
      <trkpt lat="47.57304" lon="4.43713">
        <ele>284.21</ele>
        <time>2022-06-23T07:43:38Z</time>
      </trkpt>
      <trkpt lat="47.57312" lon="4.4374">
        <ele>290.46</ele>
        <time>2022-06-23T07:43:56Z</time>
      </trkpt>
      <trkpt lat="47.57319" lon="4.43765">
        <ele>296.7</ele>
        <time>2022-06-23T07:44:12Z</time>
      </trkpt>
      <trkpt lat="47.57326" lon="4.43793">
        <ele>301.99</ele>
        <time>2022-06-23T07:44:30Z</time>
      </trkpt>
      <trkpt lat="47.57336" lon="4.43825">
        <ele>304.39</ele>
        <time>2022-06-23T07:44:50Z</time>
      </trkpt>
      <trkpt lat="47.5735" lon="4.43852">
        <ele>304.39</ele>
        <time>2022-06-23T07:45:10Z</time>
      </trkpt>
      <trkpt lat="47.57367" lon="4.43869">
        <ele>306.8</ele>
        <time>2022-06-23T07:45:29Z</time>
      </trkpt>
      <trkpt lat="47.57385" lon="4.43896">
        <ele>306.8</ele>
        <time>2022-06-23T07:45:50Z</time>
      </trkpt>
      <trkpt lat="47.57397" lon="4.4392">
        <ele>309.2</ele>
        <time>2022-06-23T07:46:08Z</time>
      </trkpt>
      <trkpt lat="47.57401" lon="4.43933">
        <ele>310.64</ele>
        <time>2022-06-23T07:46:17Z</time>
      </trkpt>
      <trkpt lat="47.57401" lon="4.43935">
        <ele>311.12</ele>
        <time>2022-06-23T07:46:18Z</time>
      </trkpt>
      <trkpt lat="47.57402" lon="4.43937">
        <ele>311.12</ele>
        <time>2022-06-23T07:46:19Z</time>
      </trkpt>
      <trkpt lat="47.57402" lon="4.43938">
        <ele>311.12</ele>
        <time>2022-06-23T07:46:20Z</time>
      </trkpt>
      <trkpt lat="47.57403" lon="4.4394">
        <ele>311.6</ele>
        <time>2022-06-23T07:46:21Z</time>
      </trkpt>
      <trkpt lat="47.5741" lon="4.43969">
        <ele>314.01</ele>
        <time>2022-06-23T07:46:39Z</time>
      </trkpt>
      <trkpt lat="47.57416" lon="4.44001">
        <ele>317.37</ele>
        <time>2022-06-23T07:46:58Z</time>
      </trkpt>
      <trkpt lat="47.57424" lon="4.44031">
        <ele>320.74</ele>
        <time>2022-06-23T07:47:17Z</time>
      </trkpt>
      <trkpt lat="47.57429" lon="4.44052">
        <ele>322.66</ele>
        <time>2022-06-23T07:47:29Z</time>
      </trkpt>
      <trkpt lat="47.57428" lon="4.44083">
        <ele>324.58</ele>
        <time>2022-06-23T07:47:47Z</time>
      </trkpt>
      <trkpt lat="47.57423" lon="4.44113">
        <ele>327.47</ele>
        <time>2022-06-23T07:48:05Z</time>
      </trkpt>
      <trkpt lat="47.57424" lon="4.44142">
        <ele>330.35</ele>
        <time>2022-06-23T07:48:23Z</time>
      </trkpt>
      <trkpt lat="47.57432" lon="4.44174">
        <ele>333.71</ele>
        <time>2022-06-23T07:48:42Z</time>
      </trkpt>
      <trkpt lat="47.57444" lon="4.44197">
        <ele>337.56</ele>
        <time>2022-06-23T07:48:59Z</time>
      </trkpt>
      <trkpt lat="47.57461" lon="4.44219">
        <ele>342.85</ele>
        <time>2022-06-23T07:49:18Z</time>
      </trkpt>
      <trkpt lat="47.57477" lon="4.44242">
        <ele>345.73</ele>
        <time>2022-06-23T07:49:36Z</time>
      </trkpt>
      <trkpt lat="47.57477" lon="4.44273">
        <ele>346.21</ele>
        <time>2022-06-23T07:49:52Z</time>
      </trkpt>
      <trkpt lat="47.57475" lon="4.44309">
        <ele>349.58</ele>
        <time>2022-06-23T07:50:13Z</time>
      </trkpt>
      <trkpt lat="47.57472" lon="4.44341">
        <ele>351.98</ele>
        <time>2022-06-23T07:50:31Z</time>
      </trkpt>
      <trkpt lat="47.5747" lon="4.44376">
        <ele>353.9</ele>
        <time>2022-06-23T07:50:49Z</time>
      </trkpt>
      <trkpt lat="47.57463" lon="4.44405">
        <ele>354.86</ele>
        <time>2022-06-23T07:51:06Z</time>
      </trkpt>
      <trkpt lat="47.57454" lon="4.44429">
        <ele>356.79</ele>
        <time>2022-06-23T07:51:22Z</time>
      </trkpt>
      <trkpt lat="47.57444" lon="4.44459">
        <ele>360.15</ele>
        <time>2022-06-23T07:51:40Z</time>
      </trkpt>
      <trkpt lat="47.57435" lon="4.44488">
        <ele>362.55</ele>
        <time>2022-06-23T07:51:58Z</time>
      </trkpt>
      <trkpt lat="47.5742" lon="4.44514">
        <ele>367.84</ele>
        <time>2022-06-23T07:52:18Z</time>
      </trkpt>
      <trkpt lat="47.5742" lon="4.44538">
        <ele>374.09</ele>
        <time>2022-06-23T07:52:34Z</time>
      </trkpt>
      <trkpt lat="47.57428" lon="4.44552">
        <ele>378.42</ele>
        <time>2022-06-23T07:52:50Z</time>
      </trkpt>
      <trkpt lat="47.57439" lon="4.44561">
        <ele>378.9</ele>
        <time>2022-06-23T07:53:01Z</time>
      </trkpt>
      <trkpt lat="47.57441" lon="4.44564">
        <ele>378.9</ele>
        <time>2022-06-23T07:53:03Z</time>
      </trkpt>
      <trkpt lat="47.57458" lon="4.44574">
        <ele>381.3</ele>
        <time>2022-06-23T07:53:19Z</time>
      </trkpt>
      <trkpt lat="47.57481" lon="4.44586">
        <ele>381.3</ele>
        <time>2022-06-23T07:53:37Z</time>
      </trkpt>
      <trkpt lat="47.57507" lon="4.44601">
        <ele>382.74</ele>
        <time>2022-06-23T07:53:57Z</time>
      </trkpt>
      <trkpt lat="47.5753" lon="4.44619">
        <ele>385.15</ele>
        <time>2022-06-23T07:54:17Z</time>
      </trkpt>
      <trkpt lat="47.57552" lon="4.44637">
        <ele>387.55</ele>
        <time>2022-06-23T07:54:36Z</time>
      </trkpt>
      <trkpt lat="47.57579" lon="4.44657">
        <ele>387.55</ele>
        <time>2022-06-23T07:54:57Z</time>
      </trkpt>
      <trkpt lat="47.57608" lon="4.44678">
        <ele>388.99</ele>
        <time>2022-06-23T07:55:18Z</time>
      </trkpt>
      <trkpt lat="47.5764" lon="4.44699">
        <ele>389.95</ele>
        <time>2022-06-23T07:55:40Z</time>
      </trkpt>
      <trkpt lat="47.57667" lon="4.44712">
        <ele>390.91</ele>
        <time>2022-06-23T07:55:56Z</time>
      </trkpt>
      <trkpt lat="47.57708" lon="4.44742">
        <ele>391.87</ele>
        <time>2022-06-23T07:56:17Z</time>
      </trkpt>
      <trkpt lat="47.57759" lon="4.44788">
        <ele>392.36</ele>
        <time>2022-06-23T07:56:38Z</time>
      </trkpt>
      <trkpt lat="47.57802" lon="4.44835">
        <ele>391.39</ele>
        <time>2022-06-23T07:56:57Z</time>
      </trkpt>
      <trkpt lat="47.57836" lon="4.4488">
        <ele>390.43</ele>
        <time>2022-06-23T07:57:14Z</time>
      </trkpt>
      <trkpt lat="47.57863" lon="4.44919">
        <ele>388.51</ele>
        <time>2022-06-23T07:57:24Z</time>
      </trkpt>
      <trkpt lat="47.57928" lon="4.45004">
        <ele>382.26</ele>
        <time>2022-06-23T07:57:39Z</time>
      </trkpt>
      <trkpt lat="47.58006" lon="4.45049">
        <ele>376.49</ele>
        <time>2022-06-23T07:57:49Z</time>
      </trkpt>
      <trkpt lat="47.58121" lon="4.45063">
        <ele>373.61</ele>
        <time>2022-06-23T07:58:05Z</time>
      </trkpt>
      <trkpt lat="47.58211" lon="4.45058">
        <ele>372.17</ele>
        <time>2022-06-23T07:58:22Z</time>
      </trkpt>
      <trkpt lat="47.58331" lon="4.45056">
        <ele>368.8</ele>
        <time>2022-06-23T07:58:44Z</time>
      </trkpt>
      <trkpt lat="47.58437" lon="4.45051">
        <ele>366.4</ele>
        <time>2022-06-23T07:59:04Z</time>
      </trkpt>
      <trkpt lat="47.58543" lon="4.45049">
        <ele>364.48</ele>
        <time>2022-06-23T07:59:25Z</time>
      </trkpt>
      <trkpt lat="47.58598" lon="4.45047">
        <ele>365.92</ele>
        <time>2022-06-23T07:59:40Z</time>
      </trkpt>
      <trkpt lat="47.58644" lon="4.45045">
        <ele>367.36</ele>
        <time>2022-06-23T07:59:58Z</time>
      </trkpt>
      <trkpt lat="47.58701" lon="4.45042">
        <ele>368.32</ele>
        <time>2022-06-23T08:00:18Z</time>
      </trkpt>
      <trkpt lat="47.58743" lon="4.4502">
        <ele>368.32</ele>
        <time>2022-06-23T08:00:33Z</time>
      </trkpt>
      <trkpt lat="47.58786" lon="4.44979">
        <ele>368.8</ele>
        <time>2022-06-23T08:00:46Z</time>
      </trkpt>
      <trkpt lat="47.5885" lon="4.44929">
        <ele>367.84</ele>
        <time>2022-06-23T08:01:02Z</time>
      </trkpt>
      <trkpt lat="47.58925" lon="4.44866">
        <ele>366.88</ele>
        <time>2022-06-23T08:01:20Z</time>
      </trkpt>
      <trkpt lat="47.58961" lon="4.44835">
        <ele>366.88</ele>
        <time>2022-06-23T08:01:35Z</time>
      </trkpt>
      <trkpt lat="47.58977" lon="4.44826">
        <ele>366.88</ele>
        <time>2022-06-23T08:01:43Z</time>
      </trkpt>
      <trkpt lat="47.58979" lon="4.44827">
        <ele>366.88</ele>
        <time>2022-06-23T08:01:44Z</time>
      </trkpt>
      <trkpt lat="47.59" lon="4.44863">
        <ele>368.32</ele>
        <time>2022-06-23T08:01:59Z</time>
      </trkpt>
      <trkpt lat="47.59033" lon="4.44911">
        <ele>369.28</ele>
        <time>2022-06-23T08:02:19Z</time>
      </trkpt>
      <trkpt lat="47.59059" lon="4.44953">
        <ele>370.24</ele>
        <time>2022-06-23T08:02:35Z</time>
      </trkpt>
      <trkpt lat="47.59079" lon="4.44992">
        <ele>373.13</ele>
        <time>2022-06-23T08:02:49Z</time>
      </trkpt>
      <trkpt lat="47.59107" lon="4.45052">
        <ele>375.05</ele>
        <time>2022-06-23T08:03:05Z</time>
      </trkpt>
      <trkpt lat="47.59121" lon="4.45106">
        <ele>376.01</ele>
        <time>2022-06-23T08:03:17Z</time>
      </trkpt>
      <trkpt lat="47.59103" lon="4.4513">
        <ele>377.45</ele>
        <time>2022-06-23T08:03:26Z</time>
      </trkpt>
      <trkpt lat="47.59096" lon="4.45137">
        <ele>377.45</ele>
        <time>2022-06-23T08:03:28Z</time>
      </trkpt>
      <trkpt lat="47.59091" lon="4.4514">
        <ele>377.94</ele>
        <time>2022-06-23T08:03:29Z</time>
      </trkpt>
      <trkpt lat="47.59086" lon="4.45142">
        <ele>378.42</ele>
        <time>2022-06-23T08:03:30Z</time>
      </trkpt>
      <trkpt lat="47.59069" lon="4.45148">
        <ele>379.38</ele>
        <time>2022-06-23T08:03:33Z</time>
      </trkpt>
      <trkpt lat="47.59063" lon="4.45151">
        <ele>379.38</ele>
        <time>2022-06-23T08:03:34Z</time>
      </trkpt>
      <trkpt lat="47.59031" lon="4.45172">
        <ele>381.3</ele>
        <time>2022-06-23T08:03:43Z</time>
      </trkpt>
      <trkpt lat="47.59007" lon="4.45206">
        <ele>384.18</ele>
        <time>2022-06-23T08:03:55Z</time>
      </trkpt>
      <trkpt lat="47.58999" lon="4.45243">
        <ele>383.22</ele>
        <time>2022-06-23T08:04:03Z</time>
      </trkpt>
      <trkpt lat="47.58974" lon="4.45305">
        <ele>376.97</ele>
        <time>2022-06-23T08:04:16Z</time>
      </trkpt>
      <trkpt lat="47.58954" lon="4.45377">
        <ele>366.4</ele>
        <time>2022-06-23T08:04:31Z</time>
      </trkpt>
      <trkpt lat="47.58963" lon="4.45455">
        <ele>348.62</ele>
        <time>2022-06-23T08:04:47Z</time>
      </trkpt>
      <trkpt lat="47.58972" lon="4.45484">
        <ele>343.81</ele>
        <time>2022-06-23T08:04:52Z</time>
      </trkpt>
      <trkpt lat="47.59012" lon="4.45544">
        <ele>330.35</ele>
        <time>2022-06-23T08:05:07Z</time>
      </trkpt>
      <trkpt lat="47.59047" lon="4.45572">
        <ele>326.99</ele>
        <time>2022-06-23T08:05:19Z</time>
      </trkpt>
      <trkpt lat="47.59076" lon="4.45609">
        <ele>328.91</ele>
        <time>2022-06-23T08:05:36Z</time>
      </trkpt>
      <trkpt lat="47.591" lon="4.45651">
        <ele>327.95</ele>
        <time>2022-06-23T08:05:56Z</time>
      </trkpt>
      <trkpt lat="47.59115" lon="4.45697">
        <ele>328.43</ele>
        <time>2022-06-23T08:06:18Z</time>
      </trkpt>
      <trkpt lat="47.59118" lon="4.45748">
        <ele>329.87</ele>
        <time>2022-06-23T08:06:39Z</time>
      </trkpt>
      <trkpt lat="47.59119" lon="4.458">
        <ele>329.87</ele>
        <time>2022-06-23T08:06:59Z</time>
      </trkpt>
      <trkpt lat="47.59121" lon="4.4585">
        <ele>330.35</ele>
        <time>2022-06-23T08:07:18Z</time>
      </trkpt>
      <trkpt lat="47.59121" lon="4.45906">
        <ele>331.79</ele>
        <time>2022-06-23T08:07:39Z</time>
      </trkpt>
      <trkpt lat="47.59119" lon="4.45958">
        <ele>334.2</ele>
        <time>2022-06-23T08:07:58Z</time>
      </trkpt>
      <trkpt lat="47.59119" lon="4.46004">
        <ele>335.64</ele>
        <time>2022-06-23T08:08:16Z</time>
      </trkpt>
      <trkpt lat="47.59118" lon="4.46056">
        <ele>337.08</ele>
        <time>2022-06-23T08:08:36Z</time>
      </trkpt>
      <trkpt lat="47.59111" lon="4.46099">
        <ele>338.04</ele>
        <time>2022-06-23T08:08:52Z</time>
      </trkpt>
      <trkpt lat="47.59098" lon="4.46145">
        <ele>337.56</ele>
        <time>2022-06-23T08:09:10Z</time>
      </trkpt>
      <trkpt lat="47.59084" lon="4.46181">
        <ele>339</ele>
        <time>2022-06-23T08:09:26Z</time>
      </trkpt>
      <trkpt lat="47.59083" lon="4.46221">
        <ele>339.48</ele>
        <time>2022-06-23T08:09:40Z</time>
      </trkpt>
      <trkpt lat="47.59103" lon="4.46256">
        <ele>342.85</ele>
        <time>2022-06-23T08:09:54Z</time>
      </trkpt>
      <trkpt lat="47.59131" lon="4.46264">
        <ele>348.13</ele>
        <time>2022-06-23T08:10:11Z</time>
      </trkpt>
      <trkpt lat="47.59162" lon="4.46254">
        <ele>353.9</ele>
        <time>2022-06-23T08:10:30Z</time>
      </trkpt>
      <trkpt lat="47.59185" lon="4.46266">
        <ele>356.31</ele>
        <time>2022-06-23T08:10:48Z</time>
      </trkpt>
      <trkpt lat="47.59204" lon="4.46272">
        <ele>360.63</ele>
        <time>2022-06-23T08:11:05Z</time>
      </trkpt>
      <trkpt lat="47.59214" lon="4.46273">
        <ele>362.55</ele>
        <time>2022-06-23T08:11:12Z</time>
      </trkpt>
      <trkpt lat="47.59218" lon="4.46267">
        <ele>363.04</ele>
        <time>2022-06-23T08:11:16Z</time>
      </trkpt>
      <trkpt lat="47.59236" lon="4.46233">
        <ele>366.4</ele>
        <time>2022-06-23T08:11:33Z</time>
      </trkpt>
      <trkpt lat="47.59255" lon="4.46198">
        <ele>366.88</ele>
        <time>2022-06-23T08:11:48Z</time>
      </trkpt>
      <trkpt lat="47.59282" lon="4.46159">
        <ele>369.76</ele>
        <time>2022-06-23T08:12:05Z</time>
      </trkpt>
      <trkpt lat="47.59306" lon="4.46118">
        <ele>369.28</ele>
        <time>2022-06-23T08:12:19Z</time>
      </trkpt>
      <trkpt lat="47.59327" lon="4.46068">
        <ele>364</ele>
        <time>2022-06-23T08:12:29Z</time>
      </trkpt>
      <trkpt lat="47.59336" lon="4.46037">
        <ele>360.63</ele>
        <time>2022-06-23T08:12:33Z</time>
      </trkpt>
      <trkpt lat="47.59352" lon="4.45881">
        <ele>351.02</ele>
        <time>2022-06-23T08:12:47Z</time>
      </trkpt>
      <trkpt lat="47.59353" lon="4.45872">
        <ele>350.06</ele>
        <time>2022-06-23T08:12:48Z</time>
      </trkpt>
      <trkpt lat="47.59373" lon="4.45762">
        <ele>343.33</ele>
        <time>2022-06-23T08:13:00Z</time>
      </trkpt>
      <trkpt lat="47.59395" lon="4.45701">
        <ele>340.92</ele>
        <time>2022-06-23T08:13:07Z</time>
      </trkpt>
      <trkpt lat="47.59407" lon="4.4568">
        <ele>339.96</ele>
        <time>2022-06-23T08:13:10Z</time>
      </trkpt>
      <trkpt lat="47.59457" lon="4.45625">
        <ele>339.48</ele>
        <time>2022-06-23T08:13:21Z</time>
      </trkpt>
      <trkpt lat="47.59472" lon="4.45611">
        <ele>339</ele>
        <time>2022-06-23T08:13:25Z</time>
      </trkpt>
      <trkpt lat="47.59496" lon="4.45594">
        <ele>339</ele>
        <time>2022-06-23T08:13:31Z</time>
      </trkpt>
      <trkpt lat="47.59557" lon="4.45552">
        <ele>340.44</ele>
        <time>2022-06-23T08:13:47Z</time>
      </trkpt>
      <trkpt lat="47.59605" lon="4.45523">
        <ele>339.48</ele>
        <time>2022-06-23T08:14:00Z</time>
      </trkpt>
      <trkpt lat="47.59637" lon="4.45504">
        <ele>338.04</ele>
        <time>2022-06-23T08:14:08Z</time>
      </trkpt>
      <trkpt lat="47.59648" lon="4.45494">
        <ele>337.56</ele>
        <time>2022-06-23T08:14:11Z</time>
      </trkpt>
      <trkpt lat="47.5969" lon="4.45453">
        <ele>340.92</ele>
        <time>2022-06-23T08:14:24Z</time>
      </trkpt>
      <trkpt lat="47.5971" lon="4.45423">
        <ele>340.92</ele>
        <time>2022-06-23T08:14:31Z</time>
      </trkpt>
      <trkpt lat="47.59733" lon="4.454">
        <ele>340.92</ele>
        <time>2022-06-23T08:14:36Z</time>
      </trkpt>
      <trkpt lat="47.59756" lon="4.45384">
        <ele>341.41</ele>
        <time>2022-06-23T08:14:40Z</time>
      </trkpt>
      <trkpt lat="47.59787" lon="4.45351">
        <ele>344.29</ele>
        <time>2022-06-23T08:14:50Z</time>
      </trkpt>
      <trkpt lat="47.59809" lon="4.45289">
        <ele>348.62</ele>
        <time>2022-06-23T08:15:04Z</time>
      </trkpt>
      <trkpt lat="47.59827" lon="4.45233">
        <ele>352.46</ele>
        <time>2022-06-23T08:15:16Z</time>
      </trkpt>
      <trkpt lat="47.59848" lon="4.45169">
        <ele>357.75</ele>
        <time>2022-06-23T08:15:30Z</time>
      </trkpt>
      <trkpt lat="47.59861" lon="4.45126">
        <ele>360.63</ele>
        <time>2022-06-23T08:15:41Z</time>
      </trkpt>
      <trkpt lat="47.59878" lon="4.45082">
        <ele>363.52</ele>
        <time>2022-06-23T08:15:53Z</time>
      </trkpt>
      <trkpt lat="47.59881" lon="4.4507">
        <ele>364</ele>
        <time>2022-06-23T08:15:55Z</time>
      </trkpt>
      <trkpt lat="47.5989" lon="4.45027">
        <ele>367.84</ele>
        <time>2022-06-23T08:16:06Z</time>
      </trkpt>
      <trkpt lat="47.59896" lon="4.45">
        <ele>367.84</ele>
        <time>2022-06-23T08:16:18Z</time>
      </trkpt>
      <trkpt lat="47.59899" lon="4.4497">
        <ele>366.88</ele>
        <time>2022-06-23T08:16:33Z</time>
      </trkpt>
      <trkpt lat="47.59903" lon="4.44958">
        <ele>366.88</ele>
        <time>2022-06-23T08:16:37Z</time>
      </trkpt>
      <trkpt lat="47.59907" lon="4.44922">
        <ele>364.48</ele>
        <time>2022-06-23T08:16:48Z</time>
      </trkpt>
      <trkpt lat="47.59908" lon="4.44913">
        <ele>364</ele>
        <time>2022-06-23T08:16:50Z</time>
      </trkpt>
      <trkpt lat="47.59915" lon="4.44859">
        <ele>358.23</ele>
        <time>2022-06-23T08:17:01Z</time>
      </trkpt>
      <trkpt lat="47.59916" lon="4.44853">
        <ele>357.75</ele>
        <time>2022-06-23T08:17:03Z</time>
      </trkpt>
      <trkpt lat="47.59921" lon="4.448">
        <ele>355.83</ele>
        <time>2022-06-23T08:17:15Z</time>
      </trkpt>
      <trkpt lat="47.59932" lon="4.44748">
        <ele>352.94</ele>
        <time>2022-06-23T08:17:26Z</time>
      </trkpt>
      <trkpt lat="47.59941" lon="4.44698">
        <ele>344.29</ele>
        <time>2022-06-23T08:17:39Z</time>
      </trkpt>
      <trkpt lat="47.59951" lon="4.44653">
        <ele>343.81</ele>
        <time>2022-06-23T08:17:51Z</time>
      </trkpt>
      <trkpt lat="47.59963" lon="4.44611">
        <ele>346.21</ele>
        <time>2022-06-23T08:18:03Z</time>
      </trkpt>
      <trkpt lat="47.59985" lon="4.44577">
        <ele>346.69</ele>
        <time>2022-06-23T08:18:16Z</time>
      </trkpt>
      <trkpt lat="47.60007" lon="4.44543">
        <ele>345.73</ele>
        <time>2022-06-23T08:18:27Z</time>
      </trkpt>
      <trkpt lat="47.60037" lon="4.44498">
        <ele>344.29</ele>
        <time>2022-06-23T08:18:38Z</time>
      </trkpt>
      <trkpt lat="47.60065" lon="4.44448">
        <ele>343.33</ele>
        <time>2022-06-23T08:18:50Z</time>
      </trkpt>
      <trkpt lat="47.60074" lon="4.44401">
        <ele>341.89</ele>
        <time>2022-06-23T08:18:59Z</time>
      </trkpt>
      <trkpt lat="47.60106" lon="4.44317">
        <ele>337.56</ele>
        <time>2022-06-23T08:19:12Z</time>
      </trkpt>
      <trkpt lat="47.6012" lon="4.44291">
        <ele>338.04</ele>
        <time>2022-06-23T08:19:23Z</time>
      </trkpt>
      <trkpt lat="47.60137" lon="4.44267">
        <ele>339</ele>
        <time>2022-06-23T08:19:37Z</time>
      </trkpt>
      <trkpt lat="47.60138" lon="4.44258">
        <ele>341.41</ele>
        <time>2022-06-23T08:19:50Z</time>
      </trkpt>
      <trkpt lat="47.60146" lon="4.44254">
        <ele>343.81</ele>
        <time>2022-06-23T08:20:06Z</time>
      </trkpt>
      <trkpt lat="47.60162" lon="4.44238">
        <ele>344.77</ele>
        <time>2022-06-23T08:20:19Z</time>
      </trkpt>
      <trkpt lat="47.60178" lon="4.44206">
        <ele>345.25</ele>
        <time>2022-06-23T08:20:33Z</time>
      </trkpt>
      <trkpt lat="47.60201" lon="4.44159">
        <ele>340.92</ele>
        <time>2022-06-23T08:20:46Z</time>
      </trkpt>
      <trkpt lat="47.60237" lon="4.44074">
        <ele>336.12</ele>
        <time>2022-06-23T08:21:02Z</time>
      </trkpt>
      <trkpt lat="47.60264" lon="4.43999">
        <ele>331.31</ele>
        <time>2022-06-23T08:21:13Z</time>
      </trkpt>
      <trkpt lat="47.60314" lon="4.43935">
        <ele>323.62</ele>
        <time>2022-06-23T08:21:24Z</time>
      </trkpt>
      <trkpt lat="47.60331" lon="4.43916">
        <ele>321.7</ele>
        <time>2022-06-23T08:21:33Z</time>
      </trkpt>
      <trkpt lat="47.60351" lon="4.43892">
        <ele>324.1</ele>
        <time>2022-06-23T08:21:47Z</time>
      </trkpt>
      <trkpt lat="47.60369" lon="4.43857">
        <ele>324.58</ele>
        <time>2022-06-23T08:21:57Z</time>
      </trkpt>
      <trkpt lat="47.60391" lon="4.43816">
        <ele>324.1</ele>
        <time>2022-06-23T08:22:04Z</time>
      </trkpt>
      <trkpt lat="47.60417" lon="4.43775">
        <ele>321.7</ele>
        <time>2022-06-23T08:22:11Z</time>
      </trkpt>
      <trkpt lat="47.60457" lon="4.43719">
        <ele>320.26</ele>
        <time>2022-06-23T08:22:24Z</time>
      </trkpt>
      <trkpt lat="47.60478" lon="4.43687">
        <ele>319.78</ele>
        <time>2022-06-23T08:22:31Z</time>
      </trkpt>
      <trkpt lat="47.60496" lon="4.43672">
        <ele>319.3</ele>
        <time>2022-06-23T08:22:36Z</time>
      </trkpt>
      <trkpt lat="47.60521" lon="4.43662">
        <ele>316.89</ele>
        <time>2022-06-23T08:22:42Z</time>
      </trkpt>
      <trkpt lat="47.60558" lon="4.43623">
        <ele>316.89</ele>
        <time>2022-06-23T08:22:52Z</time>
      </trkpt>
      <trkpt lat="47.60603" lon="4.43554">
        <ele>319.78</ele>
        <time>2022-06-23T08:23:08Z</time>
      </trkpt>
      <trkpt lat="47.60634" lon="4.43515">
        <ele>323.62</ele>
        <time>2022-06-23T08:23:24Z</time>
      </trkpt>
      <trkpt lat="47.60663" lon="4.43489">
        <ele>325.06</ele>
        <time>2022-06-23T08:23:39Z</time>
      </trkpt>
      <trkpt lat="47.60697" lon="4.43461">
        <ele>327.95</ele>
        <time>2022-06-23T08:23:55Z</time>
      </trkpt>
      <trkpt lat="47.60719" lon="4.4345">
        <ele>330.83</ele>
        <time>2022-06-23T08:24:06Z</time>
      </trkpt>
      <trkpt lat="47.60723" lon="4.4345">
        <ele>332.27</ele>
        <time>2022-06-23T08:24:09Z</time>
      </trkpt>
      <trkpt lat="47.60727" lon="4.43454">
        <ele>333.71</ele>
        <time>2022-06-23T08:24:13Z</time>
      </trkpt>
      <trkpt lat="47.60762" lon="4.43463">
        <ele>327.47</ele>
        <time>2022-06-23T08:24:32Z</time>
      </trkpt>
      <trkpt lat="47.60795" lon="4.43479">
        <ele>328.43</ele>
        <time>2022-06-23T08:24:50Z</time>
      </trkpt>
      <trkpt lat="47.60822" lon="4.4349">
        <ele>324.58</ele>
        <time>2022-06-23T08:24:57Z</time>
      </trkpt>
      <trkpt lat="47.60828" lon="4.4349">
        <ele>323.14</ele>
        <time>2022-06-23T08:24:58Z</time>
      </trkpt>
      <trkpt lat="47.60836" lon="4.4349">
        <ele>322.18</ele>
        <time>2022-06-23T08:24:59Z</time>
      </trkpt>
      <trkpt lat="47.60843" lon="4.43488">
        <ele>321.22</ele>
        <time>2022-06-23T08:25:00Z</time>
      </trkpt>
      <trkpt lat="47.60851" lon="4.43483">
        <ele>320.26</ele>
        <time>2022-06-23T08:25:01Z</time>
      </trkpt>
      <trkpt lat="47.60858" lon="4.43477">
        <ele>319.3</ele>
        <time>2022-06-23T08:25:02Z</time>
      </trkpt>
      <trkpt lat="47.60865" lon="4.4347">
        <ele>318.33</ele>
        <time>2022-06-23T08:25:03Z</time>
      </trkpt>
      <trkpt lat="47.60872" lon="4.43463">
        <ele>317.37</ele>
        <time>2022-06-23T08:25:04Z</time>
      </trkpt>
      <trkpt lat="47.60878" lon="4.43454">
        <ele>316.41</ele>
        <time>2022-06-23T08:25:05Z</time>
      </trkpt>
      <trkpt lat="47.60902" lon="4.43428">
        <ele>311.6</ele>
        <time>2022-06-23T08:25:09Z</time>
      </trkpt>
      <trkpt lat="47.60909" lon="4.43425">
        <ele>310.16</ele>
        <time>2022-06-23T08:25:10Z</time>
      </trkpt>
      <trkpt lat="47.60916" lon="4.43423">
        <ele>309.2</ele>
        <time>2022-06-23T08:25:11Z</time>
      </trkpt>
      <trkpt lat="47.60923" lon="4.43422">
        <ele>308.24</ele>
        <time>2022-06-23T08:25:12Z</time>
      </trkpt>
      <trkpt lat="47.6093" lon="4.43423">
        <ele>307.28</ele>
        <time>2022-06-23T08:25:13Z</time>
      </trkpt>
      <trkpt lat="47.60938" lon="4.43425">
        <ele>306.32</ele>
        <time>2022-06-23T08:25:14Z</time>
      </trkpt>
      <trkpt lat="47.60945" lon="4.43428">
        <ele>305.36</ele>
        <time>2022-06-23T08:25:15Z</time>
      </trkpt>
      <trkpt lat="47.61016" lon="4.43478">
        <ele>296.7</ele>
        <time>2022-06-23T08:25:24Z</time>
      </trkpt>
      <trkpt lat="47.61056" lon="4.43509">
        <ele>297.67</ele>
        <time>2022-06-23T08:25:33Z</time>
      </trkpt>
      <trkpt lat="47.61074" lon="4.43525">
        <ele>301.99</ele>
        <time>2022-06-23T08:25:47Z</time>
      </trkpt>
      <trkpt lat="47.61074" lon="4.43527">
        <ele>301.99</ele>
        <time>2022-06-23T08:25:48Z</time>
      </trkpt>
      <trkpt lat="47.61075" lon="4.43528">
        <ele>302.47</ele>
        <time>2022-06-23T08:25:49Z</time>
      </trkpt>
      <trkpt lat="47.61075" lon="4.4353">
        <ele>302.95</ele>
        <time>2022-06-23T08:25:50Z</time>
      </trkpt>
      <trkpt lat="47.61076" lon="4.43532">
        <ele>303.43</ele>
        <time>2022-06-23T08:25:51Z</time>
      </trkpt>
      <trkpt lat="47.61075" lon="4.43566">
        <ele>306.32</ele>
        <time>2022-06-23T08:26:09Z</time>
      </trkpt>
      <trkpt lat="47.61075" lon="4.43593">
        <ele>308.24</ele>
        <time>2022-06-23T08:26:24Z</time>
      </trkpt>
      <trkpt lat="47.61075" lon="4.43606">
        <ele>309.2</ele>
        <time>2022-06-23T08:26:31Z</time>
      </trkpt>
      <trkpt lat="47.61071" lon="4.43638">
        <ele>311.6</ele>
        <time>2022-06-23T08:26:49Z</time>
      </trkpt>
      <trkpt lat="47.6107" lon="4.43651">
        <ele>312.57</ele>
        <time>2022-06-23T08:26:56Z</time>
      </trkpt>
      <trkpt lat="47.6107" lon="4.43652">
        <ele>313.05</ele>
        <time>2022-06-23T08:26:57Z</time>
      </trkpt>
      <trkpt lat="47.61069" lon="4.43654">
        <ele>313.05</ele>
        <time>2022-06-23T08:26:58Z</time>
      </trkpt>
      <trkpt lat="47.61068" lon="4.43655">
        <ele>313.53</ele>
        <time>2022-06-23T08:26:59Z</time>
      </trkpt>
      <trkpt lat="47.61068" lon="4.43657">
        <ele>313.53</ele>
        <time>2022-06-23T08:27:00Z</time>
      </trkpt>
      <trkpt lat="47.61063" lon="4.43682">
        <ele>316.89</ele>
        <time>2022-06-23T08:27:14Z</time>
      </trkpt>
      <trkpt lat="47.61055" lon="4.43715">
        <ele>319.78</ele>
        <time>2022-06-23T08:27:32Z</time>
      </trkpt>
      <trkpt lat="47.61046" lon="4.43759">
        <ele>321.22</ele>
        <time>2022-06-23T08:27:48Z</time>
      </trkpt>
      <trkpt lat="47.61038" lon="4.43802">
        <ele>323.62</ele>
        <time>2022-06-23T08:28:05Z</time>
      </trkpt>
      <trkpt lat="47.61054" lon="4.43827">
        <ele>326.99</ele>
        <time>2022-06-23T08:28:20Z</time>
      </trkpt>
      <trkpt lat="47.61071" lon="4.43854">
        <ele>330.83</ele>
        <time>2022-06-23T08:28:37Z</time>
      </trkpt>
      <trkpt lat="47.6109" lon="4.43883">
        <ele>333.71</ele>
        <time>2022-06-23T08:28:56Z</time>
      </trkpt>
      <trkpt lat="47.61109" lon="4.4391">
        <ele>336.12</ele>
        <time>2022-06-23T08:29:14Z</time>
      </trkpt>
      <trkpt lat="47.61133" lon="4.43927">
        <ele>338.52</ele>
        <time>2022-06-23T08:29:32Z</time>
      </trkpt>
      <trkpt lat="47.61147" lon="4.43891">
        <ele>340.44</ele>
        <time>2022-06-23T08:29:51Z</time>
      </trkpt>
      <trkpt lat="47.61151" lon="4.43853">
        <ele>342.85</ele>
        <time>2022-06-23T08:30:08Z</time>
      </trkpt>
      <trkpt lat="47.61163" lon="4.43801">
        <ele>345.25</ele>
        <time>2022-06-23T08:30:31Z</time>
      </trkpt>
      <trkpt lat="47.61181" lon="4.43754">
        <ele>348.13</ele>
        <time>2022-06-23T08:30:53Z</time>
      </trkpt>
      <trkpt lat="47.61197" lon="4.43717">
        <ele>349.58</ele>
        <time>2022-06-23T08:31:11Z</time>
      </trkpt>
      <trkpt lat="47.61217" lon="4.43667">
        <ele>351.98</ele>
        <time>2022-06-23T08:31:32Z</time>
      </trkpt>
      <trkpt lat="47.61236" lon="4.43613">
        <ele>353.42</ele>
        <time>2022-06-23T08:31:51Z</time>
      </trkpt>
      <trkpt lat="47.61268" lon="4.43534">
        <ele>353.42</ele>
        <time>2022-06-23T08:32:09Z</time>
      </trkpt>
      <trkpt lat="47.61317" lon="4.43436">
        <ele>351.02</ele>
        <time>2022-06-23T08:32:24Z</time>
      </trkpt>
      <trkpt lat="47.61381" lon="4.43297">
        <ele>349.58</ele>
        <time>2022-06-23T08:32:42Z</time>
      </trkpt>
      <trkpt lat="47.61406" lon="4.43174">
        <ele>352.46</ele>
        <time>2022-06-23T08:32:59Z</time>
      </trkpt>
      <trkpt lat="47.61424" lon="4.43096">
        <ele>353.9</ele>
        <time>2022-06-23T08:33:15Z</time>
      </trkpt>
      <trkpt lat="47.6145" lon="4.43">
        <ele>356.79</ele>
        <time>2022-06-23T08:33:35Z</time>
      </trkpt>
      <trkpt lat="47.61483" lon="4.42924">
        <ele>356.79</ele>
        <time>2022-06-23T08:33:50Z</time>
      </trkpt>
      <trkpt lat="47.61486" lon="4.42919">
        <ele>356.79</ele>
        <time>2022-06-23T08:33:51Z</time>
      </trkpt>
      <trkpt lat="47.61492" lon="4.42909">
        <ele>356.31</ele>
        <time>2022-06-23T08:33:53Z</time>
      </trkpt>
      <trkpt lat="47.61495" lon="4.42903">
        <ele>356.31</ele>
        <time>2022-06-23T08:33:54Z</time>
      </trkpt>
      <trkpt lat="47.61507" lon="4.42885">
        <ele>355.83</ele>
        <time>2022-06-23T08:33:58Z</time>
      </trkpt>
      <trkpt lat="47.61549" lon="4.42815">
        <ele>355.34</ele>
        <time>2022-06-23T08:34:13Z</time>
      </trkpt>
      <trkpt lat="47.61558" lon="4.428">
        <ele>354.86</ele>
        <time>2022-06-23T08:34:16Z</time>
      </trkpt>
      <trkpt lat="47.61564" lon="4.42788">
        <ele>354.38</ele>
        <time>2022-06-23T08:34:18Z</time>
      </trkpt>
      <trkpt lat="47.61567" lon="4.42783">
        <ele>354.38</ele>
        <time>2022-06-23T08:34:19Z</time>
      </trkpt>
      <trkpt lat="47.61586" lon="4.42752">
        <ele>353.42</ele>
        <time>2022-06-23T08:34:25Z</time>
      </trkpt>
      <trkpt lat="47.61637" lon="4.42671">
        <ele>354.86</ele>
        <time>2022-06-23T08:34:43Z</time>
      </trkpt>
      <trkpt lat="47.61677" lon="4.42608">
        <ele>356.31</ele>
        <time>2022-06-23T08:34:58Z</time>
      </trkpt>
      <trkpt lat="47.61718" lon="4.42503">
        <ele>355.83</ele>
        <time>2022-06-23T08:35:18Z</time>
      </trkpt>
      <trkpt lat="47.61746" lon="4.4241">
        <ele>357.75</ele>
        <time>2022-06-23T08:35:37Z</time>
      </trkpt>
      <trkpt lat="47.61753" lon="4.42334">
        <ele>359.67</ele>
        <time>2022-06-23T08:35:54Z</time>
      </trkpt>
      <trkpt lat="47.61751" lon="4.42274">
        <ele>360.15</ele>
        <time>2022-06-23T08:36:07Z</time>
      </trkpt>
      <trkpt lat="47.61748" lon="4.422">
        <ele>360.15</ele>
        <time>2022-06-23T08:36:21Z</time>
      </trkpt>
      <trkpt lat="47.61749" lon="4.42103">
        <ele>358.71</ele>
        <time>2022-06-23T08:36:37Z</time>
      </trkpt>
      <trkpt lat="47.61754" lon="4.41978">
        <ele>352.46</ele>
        <time>2022-06-23T08:36:50Z</time>
      </trkpt>
      <trkpt lat="47.61764" lon="4.41817">
        <ele>344.77</ele>
        <time>2022-06-23T08:37:03Z</time>
      </trkpt>
      <trkpt lat="47.61769" lon="4.41725">
        <ele>342.85</ele>
        <time>2022-06-23T08:37:13Z</time>
      </trkpt>
      <trkpt lat="47.61773" lon="4.41624">
        <ele>342.85</ele>
        <time>2022-06-23T08:37:26Z</time>
      </trkpt>
      <trkpt lat="47.61773" lon="4.41616">
        <ele>342.85</ele>
        <time>2022-06-23T08:37:27Z</time>
      </trkpt>
      <trkpt lat="47.61771" lon="4.41583">
        <ele>342.37</ele>
        <time>2022-06-23T08:37:31Z</time>
      </trkpt>
      <trkpt lat="47.61757" lon="4.41445">
        <ele>335.64</ele>
        <time>2022-06-23T08:37:45Z</time>
      </trkpt>
      <trkpt lat="47.61745" lon="4.41279">
        <ele>330.35</ele>
        <time>2022-06-23T08:38:00Z</time>
      </trkpt>
      <trkpt lat="47.61716" lon="4.41128">
        <ele>332.75</ele>
        <time>2022-06-23T08:38:16Z</time>
      </trkpt>
      <trkpt lat="47.61681" lon="4.41">
        <ele>335.64</ele>
        <time>2022-06-23T08:38:33Z</time>
      </trkpt>
      <trkpt lat="47.61642" lon="4.40863">
        <ele>336.6</ele>
        <time>2022-06-23T08:38:54Z</time>
      </trkpt>
      <trkpt lat="47.616" lon="4.40744">
        <ele>335.64</ele>
        <time>2022-06-23T08:39:12Z</time>
      </trkpt>
      <trkpt lat="47.61551" lon="4.40648">
        <ele>333.23</ele>
        <time>2022-06-23T08:39:25Z</time>
      </trkpt>
      <trkpt lat="47.6146" lon="4.4051">
        <ele>323.62</ele>
        <time>2022-06-23T08:39:44Z</time>
      </trkpt>
      <trkpt lat="47.61388" lon="4.40407">
        <ele>317.37</ele>
        <time>2022-06-23T08:39:58Z</time>
      </trkpt>
      <trkpt lat="47.61345" lon="4.40323">
        <ele>314.01</ele>
        <time>2022-06-23T08:40:10Z</time>
      </trkpt>
      <trkpt lat="47.61341" lon="4.40316">
        <ele>314.01</ele>
        <time>2022-06-23T08:40:11Z</time>
      </trkpt>
      <trkpt lat="47.61299" lon="4.40249">
        <ele>309.68</ele>
        <time>2022-06-23T08:40:20Z</time>
      </trkpt>
      <trkpt lat="47.61283" lon="4.40227">
        <ele>308.24</ele>
        <time>2022-06-23T08:40:23Z</time>
      </trkpt>
      <trkpt lat="47.61278" lon="4.40218">
        <ele>307.76</ele>
        <time>2022-06-23T08:40:24Z</time>
      </trkpt>
      <trkpt lat="47.6127" lon="4.40199">
        <ele>307.28</ele>
        <time>2022-06-23T08:40:26Z</time>
      </trkpt>
      <trkpt lat="47.61268" lon="4.40188">
        <ele>306.8</ele>
        <time>2022-06-23T08:40:27Z</time>
      </trkpt>
      <trkpt lat="47.61266" lon="4.40176">
        <ele>306.8</ele>
        <time>2022-06-23T08:40:28Z</time>
      </trkpt>
      <trkpt lat="47.61265" lon="4.40163">
        <ele>306.32</ele>
        <time>2022-06-23T08:40:29Z</time>
      </trkpt>
      <trkpt lat="47.61265" lon="4.40151">
        <ele>306.32</ele>
        <time>2022-06-23T08:40:30Z</time>
      </trkpt>
      <trkpt lat="47.61267" lon="4.4014">
        <ele>305.84</ele>
        <time>2022-06-23T08:40:31Z</time>
      </trkpt>
      <trkpt lat="47.6127" lon="4.40129">
        <ele>305.36</ele>
        <time>2022-06-23T08:40:32Z</time>
      </trkpt>
      <trkpt lat="47.61275" lon="4.4012">
        <ele>304.88</ele>
        <time>2022-06-23T08:40:33Z</time>
      </trkpt>
      <trkpt lat="47.6128" lon="4.40111">
        <ele>303.91</ele>
        <time>2022-06-23T08:40:34Z</time>
      </trkpt>
      <trkpt lat="47.61287" lon="4.40102">
        <ele>303.43</ele>
        <time>2022-06-23T08:40:35Z</time>
      </trkpt>
      <trkpt lat="47.61314" lon="4.40067">
        <ele>301.03</ele>
        <time>2022-06-23T08:40:39Z</time>
      </trkpt>
      <trkpt lat="47.61322" lon="4.40061">
        <ele>300.55</ele>
        <time>2022-06-23T08:40:40Z</time>
      </trkpt>
      <trkpt lat="47.61329" lon="4.40056">
        <ele>299.59</ele>
        <time>2022-06-23T08:40:41Z</time>
      </trkpt>
      <trkpt lat="47.61338" lon="4.40053">
        <ele>299.11</ele>
        <time>2022-06-23T08:40:42Z</time>
      </trkpt>
      <trkpt lat="47.61345" lon="4.4005">
        <ele>298.63</ele>
        <time>2022-06-23T08:40:43Z</time>
      </trkpt>
      <trkpt lat="47.61353" lon="4.40047">
        <ele>298.15</ele>
        <time>2022-06-23T08:40:44Z</time>
      </trkpt>
      <trkpt lat="47.61361" lon="4.40045">
        <ele>298.15</ele>
        <time>2022-06-23T08:40:45Z</time>
      </trkpt>
      <trkpt lat="47.61417" lon="4.40032">
        <ele>294.3</ele>
        <time>2022-06-23T08:40:54Z</time>
      </trkpt>
      <trkpt lat="47.6142" lon="4.40032">
        <ele>293.82</ele>
        <time>2022-06-23T08:40:55Z</time>
      </trkpt>
      <trkpt lat="47.61423" lon="4.4003">
        <ele>293.34</ele>
        <time>2022-06-23T08:40:56Z</time>
      </trkpt>
      <trkpt lat="47.61425" lon="4.40026">
        <ele>292.86</ele>
        <time>2022-06-23T08:40:57Z</time>
      </trkpt>
      <trkpt lat="47.61425" lon="4.40022">
        <ele>292.38</ele>
        <time>2022-06-23T08:40:58Z</time>
      </trkpt>
      <trkpt lat="47.61424" lon="4.40016">
        <ele>291.9</ele>
        <time>2022-06-23T08:40:59Z</time>
      </trkpt>
      <trkpt lat="47.61421" lon="4.40011">
        <ele>291.42</ele>
        <time>2022-06-23T08:41:00Z</time>
      </trkpt>
      <trkpt lat="47.61418" lon="4.40006">
        <ele>290.46</ele>
        <time>2022-06-23T08:41:01Z</time>
      </trkpt>
      <trkpt lat="47.61415" lon="4.39999">
        <ele>289.49</ele>
        <time>2022-06-23T08:41:02Z</time>
      </trkpt>
      <trkpt lat="47.61408" lon="4.39974">
        <ele>286.13</ele>
        <time>2022-06-23T08:41:06Z</time>
      </trkpt>
      <trkpt lat="47.6141" lon="4.39969">
        <ele>285.65</ele>
        <time>2022-06-23T08:41:07Z</time>
      </trkpt>
      <trkpt lat="47.61413" lon="4.39965">
        <ele>284.69</ele>
        <time>2022-06-23T08:41:08Z</time>
      </trkpt>
      <trkpt lat="47.61416" lon="4.3996">
        <ele>283.73</ele>
        <time>2022-06-23T08:41:09Z</time>
      </trkpt>
      <trkpt lat="47.61419" lon="4.39956">
        <ele>282.77</ele>
        <time>2022-06-23T08:41:10Z</time>
      </trkpt>
      <trkpt lat="47.61423" lon="4.39952">
        <ele>282.28</ele>
        <time>2022-06-23T08:41:11Z</time>
      </trkpt>
      <trkpt lat="47.61467" lon="4.39931">
        <ele>272.67</ele>
        <time>2022-06-23T08:41:23Z</time>
      </trkpt>
      <trkpt lat="47.61481" lon="4.39925">
        <ele>269.79</ele>
        <time>2022-06-23T08:41:26Z</time>
      </trkpt>
      <trkpt lat="47.61485" lon="4.39922">
        <ele>268.83</ele>
        <time>2022-06-23T08:41:27Z</time>
      </trkpt>
      <trkpt lat="47.61538" lon="4.39875">
        <ele>259.21</ele>
        <time>2022-06-23T08:41:38Z</time>
      </trkpt>
      <trkpt lat="47.61566" lon="4.39849">
        <ele>255.37</ele>
        <time>2022-06-23T08:41:44Z</time>
      </trkpt>
      <trkpt lat="47.6157" lon="4.39845">
        <ele>254.89</ele>
        <time>2022-06-23T08:41:45Z</time>
      </trkpt>
      <trkpt lat="47.61574" lon="4.39839">
        <ele>254.41</ele>
        <time>2022-06-23T08:41:46Z</time>
      </trkpt>
      <trkpt lat="47.61578" lon="4.39834">
        <ele>253.44</ele>
        <time>2022-06-23T08:41:47Z</time>
      </trkpt>
      <trkpt lat="47.61584" lon="4.39829">
        <ele>252.96</ele>
        <time>2022-06-23T08:41:48Z</time>
      </trkpt>
      <trkpt lat="47.61589" lon="4.39825">
        <ele>252</ele>
        <time>2022-06-23T08:41:49Z</time>
      </trkpt>
      <trkpt lat="47.61652" lon="4.3978">
        <ele>244.31</ele>
        <time>2022-06-23T08:42:01Z</time>
      </trkpt>
      <trkpt lat="47.61675" lon="4.3977">
        <ele>240.47</ele>
        <time>2022-06-23T08:42:06Z</time>
      </trkpt>
      <trkpt lat="47.6168" lon="4.39765">
        <ele>239.99</ele>
        <time>2022-06-23T08:42:07Z</time>
      </trkpt>
      <trkpt lat="47.61683" lon="4.39758">
        <ele>239.02</ele>
        <time>2022-06-23T08:42:08Z</time>
      </trkpt>
      <trkpt lat="47.61686" lon="4.3975">
        <ele>238.06</ele>
        <time>2022-06-23T08:42:09Z</time>
      </trkpt>
      <trkpt lat="47.61689" lon="4.3974">
        <ele>237.1</ele>
        <time>2022-06-23T08:42:10Z</time>
      </trkpt>
      <trkpt lat="47.617" lon="4.39667">
        <ele>232.3</ele>
        <time>2022-06-23T08:42:16Z</time>
      </trkpt>
      <trkpt lat="47.61699" lon="4.39656">
        <ele>231.81</ele>
        <time>2022-06-23T08:42:17Z</time>
      </trkpt>
      <trkpt lat="47.61697" lon="4.39645">
        <ele>231.33</ele>
        <time>2022-06-23T08:42:18Z</time>
      </trkpt>
      <trkpt lat="47.61693" lon="4.39636">
        <ele>230.85</ele>
        <time>2022-06-23T08:42:19Z</time>
      </trkpt>
      <trkpt lat="47.61688" lon="4.39628">
        <ele>230.37</ele>
        <time>2022-06-23T08:42:20Z</time>
      </trkpt>
      <trkpt lat="47.61684" lon="4.39621">
        <ele>230.37</ele>
        <time>2022-06-23T08:42:21Z</time>
      </trkpt>
      <trkpt lat="47.61669" lon="4.39595">
        <ele>229.41</ele>
        <time>2022-06-23T08:42:25Z</time>
      </trkpt>
      <trkpt lat="47.61663" lon="4.39585">
        <ele>229.41</ele>
        <time>2022-06-23T08:42:27Z</time>
      </trkpt>
      <trkpt lat="47.61661" lon="4.39581">
        <ele>229.41</ele>
        <time>2022-06-23T08:42:28Z</time>
      </trkpt>
      <trkpt lat="47.61647" lon="4.39536">
        <ele>233.26</ele>
        <time>2022-06-23T08:42:41Z</time>
      </trkpt>
      <trkpt lat="47.61638" lon="4.39478">
        <ele>238.06</ele>
        <time>2022-06-23T08:43:00Z</time>
      </trkpt>
      <trkpt lat="47.61635" lon="4.39419">
        <ele>241.43</ele>
        <time>2022-06-23T08:43:19Z</time>
      </trkpt>
      <trkpt lat="47.61642" lon="4.39345">
        <ele>244.79</ele>
        <time>2022-06-23T08:43:40Z</time>
      </trkpt>
      <trkpt lat="47.61655" lon="4.39286">
        <ele>245.27</ele>
        <time>2022-06-23T08:43:58Z</time>
      </trkpt>
      <trkpt lat="47.61672" lon="4.39237">
        <ele>248.64</ele>
        <time>2022-06-23T08:44:15Z</time>
      </trkpt>
      <trkpt lat="47.61697" lon="4.39189">
        <ele>252.48</ele>
        <time>2022-06-23T08:44:32Z</time>
      </trkpt>
      <trkpt lat="47.61723" lon="4.3914">
        <ele>252</ele>
        <time>2022-06-23T08:44:48Z</time>
      </trkpt>
      <trkpt lat="47.61742" lon="4.39106">
        <ele>252</ele>
        <time>2022-06-23T08:44:57Z</time>
      </trkpt>
      <trkpt lat="47.6176" lon="4.39067">
        <ele>252</ele>
        <time>2022-06-23T08:45:04Z</time>
      </trkpt>
      <trkpt lat="47.61772" lon="4.38995">
        <ele>250.56</ele>
        <time>2022-06-23T08:45:18Z</time>
      </trkpt>
      <trkpt lat="47.61767" lon="4.3892">
        <ele>248.64</ele>
        <time>2022-06-23T08:45:32Z</time>
      </trkpt>
      <trkpt lat="47.61758" lon="4.38848">
        <ele>248.64</ele>
        <time>2022-06-23T08:45:47Z</time>
      </trkpt>
      <trkpt lat="47.61742" lon="4.38756">
        <ele>247.68</ele>
        <time>2022-06-23T08:46:06Z</time>
      </trkpt>
      <trkpt lat="47.61726" lon="4.38657">
        <ele>245.75</ele>
        <time>2022-06-23T08:46:25Z</time>
      </trkpt>
      <trkpt lat="47.6171" lon="4.38563">
        <ele>245.27</ele>
        <time>2022-06-23T08:46:42Z</time>
      </trkpt>
      <trkpt lat="47.61698" lon="4.38447">
        <ele>243.35</ele>
        <time>2022-06-23T08:46:59Z</time>
      </trkpt>
      <trkpt lat="47.61678" lon="4.38286">
        <ele>239.51</ele>
        <time>2022-06-23T08:47:19Z</time>
      </trkpt>
      <trkpt lat="47.61649" lon="4.38156">
        <ele>234.22</ele>
        <time>2022-06-23T08:47:33Z</time>
      </trkpt>
      <trkpt lat="47.61648" lon="4.38145">
        <ele>233.74</ele>
        <time>2022-06-23T08:47:34Z</time>
      </trkpt>
      <trkpt lat="47.61647" lon="4.38133">
        <ele>233.26</ele>
        <time>2022-06-23T08:47:35Z</time>
      </trkpt>
      <trkpt lat="47.61648" lon="4.38123">
        <ele>232.78</ele>
        <time>2022-06-23T08:47:36Z</time>
      </trkpt>
      <trkpt lat="47.6165" lon="4.38112">
        <ele>232.78</ele>
        <time>2022-06-23T08:47:37Z</time>
      </trkpt>
      <trkpt lat="47.61652" lon="4.38103">
        <ele>232.3</ele>
        <time>2022-06-23T08:47:38Z</time>
      </trkpt>
      <trkpt lat="47.61655" lon="4.38094">
        <ele>232.3</ele>
        <time>2022-06-23T08:47:39Z</time>
      </trkpt>
      <trkpt lat="47.61658" lon="4.38086">
        <ele>232.3</ele>
        <time>2022-06-23T08:47:40Z</time>
      </trkpt>
      <trkpt lat="47.61661" lon="4.38078">
        <ele>231.81</ele>
        <time>2022-06-23T08:47:41Z</time>
      </trkpt>
      <trkpt lat="47.617" lon="4.37999">
        <ele>233.26</ele>
        <time>2022-06-23T08:47:52Z</time>
      </trkpt>
      <trkpt lat="47.61704" lon="4.37993">
        <ele>233.74</ele>
        <time>2022-06-23T08:47:53Z</time>
      </trkpt>
      <trkpt lat="47.61745" lon="4.37914">
        <ele>238.06</ele>
        <time>2022-06-23T08:48:08Z</time>
      </trkpt>
      <trkpt lat="47.61786" lon="4.37841">
        <ele>238.54</ele>
        <time>2022-06-23T08:48:24Z</time>
      </trkpt>
      <trkpt lat="47.61827" lon="4.3777">
        <ele>239.51</ele>
        <time>2022-06-23T08:48:41Z</time>
      </trkpt>
      <trkpt lat="47.61871" lon="4.37692">
        <ele>240.47</ele>
        <time>2022-06-23T08:49:01Z</time>
      </trkpt>
      <trkpt lat="47.61918" lon="4.37601">
        <ele>240.95</ele>
        <time>2022-06-23T08:49:23Z</time>
      </trkpt>
      <trkpt lat="47.6195" lon="4.37528">
        <ele>241.91</ele>
        <time>2022-06-23T08:49:39Z</time>
      </trkpt>
      <trkpt lat="47.61982" lon="4.37457">
        <ele>242.87</ele>
        <time>2022-06-23T08:49:54Z</time>
      </trkpt>
      <trkpt lat="47.62018" lon="4.3738">
        <ele>244.79</ele>
        <time>2022-06-23T08:50:10Z</time>
      </trkpt>
      <trkpt lat="47.62028" lon="4.3736">
        <ele>243.83</ele>
        <time>2022-06-23T08:50:14Z</time>
      </trkpt>
      <trkpt lat="47.62076" lon="4.37276">
        <ele>240.47</ele>
        <time>2022-06-23T08:50:29Z</time>
      </trkpt>
      <trkpt lat="47.6208" lon="4.37271">
        <ele>239.99</ele>
        <time>2022-06-23T08:50:30Z</time>
      </trkpt>
      <trkpt lat="47.62085" lon="4.37267">
        <ele>239.99</ele>
        <time>2022-06-23T08:50:31Z</time>
      </trkpt>
      <trkpt lat="47.6209" lon="4.37264">
        <ele>239.51</ele>
        <time>2022-06-23T08:50:32Z</time>
      </trkpt>
      <trkpt lat="47.62094" lon="4.37262">
        <ele>239.51</ele>
        <time>2022-06-23T08:50:33Z</time>
      </trkpt>
      <trkpt lat="47.62098" lon="4.37259">
        <ele>239.51</ele>
        <time>2022-06-23T08:50:34Z</time>
      </trkpt>
      <trkpt lat="47.62163" lon="4.37208">
        <ele>238.54</ele>
        <time>2022-06-23T08:50:49Z</time>
      </trkpt>
      <trkpt lat="47.62246" lon="4.37134">
        <ele>234.22</ele>
        <time>2022-06-23T08:51:04Z</time>
      </trkpt>
      <trkpt lat="47.62327" lon="4.37041">
        <ele>229.89</ele>
        <time>2022-06-23T08:51:20Z</time>
      </trkpt>
      <trkpt lat="47.62406" lon="4.36966">
        <ele>227.97</ele>
        <time>2022-06-23T08:51:35Z</time>
      </trkpt>
      <trkpt lat="47.62464" lon="4.36907">
        <ele>225.09</ele>
        <time>2022-06-23T08:51:49Z</time>
      </trkpt>
      <trkpt lat="47.62464" lon="4.36902">
        <ele>224.61</ele>
        <time>2022-06-23T08:51:50Z</time>
      </trkpt>
      <trkpt lat="47.62463" lon="4.36897">
        <ele>224.61</ele>
        <time>2022-06-23T08:51:51Z</time>
      </trkpt>
      <trkpt lat="47.62462" lon="4.36893">
        <ele>224.12</ele>
        <time>2022-06-23T08:51:52Z</time>
      </trkpt>
      <trkpt lat="47.62462" lon="4.36889">
        <ele>223.64</ele>
        <time>2022-06-23T08:51:53Z</time>
      </trkpt>
      <trkpt lat="47.62463" lon="4.36884">
        <ele>223.16</ele>
        <time>2022-06-23T08:51:54Z</time>
      </trkpt>
      <trkpt lat="47.62465" lon="4.36882">
        <ele>223.16</ele>
        <time>2022-06-23T08:51:55Z</time>
      </trkpt>
      <trkpt lat="47.62467" lon="4.3688">
        <ele>223.16</ele>
        <time>2022-06-23T08:51:56Z</time>
      </trkpt>
      <trkpt lat="47.6247" lon="4.3688">
        <ele>222.68</ele>
        <time>2022-06-23T08:51:57Z</time>
      </trkpt>
      <trkpt lat="47.62473" lon="4.3688">
        <ele>222.68</ele>
        <time>2022-06-23T08:51:58Z</time>
      </trkpt>
      <trkpt lat="47.62519" lon="4.36871">
        <ele>223.16</ele>
        <time>2022-06-23T08:52:11Z</time>
      </trkpt>
      <trkpt lat="47.62575" lon="4.36826">
        <ele>223.16</ele>
        <time>2022-06-23T08:52:26Z</time>
      </trkpt>
      <trkpt lat="47.62644" lon="4.36773">
        <ele>224.12</ele>
        <time>2022-06-23T08:52:44Z</time>
      </trkpt>
      <trkpt lat="47.62726" lon="4.36716">
        <ele>225.09</ele>
        <time>2022-06-23T08:53:06Z</time>
      </trkpt>
      <trkpt lat="47.62818" lon="4.36684">
        <ele>223.64</ele>
        <time>2022-06-23T08:53:26Z</time>
      </trkpt>
      <trkpt lat="47.62873" lon="4.36688">
        <ele>223.64</ele>
        <time>2022-06-23T08:53:38Z</time>
      </trkpt>
      <trkpt lat="47.62878" lon="4.36688">
        <ele>223.64</ele>
        <time>2022-06-23T08:53:39Z</time>
      </trkpt>
      <trkpt lat="47.62882" lon="4.36686">
        <ele>223.64</ele>
        <time>2022-06-23T08:53:40Z</time>
      </trkpt>
      <trkpt lat="47.62886" lon="4.36682">
        <ele>223.64</ele>
        <time>2022-06-23T08:53:41Z</time>
      </trkpt>
      <trkpt lat="47.62889" lon="4.36678">
        <ele>223.64</ele>
        <time>2022-06-23T08:53:42Z</time>
      </trkpt>
      <trkpt lat="47.62893" lon="4.36673">
        <ele>223.64</ele>
        <time>2022-06-23T08:53:43Z</time>
      </trkpt>
      <trkpt lat="47.62896" lon="4.36669">
        <ele>223.64</ele>
        <time>2022-06-23T08:53:44Z</time>
      </trkpt>
      <trkpt lat="47.62902" lon="4.36659">
        <ele>223.64</ele>
        <time>2022-06-23T08:53:46Z</time>
      </trkpt>
      <trkpt lat="47.62906" lon="4.36655">
        <ele>224.12</ele>
        <time>2022-06-23T08:53:47Z</time>
      </trkpt>
      <trkpt lat="47.62913" lon="4.36648">
        <ele>224.12</ele>
        <time>2022-06-23T08:53:49Z</time>
      </trkpt>
      <trkpt lat="47.62917" lon="4.36646">
        <ele>224.12</ele>
        <time>2022-06-23T08:53:50Z</time>
      </trkpt>
      <trkpt lat="47.62922" lon="4.36644">
        <ele>224.61</ele>
        <time>2022-06-23T08:53:51Z</time>
      </trkpt>
      <trkpt lat="47.62926" lon="4.36643">
        <ele>224.61</ele>
        <time>2022-06-23T08:53:52Z</time>
      </trkpt>
      <trkpt lat="47.62931" lon="4.36643">
        <ele>224.61</ele>
        <time>2022-06-23T08:53:53Z</time>
      </trkpt>
      <trkpt lat="47.63002" lon="4.36634">
        <ele>227.01</ele>
        <time>2022-06-23T08:54:12Z</time>
      </trkpt>
      <trkpt lat="47.63063" lon="4.36618">
        <ele>229.89</ele>
        <time>2022-06-23T08:54:35Z</time>
      </trkpt>
      <trkpt lat="47.631" lon="4.36587">
        <ele>231.81</ele>
        <time>2022-06-23T08:54:54Z</time>
      </trkpt>
      <trkpt lat="47.63132" lon="4.36548">
        <ele>234.7</ele>
        <time>2022-06-23T08:55:16Z</time>
      </trkpt>
      <trkpt lat="47.63153" lon="4.36516">
        <ele>238.54</ele>
        <time>2022-06-23T08:55:33Z</time>
      </trkpt>
      <trkpt lat="47.63177" lon="4.36493">
        <ele>241.43</ele>
        <time>2022-06-23T08:55:49Z</time>
      </trkpt>
      <trkpt lat="47.63202" lon="4.36473">
        <ele>245.75</ele>
        <time>2022-06-23T08:56:06Z</time>
      </trkpt>
      <trkpt lat="47.63219" lon="4.3646">
        <ele>252.48</ele>
        <time>2022-06-23T08:56:19Z</time>
      </trkpt>
      <trkpt lat="47.63243" lon="4.3645">
        <ele>263.54</ele>
        <time>2022-06-23T08:56:36Z</time>
      </trkpt>
      <trkpt lat="47.63262" lon="4.3644">
        <ele>269.31</ele>
        <time>2022-06-23T08:56:51Z</time>
      </trkpt>
      <trkpt lat="47.63279" lon="4.36435">
        <ele>274.59</ele>
        <time>2022-06-23T08:57:04Z</time>
      </trkpt>
      <trkpt lat="47.63294" lon="4.36428">
        <ele>280.84</ele>
        <time>2022-06-23T08:57:17Z</time>
      </trkpt>
      <trkpt lat="47.63311" lon="4.36421">
        <ele>287.57</ele>
        <time>2022-06-23T08:57:32Z</time>
      </trkpt>
      <trkpt lat="47.63327" lon="4.36414">
        <ele>296.7</ele>
        <time>2022-06-23T08:57:48Z</time>
      </trkpt>
      <trkpt lat="47.63348" lon="4.3641">
        <ele>302.47</ele>
        <time>2022-06-23T08:58:03Z</time>
      </trkpt>
      <trkpt lat="47.63361" lon="4.36402">
        <ele>306.32</ele>
        <time>2022-06-23T08:58:13Z</time>
      </trkpt>
      <trkpt lat="47.63362" lon="4.36402">
        <ele>306.8</ele>
        <time>2022-06-23T08:58:14Z</time>
      </trkpt>
      <trkpt lat="47.6337" lon="4.36396">
        <ele>310.16</ele>
        <time>2022-06-23T08:58:20Z</time>
      </trkpt>
      <trkpt lat="47.63376" lon="4.36376">
        <ele>313.53</ele>
        <time>2022-06-23T08:58:34Z</time>
      </trkpt>
      <trkpt lat="47.63376" lon="4.36372">
        <ele>312.09</ele>
        <time>2022-06-23T08:58:41Z</time>
      </trkpt>
      <trkpt lat="47.63375" lon="4.36372">
        <ele>310.64</ele>
        <time>2022-06-23T08:58:45Z</time>
      </trkpt>
      <trkpt lat="47.63377" lon="4.36366">
        <ele>300.55</ele>
        <time>2022-06-23T08:59:00Z</time>
      </trkpt>
      <trkpt lat="47.63365" lon="4.36369">
        <ele>296.22</ele>
        <time>2022-06-23T08:59:14Z</time>
      </trkpt>
      <trkpt lat="47.63351" lon="4.36375">
        <ele>295.26</ele>
        <time>2022-06-23T08:59:24Z</time>
      </trkpt>
      <trkpt lat="47.63336" lon="4.36383">
        <ele>297.67</ele>
        <time>2022-06-23T08:59:32Z</time>
      </trkpt>
      <trkpt lat="47.63316" lon="4.36392">
        <ele>304.39</ele>
        <time>2022-06-23T08:59:45Z</time>
      </trkpt>
      <trkpt lat="47.63301" lon="4.36398">
        <ele>315.93</ele>
        <time>2022-06-23T08:59:58Z</time>
      </trkpt>
      <trkpt lat="47.63285" lon="4.36403">
        <ele>322.66</ele>
        <time>2022-06-23T09:00:10Z</time>
      </trkpt>
      <trkpt lat="47.63265" lon="4.36406">
        <ele>325.54</ele>
        <time>2022-06-23T09:00:22Z</time>
      </trkpt>
      <trkpt lat="47.63239" lon="4.36408">
        <ele>326.02</ele>
        <time>2022-06-23T09:00:37Z</time>
      </trkpt>
      <trkpt lat="47.63206" lon="4.36403">
        <ele>317.85</ele>
        <time>2022-06-23T09:00:54Z</time>
      </trkpt>
      <trkpt lat="47.63196" lon="4.36407">
        <ele>317.37</ele>
        <time>2022-06-23T09:01:00Z</time>
      </trkpt>
      <trkpt lat="47.63195" lon="4.36407">
        <ele>317.37</ele>
        <time>2022-06-23T09:01:01Z</time>
      </trkpt>
      <trkpt lat="47.63193" lon="4.36407">
        <ele>317.37</ele>
        <time>2022-06-23T09:01:02Z</time>
      </trkpt>
      <trkpt lat="47.63192" lon="4.36407">
        <ele>317.37</ele>
        <time>2022-06-23T09:01:03Z</time>
      </trkpt>
      <trkpt lat="47.6319" lon="4.36407">
        <ele>317.37</ele>
        <time>2022-06-23T09:01:04Z</time>
      </trkpt>
      <trkpt lat="47.63189" lon="4.36407">
        <ele>317.85</ele>
        <time>2022-06-23T09:01:05Z</time>
      </trkpt>
      <trkpt lat="47.63174" lon="4.36399">
        <ele>316.89</ele>
        <time>2022-06-23T09:01:16Z</time>
      </trkpt>
      <trkpt lat="47.63153" lon="4.36378">
        <ele>312.57</ele>
        <time>2022-06-23T09:01:30Z</time>
      </trkpt>
      <trkpt lat="47.63148" lon="4.3637">
        <ele>312.57</ele>
        <time>2022-06-23T09:01:35Z</time>
      </trkpt>
      <trkpt lat="47.63147" lon="4.36369">
        <ele>312.57</ele>
        <time>2022-06-23T09:01:36Z</time>
      </trkpt>
      <trkpt lat="47.63146" lon="4.36367">
        <ele>312.57</ele>
        <time>2022-06-23T09:01:37Z</time>
      </trkpt>
      <trkpt lat="47.63145" lon="4.36365">
        <ele>312.57</ele>
        <time>2022-06-23T09:01:38Z</time>
      </trkpt>
      <trkpt lat="47.63139" lon="4.36353">
        <ele>312.09</ele>
        <time>2022-06-23T09:01:45Z</time>
      </trkpt>
      <trkpt lat="47.63131" lon="4.36333">
        <ele>314.49</ele>
        <time>2022-06-23T09:01:57Z</time>
      </trkpt>
      <trkpt lat="47.63127" lon="4.36322">
        <ele>315.93</ele>
        <time>2022-06-23T09:02:04Z</time>
      </trkpt>
      <trkpt lat="47.63122" lon="4.36312">
        <ele>316.89</ele>
        <time>2022-06-23T09:02:10Z</time>
      </trkpt>
      <trkpt lat="47.631" lon="4.3628">
        <ele>307.28</ele>
        <time>2022-06-23T09:02:25Z</time>
      </trkpt>
      <trkpt lat="47.63094" lon="4.36254">
        <ele>307.76</ele>
        <time>2022-06-23T09:02:39Z</time>
      </trkpt>
      <trkpt lat="47.63092" lon="4.3624">
        <ele>307.76</ele>
        <time>2022-06-23T09:02:53Z</time>
      </trkpt>
      <trkpt lat="47.63092" lon="4.36218">
        <ele>309.2</ele>
        <time>2022-06-23T09:03:09Z</time>
      </trkpt>
      <trkpt lat="47.6309" lon="4.36194">
        <ele>311.12</ele>
        <time>2022-06-23T09:03:26Z</time>
      </trkpt>
      <trkpt lat="47.63084" lon="4.36166">
        <ele>311.12</ele>
        <time>2022-06-23T09:03:42Z</time>
      </trkpt>
      <trkpt lat="47.63077" lon="4.36145">
        <ele>310.16</ele>
        <time>2022-06-23T09:03:56Z</time>
      </trkpt>
      <trkpt lat="47.63075" lon="4.36136">
        <ele>309.2</ele>
        <time>2022-06-23T09:04:01Z</time>
      </trkpt>
      <trkpt lat="47.63068" lon="4.36115">
        <ele>303.91</ele>
        <time>2022-06-23T09:04:17Z</time>
      </trkpt>
      <trkpt lat="47.63065" lon="4.36093">
        <ele>303.43</ele>
        <time>2022-06-23T09:04:28Z</time>
      </trkpt>
      <trkpt lat="47.63059" lon="4.36044">
        <ele>302.47</ele>
        <time>2022-06-23T09:04:49Z</time>
      </trkpt>
      <trkpt lat="47.63055" lon="4.36023">
        <ele>303.43</ele>
        <time>2022-06-23T09:04:59Z</time>
      </trkpt>
      <trkpt lat="47.6305" lon="4.36018">
        <ele>303.43</ele>
        <time>2022-06-23T09:05:03Z</time>
      </trkpt>
      <trkpt lat="47.63018" lon="4.35993">
        <ele>302.47</ele>
        <time>2022-06-23T09:05:19Z</time>
      </trkpt>
      <trkpt lat="47.63012" lon="4.35987">
        <ele>302.47</ele>
        <time>2022-06-23T09:05:21Z</time>
      </trkpt>
      <trkpt lat="47.6299" lon="4.35949">
        <ele>300.55</ele>
        <time>2022-06-23T09:05:28Z</time>
      </trkpt>
      <trkpt lat="47.62976" lon="4.35901">
        <ele>298.63</ele>
        <time>2022-06-23T09:05:34Z</time>
      </trkpt>
      <trkpt lat="47.62978" lon="4.35859">
        <ele>296.22</ele>
        <time>2022-06-23T09:05:40Z</time>
      </trkpt>
      <trkpt lat="47.62984" lon="4.35852">
        <ele>295.74</ele>
        <time>2022-06-23T09:05:43Z</time>
      </trkpt>
      <trkpt lat="47.62986" lon="4.35853">
        <ele>295.74</ele>
        <time>2022-06-23T09:05:44Z</time>
      </trkpt>
      <trkpt lat="47.62987" lon="4.35855">
        <ele>295.74</ele>
        <time>2022-06-23T09:05:45Z</time>
      </trkpt>
      <trkpt lat="47.62988" lon="4.35857">
        <ele>295.74</ele>
        <time>2022-06-23T09:05:46Z</time>
      </trkpt>
      <trkpt lat="47.62989" lon="4.3586">
        <ele>295.74</ele>
        <time>2022-06-23T09:05:47Z</time>
      </trkpt>
      <trkpt lat="47.63005" lon="4.35901">
        <ele>298.15</ele>
        <time>2022-06-23T09:06:04Z</time>
      </trkpt>
      <trkpt lat="47.63012" lon="4.35911">
        <ele>299.11</ele>
        <time>2022-06-23T09:06:11Z</time>
      </trkpt>
      <trkpt lat="47.63014" lon="4.35912">
        <ele>299.11</ele>
        <time>2022-06-23T09:06:12Z</time>
      </trkpt>
      <trkpt lat="47.63037" lon="4.35902">
        <ele>300.07</ele>
        <time>2022-06-23T09:06:25Z</time>
      </trkpt>
      <trkpt lat="47.63041" lon="4.35866">
        <ele>303.43</ele>
        <time>2022-06-23T09:06:40Z</time>
      </trkpt>
      <trkpt lat="47.63031" lon="4.35809">
        <ele>303.91</ele>
        <time>2022-06-23T09:06:56Z</time>
      </trkpt>
      <trkpt lat="47.63017" lon="4.35734">
        <ele>303.43</ele>
        <time>2022-06-23T09:07:15Z</time>
      </trkpt>
      <trkpt lat="47.63005" lon="4.35676">
        <ele>301.99</ele>
        <time>2022-06-23T09:07:30Z</time>
      </trkpt>
      <trkpt lat="47.62989" lon="4.35598">
        <ele>300.55</ele>
        <time>2022-06-23T09:07:46Z</time>
      </trkpt>
      <trkpt lat="47.62973" lon="4.35487">
        <ele>298.63</ele>
        <time>2022-06-23T09:08:02Z</time>
      </trkpt>
      <trkpt lat="47.62972" lon="4.35364">
        <ele>297.18</ele>
        <time>2022-06-23T09:08:20Z</time>
      </trkpt>
      <trkpt lat="47.6297" lon="4.35341">
        <ele>295.74</ele>
        <time>2022-06-23T09:08:23Z</time>
      </trkpt>
      <trkpt lat="47.62963" lon="4.35302">
        <ele>292.86</ele>
        <time>2022-06-23T09:08:28Z</time>
      </trkpt>
      <trkpt lat="47.6294" lon="4.35235">
        <ele>286.13</ele>
        <time>2022-06-23T09:08:40Z</time>
      </trkpt>
      <trkpt lat="47.62927" lon="4.35183">
        <ele>280.84</ele>
        <time>2022-06-23T09:08:48Z</time>
      </trkpt>
      <trkpt lat="47.62926" lon="4.35173">
        <ele>280.36</ele>
        <time>2022-06-23T09:08:49Z</time>
      </trkpt>
      <trkpt lat="47.62917" lon="4.35057">
        <ele>272.19</ele>
        <time>2022-06-23T09:08:58Z</time>
      </trkpt>
      <trkpt lat="47.62909" lon="4.35004">
        <ele>268.35</ele>
        <time>2022-06-23T09:09:02Z</time>
      </trkpt>
      <trkpt lat="47.6291" lon="4.34993">
        <ele>267.38</ele>
        <time>2022-06-23T09:09:03Z</time>
      </trkpt>
      <trkpt lat="47.62913" lon="4.34984">
        <ele>266.9</ele>
        <time>2022-06-23T09:09:04Z</time>
      </trkpt>
      <trkpt lat="47.62918" lon="4.34977">
        <ele>265.94</ele>
        <time>2022-06-23T09:09:05Z</time>
      </trkpt>
      <trkpt lat="47.62924" lon="4.34972">
        <ele>264.98</ele>
        <time>2022-06-23T09:09:06Z</time>
      </trkpt>
      <trkpt lat="47.62931" lon="4.34968">
        <ele>264.02</ele>
        <time>2022-06-23T09:09:07Z</time>
      </trkpt>
      <trkpt lat="47.62944" lon="4.34961">
        <ele>262.58</ele>
        <time>2022-06-23T09:09:09Z</time>
      </trkpt>
      <trkpt lat="47.62948" lon="4.34956">
        <ele>261.62</ele>
        <time>2022-06-23T09:09:10Z</time>
      </trkpt>
      <trkpt lat="47.62951" lon="4.34949">
        <ele>261.14</ele>
        <time>2022-06-23T09:09:11Z</time>
      </trkpt>
      <trkpt lat="47.62951" lon="4.34937">
        <ele>260.17</ele>
        <time>2022-06-23T09:09:12Z</time>
      </trkpt>
      <trkpt lat="47.6295" lon="4.3493">
        <ele>259.69</ele>
        <time>2022-06-23T09:09:13Z</time>
      </trkpt>
      <trkpt lat="47.62948" lon="4.34921">
        <ele>259.21</ele>
        <time>2022-06-23T09:09:14Z</time>
      </trkpt>
      <trkpt lat="47.62912" lon="4.34755">
        <ele>252.48</ele>
        <time>2022-06-23T09:09:29Z</time>
      </trkpt>
      <trkpt lat="47.62866" lon="4.34562">
        <ele>241.91</ele>
        <time>2022-06-23T09:09:42Z</time>
      </trkpt>
      <trkpt lat="47.6282" lon="4.3438">
        <ele>235.66</ele>
        <time>2022-06-23T09:09:56Z</time>
      </trkpt>
      <trkpt lat="47.62815" lon="4.34359">
        <ele>234.22</ele>
        <time>2022-06-23T09:09:58Z</time>
      </trkpt>
      <trkpt lat="47.62816" lon="4.3435">
        <ele>233.74</ele>
        <time>2022-06-23T09:09:59Z</time>
      </trkpt>
      <trkpt lat="47.62819" lon="4.34343">
        <ele>233.26</ele>
        <time>2022-06-23T09:10:00Z</time>
      </trkpt>
      <trkpt lat="47.62825" lon="4.34338">
        <ele>232.78</ele>
        <time>2022-06-23T09:10:01Z</time>
      </trkpt>
      <trkpt lat="47.62831" lon="4.34334">
        <ele>232.78</ele>
        <time>2022-06-23T09:10:02Z</time>
      </trkpt>
      <trkpt lat="47.62838" lon="4.3433">
        <ele>232.78</ele>
        <time>2022-06-23T09:10:03Z</time>
      </trkpt>
      <trkpt lat="47.62844" lon="4.34325">
        <ele>233.26</ele>
        <time>2022-06-23T09:10:04Z</time>
      </trkpt>
      <trkpt lat="47.62849" lon="4.3432">
        <ele>233.26</ele>
        <time>2022-06-23T09:10:05Z</time>
      </trkpt>
      <trkpt lat="47.62859" lon="4.34312">
        <ele>233.74</ele>
        <time>2022-06-23T09:10:07Z</time>
      </trkpt>
      <trkpt lat="47.62863" lon="4.34308">
        <ele>233.74</ele>
        <time>2022-06-23T09:10:08Z</time>
      </trkpt>
      <trkpt lat="47.62904" lon="4.34271">
        <ele>233.26</ele>
        <time>2022-06-23T09:10:18Z</time>
      </trkpt>
      <trkpt lat="47.62905" lon="4.34265">
        <ele>233.26</ele>
        <time>2022-06-23T09:10:19Z</time>
      </trkpt>
      <trkpt lat="47.62905" lon="4.34257">
        <ele>233.74</ele>
        <time>2022-06-23T09:10:20Z</time>
      </trkpt>
      <trkpt lat="47.62904" lon="4.34251">
        <ele>233.26</ele>
        <time>2022-06-23T09:10:21Z</time>
      </trkpt>
      <trkpt lat="47.62902" lon="4.34245">
        <ele>233.26</ele>
        <time>2022-06-23T09:10:22Z</time>
      </trkpt>
      <trkpt lat="47.62882" lon="4.34153">
        <ele>229.41</ele>
        <time>2022-06-23T09:10:33Z</time>
      </trkpt>
      <trkpt lat="47.6288" lon="4.34149">
        <ele>229.41</ele>
        <time>2022-06-23T09:10:34Z</time>
      </trkpt>
      <trkpt lat="47.6286" lon="4.34133">
        <ele>228.45</ele>
        <time>2022-06-23T09:10:41Z</time>
      </trkpt>
      <trkpt lat="47.62823" lon="4.34136">
        <ele>226.05</ele>
        <time>2022-06-23T09:10:49Z</time>
      </trkpt>
      <trkpt lat="47.62821" lon="4.34132">
        <ele>225.57</ele>
        <time>2022-06-23T09:10:50Z</time>
      </trkpt>
      <trkpt lat="47.62819" lon="4.34126">
        <ele>225.57</ele>
        <time>2022-06-23T09:10:51Z</time>
      </trkpt>
      <trkpt lat="47.62817" lon="4.3412">
        <ele>225.09</ele>
        <time>2022-06-23T09:10:52Z</time>
      </trkpt>
      <trkpt lat="47.62816" lon="4.34114">
        <ele>225.09</ele>
        <time>2022-06-23T09:10:53Z</time>
      </trkpt>
      <trkpt lat="47.62814" lon="4.34108">
        <ele>224.61</ele>
        <time>2022-06-23T09:10:54Z</time>
      </trkpt>
      <trkpt lat="47.62813" lon="4.34101">
        <ele>224.61</ele>
        <time>2022-06-23T09:10:55Z</time>
      </trkpt>
      <trkpt lat="47.62812" lon="4.34095">
        <ele>224.61</ele>
        <time>2022-06-23T09:10:56Z</time>
      </trkpt>
      <trkpt lat="47.62786" lon="4.34027">
        <ele>223.16</ele>
        <time>2022-06-23T09:11:10Z</time>
      </trkpt>
      <trkpt lat="47.62773" lon="4.34002">
        <ele>221.72</ele>
        <time>2022-06-23T09:11:21Z</time>
      </trkpt>
      <trkpt lat="47.62761" lon="4.33951">
        <ele>221.72</ele>
        <time>2022-06-23T09:11:34Z</time>
      </trkpt>
      <trkpt lat="47.62747" lon="4.33884">
        <ele>220.28</ele>
        <time>2022-06-23T09:11:48Z</time>
      </trkpt>
      <trkpt lat="47.62741" lon="4.33867">
        <ele>219.32</ele>
        <time>2022-06-23T09:11:51Z</time>
      </trkpt>
      <trkpt lat="47.62737" lon="4.33862">
        <ele>218.84</ele>
        <time>2022-06-23T09:11:52Z</time>
      </trkpt>
      <trkpt lat="47.62732" lon="4.33859">
        <ele>218.36</ele>
        <time>2022-06-23T09:11:53Z</time>
      </trkpt>
      <trkpt lat="47.62728" lon="4.33857">
        <ele>217.88</ele>
        <time>2022-06-23T09:11:54Z</time>
      </trkpt>
      <trkpt lat="47.62723" lon="4.33857">
        <ele>217.88</ele>
        <time>2022-06-23T09:11:55Z</time>
      </trkpt>
      <trkpt lat="47.62718" lon="4.33857">
        <ele>217.4</ele>
        <time>2022-06-23T09:11:56Z</time>
      </trkpt>
      <trkpt lat="47.62714" lon="4.33859">
        <ele>217.4</ele>
        <time>2022-06-23T09:11:57Z</time>
      </trkpt>
      <trkpt lat="47.62698" lon="4.3388">
        <ele>217.4</ele>
        <time>2022-06-23T09:12:05Z</time>
      </trkpt>
      <trkpt lat="47.62692" lon="4.33867">
        <ele>217.4</ele>
        <time>2022-06-23T09:12:09Z</time>
      </trkpt>
      <trkpt lat="47.6268" lon="4.33846">
        <ele>217.88</ele>
        <time>2022-06-23T09:12:15Z</time>
      </trkpt>
      <trkpt lat="47.62672" lon="4.33824">
        <ele>218.36</ele>
        <time>2022-06-23T09:12:24Z</time>
      </trkpt>
      <trkpt lat="47.62672" lon="4.33821">
        <ele>218.36</ele>
        <time>2022-06-23T09:12:26Z</time>
      </trkpt>
      <trkpt lat="47.62697" lon="4.33791">
        <ele>214.99</ele>
        <time>2022-06-23T09:12:39Z</time>
      </trkpt>
      <trkpt lat="47.6273" lon="4.33763">
        <ele>214.99</ele>
        <time>2022-06-23T09:12:48Z</time>
      </trkpt>
      <trkpt lat="47.62771" lon="4.3373">
        <ele>214.51</ele>
        <time>2022-06-23T09:12:58Z</time>
      </trkpt>
      <trkpt lat="47.62779" lon="4.33721">
        <ele>214.51</ele>
        <time>2022-06-23T09:13:00Z</time>
      </trkpt>
      <trkpt lat="47.62794" lon="4.33704">
        <ele>215.47</ele>
        <time>2022-06-23T09:13:04Z</time>
      </trkpt>
      <trkpt lat="47.62808" lon="4.33685">
        <ele>216.43</ele>
        <time>2022-06-23T09:13:08Z</time>
      </trkpt>
      <trkpt lat="47.62861" lon="4.33624">
        <ele>216.43</ele>
        <time>2022-06-23T09:13:22Z</time>
      </trkpt>
      <trkpt lat="47.62919" lon="4.33524">
        <ele>212.11</ele>
        <time>2022-06-23T09:13:40Z</time>
      </trkpt>
      <trkpt lat="47.62935" lon="4.33479">
        <ele>212.11</ele>
        <time>2022-06-23T09:13:47Z</time>
      </trkpt>
      <trkpt lat="47.62939" lon="4.33377">
        <ele>211.63</ele>
        <time>2022-06-23T09:14:01Z</time>
      </trkpt>
      <trkpt lat="47.6292" lon="4.33272">
        <ele>209.22</ele>
        <time>2022-06-23T09:14:16Z</time>
      </trkpt>
      <trkpt lat="47.629" lon="4.33215">
        <ele>210.19</ele>
        <time>2022-06-23T09:14:25Z</time>
      </trkpt>
      <trkpt lat="47.62906" lon="4.33187">
        <ele>211.63</ele>
        <time>2022-06-23T09:14:31Z</time>
      </trkpt>
      <trkpt lat="47.6293" lon="4.33169">
        <ele>214.99</ele>
        <time>2022-06-23T09:14:41Z</time>
      </trkpt>
      <trkpt lat="47.62937" lon="4.33122">
        <ele>217.88</ele>
        <time>2022-06-23T09:14:51Z</time>
      </trkpt>
      <trkpt lat="47.62937" lon="4.33116">
        <ele>217.88</ele>
        <time>2022-06-23T09:14:52Z</time>
      </trkpt>
      <trkpt lat="47.62936" lon="4.33111">
        <ele>217.88</ele>
        <time>2022-06-23T09:14:53Z</time>
      </trkpt>
      <trkpt lat="47.62934" lon="4.33105">
        <ele>217.88</ele>
        <time>2022-06-23T09:14:54Z</time>
      </trkpt>
      <trkpt lat="47.62932" lon="4.331">
        <ele>217.88</ele>
        <time>2022-06-23T09:14:55Z</time>
      </trkpt>
      <trkpt lat="47.6288" lon="4.33012">
        <ele>215.95</ele>
        <time>2022-06-23T09:15:12Z</time>
      </trkpt>
      <trkpt lat="47.62809" lon="4.32925">
        <ele>214.03</ele>
        <time>2022-06-23T09:15:31Z</time>
      </trkpt>
      <trkpt lat="47.62755" lon="4.32871">
        <ele>214.99</ele>
        <time>2022-06-23T09:15:47Z</time>
      </trkpt>
      <trkpt lat="47.62753" lon="4.32862">
        <ele>214.99</ele>
        <time>2022-06-23T09:15:49Z</time>
      </trkpt>
      <trkpt lat="47.62754" lon="4.32858">
        <ele>214.99</ele>
        <time>2022-06-23T09:15:50Z</time>
      </trkpt>
      <trkpt lat="47.62755" lon="4.32854">
        <ele>214.99</ele>
        <time>2022-06-23T09:15:51Z</time>
      </trkpt>
      <trkpt lat="47.62769" lon="4.32814">
        <ele>214.51</ele>
        <time>2022-06-23T09:16:02Z</time>
      </trkpt>
      <trkpt lat="47.62767" lon="4.3281">
        <ele>214.51</ele>
        <time>2022-06-23T09:16:03Z</time>
      </trkpt>
      <trkpt lat="47.62765" lon="4.32808">
        <ele>214.99</ele>
        <time>2022-06-23T09:16:04Z</time>
      </trkpt>
      <trkpt lat="47.62762" lon="4.32806">
        <ele>214.99</ele>
        <time>2022-06-23T09:16:05Z</time>
      </trkpt>
      <trkpt lat="47.62759" lon="4.32804">
        <ele>214.99</ele>
        <time>2022-06-23T09:16:06Z</time>
      </trkpt>
      <trkpt lat="47.62756" lon="4.32801">
        <ele>215.47</ele>
        <time>2022-06-23T09:16:07Z</time>
      </trkpt>
      <trkpt lat="47.62753" lon="4.32798">
        <ele>215.47</ele>
        <time>2022-06-23T09:16:08Z</time>
      </trkpt>
      <trkpt lat="47.62706" lon="4.32743">
        <ele>215.95</ele>
        <time>2022-06-23T09:16:25Z</time>
      </trkpt>
      <trkpt lat="47.62659" lon="4.32692">
        <ele>215.47</ele>
        <time>2022-06-23T09:16:41Z</time>
      </trkpt>
      <trkpt lat="47.62593" lon="4.32618">
        <ele>216.43</ele>
        <time>2022-06-23T09:17:02Z</time>
      </trkpt>
      <trkpt lat="47.62536" lon="4.32553">
        <ele>217.88</ele>
        <time>2022-06-23T09:17:20Z</time>
      </trkpt>
      <trkpt lat="47.62472" lon="4.32483">
        <ele>217.4</ele>
        <time>2022-06-23T09:17:38Z</time>
      </trkpt>
      <trkpt lat="47.62468" lon="4.32478">
        <ele>216.91</ele>
        <time>2022-06-23T09:17:39Z</time>
      </trkpt>
      <trkpt lat="47.62464" lon="4.32472">
        <ele>216.91</ele>
        <time>2022-06-23T09:17:40Z</time>
      </trkpt>
      <trkpt lat="47.62415" lon="4.32416">
        <ele>215.47</ele>
        <time>2022-06-23T09:17:51Z</time>
      </trkpt>
      <trkpt lat="47.62326" lon="4.32359">
        <ele>212.59</ele>
        <time>2022-06-23T09:18:05Z</time>
      </trkpt>
      <trkpt lat="47.62302" lon="4.32345">
        <ele>210.67</ele>
        <time>2022-06-23T09:18:12Z</time>
      </trkpt>
      <trkpt lat="47.62285" lon="4.32334">
        <ele>210.67</ele>
        <time>2022-06-23T09:18:17Z</time>
      </trkpt>
      <trkpt lat="47.62283" lon="4.32331">
        <ele>211.15</ele>
        <time>2022-06-23T09:18:18Z</time>
      </trkpt>
      <trkpt lat="47.6228" lon="4.3233">
        <ele>211.15</ele>
        <time>2022-06-23T09:18:19Z</time>
      </trkpt>
      <trkpt lat="47.62276" lon="4.32331">
        <ele>211.63</ele>
        <time>2022-06-23T09:18:20Z</time>
      </trkpt>
      <trkpt lat="47.62273" lon="4.32334">
        <ele>212.11</ele>
        <time>2022-06-23T09:18:21Z</time>
      </trkpt>
      <trkpt lat="47.6227" lon="4.32338">
        <ele>212.11</ele>
        <time>2022-06-23T09:18:22Z</time>
      </trkpt>
      <trkpt lat="47.62267" lon="4.3234">
        <ele>212.59</ele>
        <time>2022-06-23T09:18:23Z</time>
      </trkpt>
      <trkpt lat="47.62263" lon="4.3234">
        <ele>212.59</ele>
        <time>2022-06-23T09:18:24Z</time>
      </trkpt>
      <trkpt lat="47.62228" lon="4.32323">
        <ele>213.07</ele>
        <time>2022-06-23T09:18:33Z</time>
      </trkpt>
      <trkpt lat="47.62166" lon="4.32298">
        <ele>212.59</ele>
        <time>2022-06-23T09:18:49Z</time>
      </trkpt>
      <trkpt lat="47.62162" lon="4.32296">
        <ele>213.07</ele>
        <time>2022-06-23T09:18:50Z</time>
      </trkpt>
      <trkpt lat="47.62158" lon="4.32294">
        <ele>212.59</ele>
        <time>2022-06-23T09:18:51Z</time>
      </trkpt>
      <trkpt lat="47.62155" lon="4.32292">
        <ele>212.59</ele>
        <time>2022-06-23T09:18:52Z</time>
      </trkpt>
      <trkpt lat="47.62151" lon="4.32289">
        <ele>212.59</ele>
        <time>2022-06-23T09:18:53Z</time>
      </trkpt>
      <trkpt lat="47.62143" lon="4.32273">
        <ele>213.55</ele>
        <time>2022-06-23T09:18:57Z</time>
      </trkpt>
      <trkpt lat="47.62144" lon="4.32268">
        <ele>213.55</ele>
        <time>2022-06-23T09:18:58Z</time>
      </trkpt>
      <trkpt lat="47.62145" lon="4.32262">
        <ele>213.55</ele>
        <time>2022-06-23T09:18:59Z</time>
      </trkpt>
      <trkpt lat="47.62147" lon="4.32258">
        <ele>213.55</ele>
        <time>2022-06-23T09:19:00Z</time>
      </trkpt>
      <trkpt lat="47.62148" lon="4.32252">
        <ele>213.55</ele>
        <time>2022-06-23T09:19:01Z</time>
      </trkpt>
      <trkpt lat="47.62179" lon="4.32175">
        <ele>212.59</ele>
        <time>2022-06-23T09:19:16Z</time>
      </trkpt>
      <trkpt lat="47.62226" lon="4.32067">
        <ele>212.59</ele>
        <time>2022-06-23T09:19:34Z</time>
      </trkpt>
      <trkpt lat="47.62237" lon="4.32045">
        <ele>213.07</ele>
        <time>2022-06-23T09:19:38Z</time>
      </trkpt>
      <trkpt lat="47.62239" lon="4.32039">
        <ele>213.55</ele>
        <time>2022-06-23T09:19:39Z</time>
      </trkpt>
      <trkpt lat="47.62241" lon="4.32032">
        <ele>214.03</ele>
        <time>2022-06-23T09:19:40Z</time>
      </trkpt>
      <trkpt lat="47.62241" lon="4.32026">
        <ele>214.03</ele>
        <time>2022-06-23T09:19:41Z</time>
      </trkpt>
      <trkpt lat="47.6224" lon="4.32019">
        <ele>214.51</ele>
        <time>2022-06-23T09:19:42Z</time>
      </trkpt>
      <trkpt lat="47.62239" lon="4.32013">
        <ele>214.51</ele>
        <time>2022-06-23T09:19:43Z</time>
      </trkpt>
      <trkpt lat="47.62237" lon="4.32007">
        <ele>214.51</ele>
        <time>2022-06-23T09:19:44Z</time>
      </trkpt>
      <trkpt lat="47.62235" lon="4.32">
        <ele>214.51</ele>
        <time>2022-06-23T09:19:45Z</time>
      </trkpt>
      <trkpt lat="47.62209" lon="4.31964">
        <ele>216.43</ele>
        <time>2022-06-23T09:19:56Z</time>
      </trkpt>
      <trkpt lat="47.62171" lon="4.31973">
        <ele>215.47</ele>
        <time>2022-06-23T09:20:05Z</time>
      </trkpt>
      <trkpt lat="47.62126" lon="4.32001">
        <ele>213.55</ele>
        <time>2022-06-23T09:20:14Z</time>
      </trkpt>
      <trkpt lat="47.62094" lon="4.32015">
        <ele>213.07</ele>
        <time>2022-06-23T09:20:20Z</time>
      </trkpt>
      <trkpt lat="47.62088" lon="4.32016">
        <ele>212.59</ele>
        <time>2022-06-23T09:20:21Z</time>
      </trkpt>
      <trkpt lat="47.62072" lon="4.32016">
        <ele>212.59</ele>
        <time>2022-06-23T09:20:24Z</time>
      </trkpt>
      <trkpt lat="47.62067" lon="4.32014">
        <ele>213.07</ele>
        <time>2022-06-23T09:20:25Z</time>
      </trkpt>
      <trkpt lat="47.62062" lon="4.32012">
        <ele>213.07</ele>
        <time>2022-06-23T09:20:26Z</time>
      </trkpt>
      <trkpt lat="47.61965" lon="4.31944">
        <ele>214.99</ele>
        <time>2022-06-23T09:20:47Z</time>
      </trkpt>
      <trkpt lat="47.61906" lon="4.31905">
        <ele>215.47</ele>
        <time>2022-06-23T09:21:02Z</time>
      </trkpt>
      <trkpt lat="47.61906" lon="4.31906">
        <ele>215.95</ele>
        <time>2022-06-23T09:21:03Z</time>
      </trkpt>
      <trkpt lat="47.61907" lon="4.31908">
        <ele>215.95</ele>
        <time>2022-06-23T09:21:04Z</time>
      </trkpt>
      <trkpt lat="47.61911" lon="4.31909">
        <ele>216.43</ele>
        <time>2022-06-23T09:21:06Z</time>
      </trkpt>
      <trkpt lat="47.61913" lon="4.31908">
        <ele>216.43</ele>
        <time>2022-06-23T09:21:07Z</time>
      </trkpt>
      <trkpt lat="47.61915" lon="4.31907">
        <ele>216.43</ele>
        <time>2022-06-23T09:21:08Z</time>
      </trkpt>
      <trkpt lat="47.61917" lon="4.31902">
        <ele>215.95</ele>
        <time>2022-06-23T09:21:10Z</time>
      </trkpt>
      <trkpt lat="47.61917" lon="4.31899">
        <ele>214.51</ele>
        <time>2022-06-23T09:21:25Z</time>
      </trkpt>
      <trkpt lat="47.61918" lon="4.31897">
        <ele>214.51</ele>
        <time>2022-06-23T09:21:42Z</time>
      </trkpt>
      <trkpt lat="47.61917" lon="4.31899">
        <ele>216.91</ele>
        <time>2022-06-23T09:21:59Z</time>
      </trkpt>
      <trkpt lat="47.61917" lon="4.319">
        <ele>222.68</ele>
        <time>2022-06-23T09:22:10Z</time>
      </trkpt>
      <trkpt lat="47.61916" lon="4.31893">
        <ele>223.16</ele>
        <time>2022-06-23T09:22:27Z</time>
      </trkpt>
      <trkpt lat="47.61916" lon="4.31887">
        <ele>223.64</ele>
        <time>2022-06-23T09:22:53Z</time>
      </trkpt>
      <trkpt lat="47.61914" lon="4.31886">
        <ele>224.12</ele>
        <time>2022-06-23T09:23:16Z</time>
      </trkpt>
      <trkpt lat="47.61915" lon="4.3188">
        <ele>223.64</ele>
        <time>2022-06-23T09:23:49Z</time>
      </trkpt>
      <trkpt lat="47.61917" lon="4.31879">
        <ele>223.64</ele>
        <time>2022-06-23T09:24:15Z</time>
      </trkpt>
      <trkpt lat="47.61917" lon="4.31883">
        <ele>222.68</ele>
        <time>2022-06-23T09:24:41Z</time>
      </trkpt>
      <trkpt lat="47.61912" lon="4.31884">
        <ele>220.28</ele>
        <time>2022-06-23T09:25:09Z</time>
      </trkpt>
      <trkpt lat="47.61913" lon="4.31885">
        <ele>219.32</ele>
        <time>2022-06-23T09:25:41Z</time>
      </trkpt>
      <trkpt lat="47.61909" lon="4.31884">
        <ele>219.32</ele>
        <time>2022-06-23T09:26:16Z</time>
      </trkpt>
      <trkpt lat="47.6191" lon="4.31882">
        <ele>220.28</ele>
        <time>2022-06-23T09:26:47Z</time>
      </trkpt>
      <trkpt lat="47.61913" lon="4.31887">
        <ele>221.72</ele>
        <time>2022-06-23T09:27:15Z</time>
      </trkpt>
      <trkpt lat="47.6192" lon="4.31889">
        <ele>223.16</ele>
        <time>2022-06-23T09:27:51Z</time>
      </trkpt>
      <trkpt lat="47.6192" lon="4.3189">
        <ele>223.16</ele>
        <time>2022-06-23T09:28:11Z</time>
      </trkpt>
      <trkpt lat="47.61919" lon="4.3189">
        <ele>222.2</ele>
        <time>2022-06-23T09:28:40Z</time>
      </trkpt>
      <trkpt lat="47.61916" lon="4.31893">
        <ele>224.61</ele>
        <time>2022-06-23T09:28:51Z</time>
      </trkpt>
      <trkpt lat="47.61918" lon="4.31895">
        <ele>225.09</ele>
        <time>2022-06-23T09:28:58Z</time>
      </trkpt>
      <trkpt lat="47.61913" lon="4.31895">
        <ele>227.49</ele>
        <time>2022-06-23T09:29:01Z</time>
      </trkpt>
      <trkpt lat="47.6191" lon="4.31893">
        <ele>227.97</ele>
        <time>2022-06-23T09:29:02Z</time>
      </trkpt>
      <trkpt lat="47.61906" lon="4.31892">
        <ele>228.45</ele>
        <time>2022-06-23T09:29:03Z</time>
      </trkpt>
      <trkpt lat="47.61858" lon="4.31871">
        <ele>228.93</ele>
        <time>2022-06-23T09:29:16Z</time>
      </trkpt>
      <trkpt lat="47.61815" lon="4.31846">
        <ele>228.45</ele>
        <time>2022-06-23T09:29:27Z</time>
      </trkpt>
      <trkpt lat="47.61812" lon="4.31843">
        <ele>228.45</ele>
        <time>2022-06-23T09:29:28Z</time>
      </trkpt>
      <trkpt lat="47.6176" lon="4.31798">
        <ele>227.97</ele>
        <time>2022-06-23T09:29:43Z</time>
      </trkpt>
      <trkpt lat="47.61695" lon="4.31749">
        <ele>224.12</ele>
        <time>2022-06-23T09:30:01Z</time>
      </trkpt>
      <trkpt lat="47.61638" lon="4.31684">
        <ele>223.64</ele>
        <time>2022-06-23T09:30:19Z</time>
      </trkpt>
      <trkpt lat="47.6159" lon="4.31622">
        <ele>224.12</ele>
        <time>2022-06-23T09:30:35Z</time>
      </trkpt>
      <trkpt lat="47.61539" lon="4.31564">
        <ele>225.09</ele>
        <time>2022-06-23T09:30:51Z</time>
      </trkpt>
      <trkpt lat="47.61493" lon="4.31508">
        <ele>225.09</ele>
        <time>2022-06-23T09:31:06Z</time>
      </trkpt>
      <trkpt lat="47.61434" lon="4.31441">
        <ele>226.05</ele>
        <time>2022-06-23T09:31:25Z</time>
      </trkpt>
      <trkpt lat="47.61395" lon="4.31401">
        <ele>227.49</ele>
        <time>2022-06-23T09:31:41Z</time>
      </trkpt>
      <trkpt lat="47.61351" lon="4.3135">
        <ele>227.97</ele>
        <time>2022-06-23T09:32:01Z</time>
      </trkpt>
      <trkpt lat="47.61306" lon="4.31288">
        <ele>229.89</ele>
        <time>2022-06-23T09:32:24Z</time>
      </trkpt>
      <trkpt lat="47.61279" lon="4.3123">
        <ele>230.85</ele>
        <time>2022-06-23T09:32:42Z</time>
      </trkpt>
      <trkpt lat="47.61258" lon="4.31186">
        <ele>233.26</ele>
        <time>2022-06-23T09:32:57Z</time>
      </trkpt>
      <trkpt lat="47.61256" lon="4.31187">
        <ele>233.74</ele>
        <time>2022-06-23T09:32:58Z</time>
      </trkpt>
      <trkpt lat="47.61253" lon="4.31189">
        <ele>233.74</ele>
        <time>2022-06-23T09:32:59Z</time>
      </trkpt>
      <trkpt lat="47.6125" lon="4.31192">
        <ele>234.22</ele>
        <time>2022-06-23T09:33:00Z</time>
      </trkpt>
      <trkpt lat="47.61248" lon="4.31195">
        <ele>234.22</ele>
        <time>2022-06-23T09:33:01Z</time>
      </trkpt>
      <trkpt lat="47.61244" lon="4.31198">
        <ele>234.22</ele>
        <time>2022-06-23T09:33:02Z</time>
      </trkpt>
      <trkpt lat="47.6124" lon="4.31197">
        <ele>234.22</ele>
        <time>2022-06-23T09:33:03Z</time>
      </trkpt>
      <trkpt lat="47.61236" lon="4.31195">
        <ele>234.22</ele>
        <time>2022-06-23T09:33:04Z</time>
      </trkpt>
      <trkpt lat="47.61232" lon="4.31191">
        <ele>233.74</ele>
        <time>2022-06-23T09:33:05Z</time>
      </trkpt>
      <trkpt lat="47.61228" lon="4.31188">
        <ele>233.74</ele>
        <time>2022-06-23T09:33:06Z</time>
      </trkpt>
      <trkpt lat="47.61223" lon="4.31187">
        <ele>233.74</ele>
        <time>2022-06-23T09:33:07Z</time>
      </trkpt>
      <trkpt lat="47.61217" lon="4.31189">
        <ele>233.26</ele>
        <time>2022-06-23T09:33:08Z</time>
      </trkpt>
      <trkpt lat="47.61212" lon="4.31194">
        <ele>233.26</ele>
        <time>2022-06-23T09:33:09Z</time>
      </trkpt>
      <trkpt lat="47.61207" lon="4.312">
        <ele>232.78</ele>
        <time>2022-06-23T09:33:10Z</time>
      </trkpt>
      <trkpt lat="47.61147" lon="4.31304">
        <ele>229.41</ele>
        <time>2022-06-23T09:33:26Z</time>
      </trkpt>
      <trkpt lat="47.61104" lon="4.31361">
        <ele>230.85</ele>
        <time>2022-06-23T09:33:40Z</time>
      </trkpt>
      <trkpt lat="47.61022" lon="4.31417">
        <ele>228.45</ele>
        <time>2022-06-23T09:33:57Z</time>
      </trkpt>
      <trkpt lat="47.60978" lon="4.31438">
        <ele>227.97</ele>
        <time>2022-06-23T09:34:06Z</time>
      </trkpt>
      <trkpt lat="47.60973" lon="4.31441">
        <ele>227.97</ele>
        <time>2022-06-23T09:34:07Z</time>
      </trkpt>
      <trkpt lat="47.60946" lon="4.31474">
        <ele>228.45</ele>
        <time>2022-06-23T09:34:14Z</time>
      </trkpt>
      <trkpt lat="47.60943" lon="4.31481">
        <ele>228.45</ele>
        <time>2022-06-23T09:34:15Z</time>
      </trkpt>
      <trkpt lat="47.6092" lon="4.31546">
        <ele>227.97</ele>
        <time>2022-06-23T09:34:24Z</time>
      </trkpt>
      <trkpt lat="47.60917" lon="4.31553">
        <ele>227.97</ele>
        <time>2022-06-23T09:34:25Z</time>
      </trkpt>
      <trkpt lat="47.60896" lon="4.31588">
        <ele>227.49</ele>
        <time>2022-06-23T09:34:31Z</time>
      </trkpt>
      <trkpt lat="47.60892" lon="4.31592">
        <ele>227.49</ele>
        <time>2022-06-23T09:34:32Z</time>
      </trkpt>
      <trkpt lat="47.60833" lon="4.31645">
        <ele>228.93</ele>
        <time>2022-06-23T09:34:49Z</time>
      </trkpt>
      <trkpt lat="47.60816" lon="4.31657">
        <ele>228.93</ele>
        <time>2022-06-23T09:34:53Z</time>
      </trkpt>
      <trkpt lat="47.60797" lon="4.31665">
        <ele>228.93</ele>
        <time>2022-06-23T09:34:57Z</time>
      </trkpt>
      <trkpt lat="47.60724" lon="4.31682">
        <ele>229.41</ele>
        <time>2022-06-23T09:35:14Z</time>
      </trkpt>
      <trkpt lat="47.60646" lon="4.31704">
        <ele>228.93</ele>
        <time>2022-06-23T09:35:33Z</time>
      </trkpt>
      <trkpt lat="47.60571" lon="4.31734">
        <ele>227.49</ele>
        <time>2022-06-23T09:35:51Z</time>
      </trkpt>
      <trkpt lat="47.60493" lon="4.31778">
        <ele>227.49</ele>
        <time>2022-06-23T09:36:09Z</time>
      </trkpt>
      <trkpt lat="47.60485" lon="4.31786">
        <ele>227.49</ele>
        <time>2022-06-23T09:36:11Z</time>
      </trkpt>
      <trkpt lat="47.60481" lon="4.3179">
        <ele>227.49</ele>
        <time>2022-06-23T09:36:12Z</time>
      </trkpt>
      <trkpt lat="47.60467" lon="4.31807">
        <ele>227.49</ele>
        <time>2022-06-23T09:36:16Z</time>
      </trkpt>
      <trkpt lat="47.60417" lon="4.31855">
        <ele>229.89</ele>
        <time>2022-06-23T09:36:31Z</time>
      </trkpt>
      <trkpt lat="47.60345" lon="4.31893">
        <ele>232.78</ele>
        <time>2022-06-23T09:36:50Z</time>
      </trkpt>
      <trkpt lat="47.60286" lon="4.31894">
        <ele>233.26</ele>
        <time>2022-06-23T09:37:07Z</time>
      </trkpt>
      <trkpt lat="47.60238" lon="4.31907">
        <ele>237.58</ele>
        <time>2022-06-23T09:37:23Z</time>
      </trkpt>
      <trkpt lat="47.60194" lon="4.31929">
        <ele>247.2</ele>
        <time>2022-06-23T09:37:39Z</time>
      </trkpt>
      <trkpt lat="47.60162" lon="4.31947">
        <ele>256.81</ele>
        <time>2022-06-23T09:37:53Z</time>
      </trkpt>
      <trkpt lat="47.60139" lon="4.31961">
        <ele>264.02</ele>
        <time>2022-06-23T09:38:04Z</time>
      </trkpt>
      <trkpt lat="47.60096" lon="4.31982">
        <ele>265.94</ele>
        <time>2022-06-23T09:38:19Z</time>
      </trkpt>
      <trkpt lat="47.60056" lon="4.32009">
        <ele>266.9</ele>
        <time>2022-06-23T09:38:31Z</time>
      </trkpt>
      <trkpt lat="47.60027" lon="4.32054">
        <ele>268.35</ele>
        <time>2022-06-23T09:38:44Z</time>
      </trkpt>
      <trkpt lat="47.59989" lon="4.32136">
        <ele>268.35</ele>
        <time>2022-06-23T09:38:59Z</time>
      </trkpt>
      <trkpt lat="47.59951" lon="4.32211">
        <ele>268.35</ele>
        <time>2022-06-23T09:39:15Z</time>
      </trkpt>
      <trkpt lat="47.59947" lon="4.32254">
        <ele>268.83</ele>
        <time>2022-06-23T09:39:23Z</time>
      </trkpt>
      <trkpt lat="47.59945" lon="4.32261">
        <ele>266.9</ele>
        <time>2022-06-23T09:39:24Z</time>
      </trkpt>
      <trkpt lat="47.59942" lon="4.32268">
        <ele>265.46</ele>
        <time>2022-06-23T09:39:25Z</time>
      </trkpt>
      <trkpt lat="47.59939" lon="4.32274">
        <ele>264.5</ele>
        <time>2022-06-23T09:39:26Z</time>
      </trkpt>
      <trkpt lat="47.59936" lon="4.32279">
        <ele>264.02</ele>
        <time>2022-06-23T09:39:27Z</time>
      </trkpt>
      <trkpt lat="47.59933" lon="4.32283">
        <ele>264.02</ele>
        <time>2022-06-23T09:39:28Z</time>
      </trkpt>
      <trkpt lat="47.59929" lon="4.32286">
        <ele>263.54</ele>
        <time>2022-06-23T09:39:29Z</time>
      </trkpt>
      <trkpt lat="47.59873" lon="4.32336">
        <ele>254.41</ele>
        <time>2022-06-23T09:39:46Z</time>
      </trkpt>
      <trkpt lat="47.59833" lon="4.32393">
        <ele>240.47</ele>
        <time>2022-06-23T09:40:02Z</time>
      </trkpt>
      <trkpt lat="47.59805" lon="4.32422">
        <ele>243.35</ele>
        <time>2022-06-23T09:40:15Z</time>
      </trkpt>
      <trkpt lat="47.59773" lon="4.32449">
        <ele>249.6</ele>
        <time>2022-06-23T09:40:34Z</time>
      </trkpt>
      <trkpt lat="47.59753" lon="4.32476">
        <ele>254.89</ele>
        <time>2022-06-23T09:40:48Z</time>
      </trkpt>
      <trkpt lat="47.5973" lon="4.32512">
        <ele>257.29</ele>
        <time>2022-06-23T09:41:06Z</time>
      </trkpt>
      <trkpt lat="47.59719" lon="4.32523">
        <ele>259.21</ele>
        <time>2022-06-23T09:41:14Z</time>
      </trkpt>
      <trkpt lat="47.59718" lon="4.32523">
        <ele>259.21</ele>
        <time>2022-06-23T09:41:15Z</time>
      </trkpt>
      <trkpt lat="47.59717" lon="4.32522">
        <ele>259.21</ele>
        <time>2022-06-23T09:41:16Z</time>
      </trkpt>
      <trkpt lat="47.59716" lon="4.32522">
        <ele>258.73</ele>
        <time>2022-06-23T09:41:17Z</time>
      </trkpt>
      <trkpt lat="47.59716" lon="4.3252">
        <ele>258.25</ele>
        <time>2022-06-23T09:41:18Z</time>
      </trkpt>
      <trkpt lat="47.59716" lon="4.32519">
        <ele>257.77</ele>
        <time>2022-06-23T09:41:19Z</time>
      </trkpt>
      <trkpt lat="47.59715" lon="4.32517">
        <ele>257.77</ele>
        <time>2022-06-23T09:41:20Z</time>
      </trkpt>
      <trkpt lat="47.59714" lon="4.32515">
        <ele>257.29</ele>
        <time>2022-06-23T09:41:21Z</time>
      </trkpt>
      <trkpt lat="47.59695" lon="4.32494">
        <ele>256.33</ele>
        <time>2022-06-23T09:41:37Z</time>
      </trkpt>
      <trkpt lat="47.59671" lon="4.32511">
        <ele>257.77</ele>
        <time>2022-06-23T09:41:54Z</time>
      </trkpt>
      <trkpt lat="47.59667" lon="4.32516">
        <ele>258.73</ele>
        <time>2022-06-23T09:41:58Z</time>
      </trkpt>
      <trkpt lat="47.59643" lon="4.32517">
        <ele>257.77</ele>
        <time>2022-06-23T09:42:15Z</time>
      </trkpt>
      <trkpt lat="47.59622" lon="4.32504">
        <ele>259.21</ele>
        <time>2022-06-23T09:42:32Z</time>
      </trkpt>
      <trkpt lat="47.59599" lon="4.32489">
        <ele>259.21</ele>
        <time>2022-06-23T09:42:52Z</time>
      </trkpt>
      <trkpt lat="47.5958" lon="4.32483">
        <ele>264.5</ele>
        <time>2022-06-23T09:43:10Z</time>
      </trkpt>
      <trkpt lat="47.59555" lon="4.32482">
        <ele>273.15</ele>
        <time>2022-06-23T09:43:29Z</time>
      </trkpt>
      <trkpt lat="47.59536" lon="4.32485">
        <ele>275.07</ele>
        <time>2022-06-23T09:43:45Z</time>
      </trkpt>
      <trkpt lat="47.59518" lon="4.3249">
        <ele>280.36</ele>
        <time>2022-06-23T09:44:02Z</time>
      </trkpt>
      <trkpt lat="47.59494" lon="4.32495">
        <ele>284.21</ele>
        <time>2022-06-23T09:44:21Z</time>
      </trkpt>
      <trkpt lat="47.5947" lon="4.32502">
        <ele>284.69</ele>
        <time>2022-06-23T09:44:40Z</time>
      </trkpt>
      <trkpt lat="47.59442" lon="4.32511">
        <ele>284.21</ele>
        <time>2022-06-23T09:45:02Z</time>
      </trkpt>
      <trkpt lat="47.59423" lon="4.32515">
        <ele>285.17</ele>
        <time>2022-06-23T09:45:19Z</time>
      </trkpt>
      <trkpt lat="47.59407" lon="4.32519">
        <ele>290.46</ele>
        <time>2022-06-23T09:45:36Z</time>
      </trkpt>
      <trkpt lat="47.59384" lon="4.32522">
        <ele>294.3</ele>
        <time>2022-06-23T09:45:52Z</time>
      </trkpt>
      <trkpt lat="47.59358" lon="4.32531">
        <ele>294.78</ele>
        <time>2022-06-23T09:46:12Z</time>
      </trkpt>
      <trkpt lat="47.59332" lon="4.32549">
        <ele>295.26</ele>
        <time>2022-06-23T09:46:31Z</time>
      </trkpt>
      <trkpt lat="47.59302" lon="4.32579">
        <ele>295.26</ele>
        <time>2022-06-23T09:46:44Z</time>
      </trkpt>
      <trkpt lat="47.59276" lon="4.32607">
        <ele>296.7</ele>
        <time>2022-06-23T09:46:58Z</time>
      </trkpt>
      <trkpt lat="47.59238" lon="4.32648">
        <ele>301.51</ele>
        <time>2022-06-23T09:47:21Z</time>
      </trkpt>
      <trkpt lat="47.59206" lon="4.32685">
        <ele>301.99</ele>
        <time>2022-06-23T09:47:37Z</time>
      </trkpt>
      <trkpt lat="47.59172" lon="4.32709">
        <ele>301.51</ele>
        <time>2022-06-23T09:47:49Z</time>
      </trkpt>
      <trkpt lat="47.59146" lon="4.32701">
        <ele>299.59</ele>
        <time>2022-06-23T09:48:06Z</time>
      </trkpt>
      <trkpt lat="47.59122" lon="4.32698">
        <ele>301.51</ele>
        <time>2022-06-23T09:48:24Z</time>
      </trkpt>
      <trkpt lat="47.59098" lon="4.32702">
        <ele>304.88</ele>
        <time>2022-06-23T09:48:43Z</time>
      </trkpt>
      <trkpt lat="47.59078" lon="4.32706">
        <ele>310.64</ele>
        <time>2022-06-23T09:49:00Z</time>
      </trkpt>
      <trkpt lat="47.59075" lon="4.32706">
        <ele>311.6</ele>
        <time>2022-06-23T09:49:02Z</time>
      </trkpt>
      <trkpt lat="47.59052" lon="4.32708">
        <ele>319.3</ele>
        <time>2022-06-23T09:49:20Z</time>
      </trkpt>
      <trkpt lat="47.59031" lon="4.32712">
        <ele>326.5</ele>
        <time>2022-06-23T09:49:36Z</time>
      </trkpt>
      <trkpt lat="47.59007" lon="4.32721">
        <ele>331.31</ele>
        <time>2022-06-23T09:49:51Z</time>
      </trkpt>
      <trkpt lat="47.58979" lon="4.3273">
        <ele>334.68</ele>
        <time>2022-06-23T09:50:07Z</time>
      </trkpt>
      <trkpt lat="47.58957" lon="4.32737">
        <ele>341.89</ele>
        <time>2022-06-23T09:50:24Z</time>
      </trkpt>
      <trkpt lat="47.58943" lon="4.32746">
        <ele>350.54</ele>
        <time>2022-06-23T09:50:39Z</time>
      </trkpt>
      <trkpt lat="47.58922" lon="4.32758">
        <ele>359.19</ele>
        <time>2022-06-23T09:50:53Z</time>
      </trkpt>
      <trkpt lat="47.58894" lon="4.32772">
        <ele>363.52</ele>
        <time>2022-06-23T09:51:09Z</time>
      </trkpt>
      <trkpt lat="47.58881" lon="4.32776">
        <ele>361.59</ele>
        <time>2022-06-23T09:51:17Z</time>
      </trkpt>
      <trkpt lat="47.58873" lon="4.32778">
        <ele>359.67</ele>
        <time>2022-06-23T09:51:21Z</time>
      </trkpt>
      <trkpt lat="47.58838" lon="4.32786">
        <ele>351.5</ele>
        <time>2022-06-23T09:51:38Z</time>
      </trkpt>
      <trkpt lat="47.58808" lon="4.32798">
        <ele>346.69</ele>
        <time>2022-06-23T09:51:54Z</time>
      </trkpt>
      <trkpt lat="47.58783" lon="4.32811">
        <ele>344.77</ele>
        <time>2022-06-23T09:52:11Z</time>
      </trkpt>
      <trkpt lat="47.58764" lon="4.32824">
        <ele>345.25</ele>
        <time>2022-06-23T09:52:24Z</time>
      </trkpt>
      <trkpt lat="47.58732" lon="4.32855">
        <ele>347.65</ele>
        <time>2022-06-23T09:52:43Z</time>
      </trkpt>
      <trkpt lat="47.58687" lon="4.32897">
        <ele>342.85</ele>
        <time>2022-06-23T09:53:02Z</time>
      </trkpt>
      <trkpt lat="47.58634" lon="4.32928">
        <ele>341.89</ele>
        <time>2022-06-23T09:53:21Z</time>
      </trkpt>
      <trkpt lat="47.58588" lon="4.32954">
        <ele>341.89</ele>
        <time>2022-06-23T09:53:38Z</time>
      </trkpt>
      <trkpt lat="47.5855" lon="4.32978">
        <ele>342.85</ele>
        <time>2022-06-23T09:53:52Z</time>
      </trkpt>
      <trkpt lat="47.58492" lon="4.33008">
        <ele>345.25</ele>
        <time>2022-06-23T09:54:12Z</time>
      </trkpt>
      <trkpt lat="47.58443" lon="4.3303">
        <ele>347.65</ele>
        <time>2022-06-23T09:54:28Z</time>
      </trkpt>
      <trkpt lat="47.58386" lon="4.33051">
        <ele>350.06</ele>
        <time>2022-06-23T09:54:45Z</time>
      </trkpt>
      <trkpt lat="47.58324" lon="4.33061">
        <ele>354.38</ele>
        <time>2022-06-23T09:55:03Z</time>
      </trkpt>
      <trkpt lat="47.58264" lon="4.33058">
        <ele>358.23</ele>
        <time>2022-06-23T09:55:19Z</time>
      </trkpt>
      <trkpt lat="47.58201" lon="4.33047">
        <ele>354.38</ele>
        <time>2022-06-23T09:55:35Z</time>
      </trkpt>
      <trkpt lat="47.58126" lon="4.33033">
        <ele>347.65</ele>
        <time>2022-06-23T09:55:54Z</time>
      </trkpt>
      <trkpt lat="47.58053" lon="4.33022">
        <ele>345.73</ele>
        <time>2022-06-23T09:56:13Z</time>
      </trkpt>
      <trkpt lat="47.57986" lon="4.33018">
        <ele>344.77</ele>
        <time>2022-06-23T09:56:30Z</time>
      </trkpt>
      <trkpt lat="47.57928" lon="4.33007">
        <ele>344.77</ele>
        <time>2022-06-23T09:56:45Z</time>
      </trkpt>
      <trkpt lat="47.57897" lon="4.33007">
        <ele>342.37</ele>
        <time>2022-06-23T09:56:52Z</time>
      </trkpt>
      <trkpt lat="47.57888" lon="4.33005">
        <ele>341.89</ele>
        <time>2022-06-23T09:56:54Z</time>
      </trkpt>
      <trkpt lat="47.57815" lon="4.32988">
        <ele>340.92</ele>
        <time>2022-06-23T09:57:12Z</time>
      </trkpt>
      <trkpt lat="47.57757" lon="4.32976">
        <ele>340.92</ele>
        <time>2022-06-23T09:57:27Z</time>
      </trkpt>
      <trkpt lat="47.57708" lon="4.32958">
        <ele>341.89</ele>
        <time>2022-06-23T09:57:42Z</time>
      </trkpt>
      <trkpt lat="47.57657" lon="4.32933">
        <ele>345.25</ele>
        <time>2022-06-23T09:58:01Z</time>
      </trkpt>
      <trkpt lat="47.57618" lon="4.32885">
        <ele>346.69</ele>
        <time>2022-06-23T09:58:17Z</time>
      </trkpt>
      <trkpt lat="47.57569" lon="4.32854">
        <ele>345.73</ele>
        <time>2022-06-23T09:58:33Z</time>
      </trkpt>
      <trkpt lat="47.57515" lon="4.3283">
        <ele>345.25</ele>
        <time>2022-06-23T09:58:49Z</time>
      </trkpt>
      <trkpt lat="47.57458" lon="4.32792">
        <ele>345.25</ele>
        <time>2022-06-23T09:59:05Z</time>
      </trkpt>
      <trkpt lat="47.57454" lon="4.32789">
        <ele>345.25</ele>
        <time>2022-06-23T09:59:06Z</time>
      </trkpt>
      <trkpt lat="47.57435" lon="4.32782">
        <ele>343.81</ele>
        <time>2022-06-23T09:59:10Z</time>
      </trkpt>
      <trkpt lat="47.57331" lon="4.32781">
        <ele>339.48</ele>
        <time>2022-06-23T09:59:29Z</time>
      </trkpt>
      <trkpt lat="47.57297" lon="4.32785">
        <ele>341.89</ele>
        <time>2022-06-23T09:59:40Z</time>
      </trkpt>
      <trkpt lat="47.57268" lon="4.32792">
        <ele>344.77</ele>
        <time>2022-06-23T09:59:57Z</time>
      </trkpt>
      <trkpt lat="47.57233" lon="4.32797">
        <ele>347.65</ele>
        <time>2022-06-23T10:00:17Z</time>
      </trkpt>
      <trkpt lat="47.57195" lon="4.32789">
        <ele>349.58</ele>
        <time>2022-06-23T10:00:36Z</time>
      </trkpt>
      <trkpt lat="47.57139" lon="4.32778">
        <ele>351.98</ele>
        <time>2022-06-23T10:00:58Z</time>
      </trkpt>
      <trkpt lat="47.57066" lon="4.32766">
        <ele>352.94</ele>
        <time>2022-06-23T10:01:21Z</time>
      </trkpt>
      <trkpt lat="47.57003" lon="4.32756">
        <ele>354.38</ele>
        <time>2022-06-23T10:01:41Z</time>
      </trkpt>
      <trkpt lat="47.56954" lon="4.32751">
        <ele>353.9</ele>
        <time>2022-06-23T10:01:57Z</time>
      </trkpt>
      <trkpt lat="47.56889" lon="4.32749">
        <ele>353.9</ele>
        <time>2022-06-23T10:02:16Z</time>
      </trkpt>
      <trkpt lat="47.56845" lon="4.32758">
        <ele>353.42</ele>
        <time>2022-06-23T10:02:30Z</time>
      </trkpt>
      <trkpt lat="47.56798" lon="4.32772">
        <ele>354.38</ele>
        <time>2022-06-23T10:02:46Z</time>
      </trkpt>
      <trkpt lat="47.5676" lon="4.32787">
        <ele>357.75</ele>
        <time>2022-06-23T10:03:04Z</time>
      </trkpt>
      <trkpt lat="47.56741" lon="4.328">
        <ele>358.71</ele>
        <time>2022-06-23T10:03:17Z</time>
      </trkpt>
      <trkpt lat="47.56735" lon="4.32804">
        <ele>359.19</ele>
        <time>2022-06-23T10:03:29Z</time>
      </trkpt>
      <trkpt lat="47.5672" lon="4.32817">
        <ele>360.15</ele>
        <time>2022-06-23T10:03:40Z</time>
      </trkpt>
      <trkpt lat="47.56683" lon="4.32852">
        <ele>361.11</ele>
        <time>2022-06-23T10:04:00Z</time>
      </trkpt>
      <trkpt lat="47.56657" lon="4.3284">
        <ele>362.55</ele>
        <time>2022-06-23T10:04:14Z</time>
      </trkpt>
      <trkpt lat="47.56628" lon="4.32805">
        <ele>363.04</ele>
        <time>2022-06-23T10:04:31Z</time>
      </trkpt>
      <trkpt lat="47.566" lon="4.3278">
        <ele>364</ele>
        <time>2022-06-23T10:04:46Z</time>
      </trkpt>
      <trkpt lat="47.56568" lon="4.32761">
        <ele>364.96</ele>
        <time>2022-06-23T10:05:02Z</time>
      </trkpt>
      <trkpt lat="47.56531" lon="4.32732">
        <ele>369.28</ele>
        <time>2022-06-23T10:05:21Z</time>
      </trkpt>
      <trkpt lat="47.56488" lon="4.32699">
        <ele>368.8</ele>
        <time>2022-06-23T10:05:40Z</time>
      </trkpt>
      <trkpt lat="47.56432" lon="4.32666">
        <ele>368.32</ele>
        <time>2022-06-23T10:06:00Z</time>
      </trkpt>
      <trkpt lat="47.56398" lon="4.32627">
        <ele>369.76</ele>
        <time>2022-06-23T10:06:14Z</time>
      </trkpt>
      <trkpt lat="47.56347" lon="4.32581">
        <ele>368.32</ele>
        <time>2022-06-23T10:06:27Z</time>
      </trkpt>
      <trkpt lat="47.56267" lon="4.32537">
        <ele>362.55</ele>
        <time>2022-06-23T10:06:44Z</time>
      </trkpt>
      <trkpt lat="47.56196" lon="4.32484">
        <ele>360.15</ele>
        <time>2022-06-23T10:07:01Z</time>
      </trkpt>
      <trkpt lat="47.56139" lon="4.3244">
        <ele>360.15</ele>
        <time>2022-06-23T10:07:18Z</time>
      </trkpt>
      <trkpt lat="47.56097" lon="4.32406">
        <ele>361.11</ele>
        <time>2022-06-23T10:07:33Z</time>
      </trkpt>
      <trkpt lat="47.56051" lon="4.32354">
        <ele>362.07</ele>
        <time>2022-06-23T10:07:51Z</time>
      </trkpt>
      <trkpt lat="47.56006" lon="4.32296">
        <ele>363.04</ele>
        <time>2022-06-23T10:08:09Z</time>
      </trkpt>
      <trkpt lat="47.55969" lon="4.32269">
        <ele>363.52</ele>
        <time>2022-06-23T10:08:22Z</time>
      </trkpt>
      <trkpt lat="47.55919" lon="4.32238">
        <ele>364.96</ele>
        <time>2022-06-23T10:08:39Z</time>
      </trkpt>
      <trkpt lat="47.5588" lon="4.3221">
        <ele>369.28</ele>
        <time>2022-06-23T10:08:53Z</time>
      </trkpt>
      <trkpt lat="47.55828" lon="4.32164">
        <ele>355.34</ele>
        <time>2022-06-23T10:09:11Z</time>
      </trkpt>
      <trkpt lat="47.55794" lon="4.32122">
        <ele>345.25</ele>
        <time>2022-06-23T10:09:25Z</time>
      </trkpt>
      <trkpt lat="47.55756" lon="4.32045">
        <ele>331.79</ele>
        <time>2022-06-23T10:09:45Z</time>
      </trkpt>
      <trkpt lat="47.55725" lon="4.31975">
        <ele>322.18</ele>
        <time>2022-06-23T10:10:00Z</time>
      </trkpt>
      <trkpt lat="47.55691" lon="4.31892">
        <ele>312.57</ele>
        <time>2022-06-23T10:10:14Z</time>
      </trkpt>
      <trkpt lat="47.55649" lon="4.31768">
        <ele>300.55</ele>
        <time>2022-06-23T10:10:28Z</time>
      </trkpt>
      <trkpt lat="47.55624" lon="4.31723">
        <ele>294.3</ele>
        <time>2022-06-23T10:10:40Z</time>
      </trkpt>
      <trkpt lat="47.55602" lon="4.31684">
        <ele>289.49</ele>
        <time>2022-06-23T10:10:54Z</time>
      </trkpt>
      <trkpt lat="47.55596" lon="4.31626">
        <ele>285.17</ele>
        <time>2022-06-23T10:11:10Z</time>
      </trkpt>
      <trkpt lat="47.55588" lon="4.31598">
        <ele>284.69</ele>
        <time>2022-06-23T10:11:16Z</time>
      </trkpt>
      <trkpt lat="47.55585" lon="4.31593">
        <ele>284.21</ele>
        <time>2022-06-23T10:11:17Z</time>
      </trkpt>
      <trkpt lat="47.55581" lon="4.31586">
        <ele>284.21</ele>
        <time>2022-06-23T10:11:18Z</time>
      </trkpt>
      <trkpt lat="47.55576" lon="4.31579">
        <ele>283.73</ele>
        <time>2022-06-23T10:11:19Z</time>
      </trkpt>
      <trkpt lat="47.55571" lon="4.31571">
        <ele>283.73</ele>
        <time>2022-06-23T10:11:20Z</time>
      </trkpt>
      <trkpt lat="47.55561" lon="4.31552">
        <ele>282.28</ele>
        <time>2022-06-23T10:11:22Z</time>
      </trkpt>
      <trkpt lat="47.55546" lon="4.31504">
        <ele>277.96</ele>
        <time>2022-06-23T10:11:26Z</time>
      </trkpt>
      <trkpt lat="47.55543" lon="4.31491">
        <ele>277</ele>
        <time>2022-06-23T10:11:27Z</time>
      </trkpt>
      <trkpt lat="47.55541" lon="4.31478">
        <ele>276.04</ele>
        <time>2022-06-23T10:11:28Z</time>
      </trkpt>
      <trkpt lat="47.55524" lon="4.31357">
        <ele>271.23</ele>
        <time>2022-06-23T10:11:39Z</time>
      </trkpt>
      <trkpt lat="47.55521" lon="4.31214">
        <ele>267.38</ele>
        <time>2022-06-23T10:11:55Z</time>
      </trkpt>
      <trkpt lat="47.55505" lon="4.31086">
        <ele>263.06</ele>
        <time>2022-06-23T10:12:07Z</time>
      </trkpt>
      <trkpt lat="47.55493" lon="4.30958">
        <ele>256.33</ele>
        <time>2022-06-23T10:12:20Z</time>
      </trkpt>
      <trkpt lat="47.55491" lon="4.30952">
        <ele>256.33</ele>
        <time>2022-06-23T10:12:21Z</time>
      </trkpt>
      <trkpt lat="47.55489" lon="4.30947">
        <ele>255.85</ele>
        <time>2022-06-23T10:12:22Z</time>
      </trkpt>
      <trkpt lat="47.55487" lon="4.30943">
        <ele>255.37</ele>
        <time>2022-06-23T10:12:23Z</time>
      </trkpt>
      <trkpt lat="47.55484" lon="4.3094">
        <ele>255.37</ele>
        <time>2022-06-23T10:12:24Z</time>
      </trkpt>
      <trkpt lat="47.5548" lon="4.30937">
        <ele>254.89</ele>
        <time>2022-06-23T10:12:25Z</time>
      </trkpt>
      <trkpt lat="47.55476" lon="4.30935">
        <ele>254.41</ele>
        <time>2022-06-23T10:12:26Z</time>
      </trkpt>
      <trkpt lat="47.55471" lon="4.30933">
        <ele>253.93</ele>
        <time>2022-06-23T10:12:27Z</time>
      </trkpt>
      <trkpt lat="47.55467" lon="4.30933">
        <ele>253.44</ele>
        <time>2022-06-23T10:12:28Z</time>
      </trkpt>
      <trkpt lat="47.55463" lon="4.30933">
        <ele>253.44</ele>
        <time>2022-06-23T10:12:29Z</time>
      </trkpt>
      <trkpt lat="47.55444" lon="4.30921">
        <ele>252</ele>
        <time>2022-06-23T10:12:35Z</time>
      </trkpt>
      <trkpt lat="47.55444" lon="4.30918">
        <ele>252</ele>
        <time>2022-06-23T10:12:36Z</time>
      </trkpt>
      <trkpt lat="47.55444" lon="4.30915">
        <ele>252</ele>
        <time>2022-06-23T10:12:37Z</time>
      </trkpt>
      <trkpt lat="47.55445" lon="4.30914">
        <ele>252.48</ele>
        <time>2022-06-23T10:12:38Z</time>
      </trkpt>
      <trkpt lat="47.55447" lon="4.30913">
        <ele>254.89</ele>
        <time>2022-06-23T10:12:51Z</time>
      </trkpt>
      <trkpt lat="47.55445" lon="4.30912">
        <ele>255.85</ele>
        <time>2022-06-23T10:13:04Z</time>
      </trkpt>
      <trkpt lat="47.55437" lon="4.30896">
        <ele>258.25</ele>
        <time>2022-06-23T10:13:23Z</time>
      </trkpt>
      <trkpt lat="47.55437" lon="4.30897">
        <ele>263.06</ele>
        <time>2022-06-23T10:13:42Z</time>
      </trkpt>
      <trkpt lat="47.55424" lon="4.30899">
        <ele>262.58</ele>
        <time>2022-06-23T10:13:52Z</time>
      </trkpt>
      <trkpt lat="47.55422" lon="4.30898">
        <ele>257.77</ele>
        <time>2022-06-23T10:14:13Z</time>
      </trkpt>
      <trkpt lat="47.55423" lon="4.30899">
        <ele>256.81</ele>
        <time>2022-06-23T10:14:33Z</time>
      </trkpt>
    </trkseg>
  </trk>
</gpx>